Provisional Data: Nanticoke Creek near Maine, NY


Please select a monitoring station.
Please select start date.
Please select start date.

Toggle Unit: C/F Toggle Unit: C/F
Sample Time Temperature (C) Temperature (F) Specific Conductivity (mS/cm) pH   Turbidity (NTU+) DO (mg/L)
1/12/2021 12:00:00 AM 1.04 33.872 0.147 7.06 3.44 13.37
1/12/2021 12:15:00 AM 1.03 33.854 0.147 7.05 3.6 13.37
1/12/2021 12:30:00 AM 1.03 33.854 0.147 7.06 3.66 13.38
1/12/2021 12:45:00 AM 1.02 33.836 0.147 7.06 3.52 13.37
1/12/2021 1:00:00 AM 1.01 33.818 0.147 7.04 3.76 13.37
1/12/2021 1:15:00 AM 1.01 33.818 0.147 7.05 3.66 13.39
1/12/2021 1:30:00 AM 1.01 33.818 0.147 7.06 3.65 13.39
1/12/2021 1:45:00 AM 1.01 33.818 0.147 7.04 3.77 13.39
1/12/2021 2:00:00 AM 1 33.8 0.147 7.05 3.74 13.38
1/12/2021 2:15:00 AM 1 33.8 0.147 7.04 3.64 13.39
1/12/2021 2:30:00 AM 1 33.8 0.147 7.06 3.62 13.39
1/12/2021 2:45:00 AM 1 33.8 0.147 7.04 3.63 13.38
1/12/2021 3:00:00 AM 1 33.8 0.147 7.06 3.64 13.39
1/12/2021 3:15:00 AM 0.99 33.782 0.147 7.05 3.47 13.39
1/12/2021 3:30:00 AM 0.99 33.782 0.147 7.06 3.64 13.39
1/12/2021 3:45:00 AM 0.99 33.782 0.147 7.06 3.61 13.38
1/12/2021 4:00:00 AM 0.99 33.782 0.147 7.06 3.74 13.38
1/12/2021 4:15:00 AM 0.98 33.764 0.147 7.06 3.69 13.38
1/12/2021 4:30:00 AM 0.98 33.764 0.147 7.06 3.59 13.38
1/12/2021 4:45:00 AM 0.98 33.764 0.147 7.06 3.49 13.38
1/12/2021 5:00:00 AM 0.98 33.764 0.147 7.06 3.59 13.39
1/12/2021 5:15:00 AM 0.98 33.764 0.147 7.04 3.67 13.38
1/12/2021 5:30:00 AM 0.98 33.764 0.147 7.07 3.56 13.39
1/12/2021 5:45:00 AM 0.98 33.764 0.147 7.06 3.64 13.38
1/12/2021 6:00:00 AM 0.97 33.746 0.147 7.03 3.76 13.39
1/12/2021 6:15:00 AM 0.96 33.728 0.147 7.05 3.47 13.39
1/12/2021 6:30:00 AM 0.96 33.728 0.147 7.06 3.75 13.39
1/12/2021 6:45:00 AM 0.96 33.728 0.147 7.06 3.51 13.39
1/12/2021 7:00:00 AM 0.95 33.71 0.147 7.05 3.56 13.4
1/12/2021 7:15:00 AM 0.95 33.71 0.147 7.06 4.17 13.4
1/12/2021 7:30:00 AM 0.95 33.71 0.147 7.07 3.87 13.4
1/12/2021 7:45:00 AM 0.95 33.71 0.147 7.06 3.82 13.41
1/12/2021 8:00:00 AM 0.95 33.71 0.147 7.08 3.79 13.41
1/12/2021 8:15:00 AM 0.96 33.728 0.148 7.05 3.66 13.41
1/12/2021 8:30:00 AM 0.96 33.728 0.147 7.07 3.66 13.41
1/12/2021 8:45:00 AM 0.97 33.746 0.147 7.07 3.62 13.42
1/12/2021 9:00:00 AM 0.98 33.764 0.148 7.05 4.25 13.42
1/12/2021 9:15:00 AM 1 33.8 0.147 7.06 4.37 13.43
1/12/2021 9:30:00 AM 1.01 33.818 0.147 7.08 3.94 13.44
1/12/2021 9:45:00 AM 1.04 33.872 0.147 7.07 3.86 13.45
1/12/2021 10:00:00 AM 1.08 33.944 0.147 7.06 3.9 13.45
1/12/2021 10:15:00 AM 1.12 34.016 0.147 7.09 3.86 13.45
1/12/2021 10:30:00 AM 1.18 34.124 0.147 7.07 3.77 13.46
1/12/2021 10:45:00 AM 1.23 34.214 0.147 7.08 4.02 13.46
1/12/2021 11:00:00 AM 1.28 34.304 0.147 7.09 3.87 13.46
1/12/2021 11:15:00 AM 1.32 34.376 0.147 7.09 3.83 13.46
1/12/2021 11:30:00 AM 1.35 34.43 0.147 7.1 3.93 13.46
1/12/2021 11:45:00 AM 1.39 34.502 0.147 7.09 3.98 13.45
1/12/2021 12:00:00 PM 1.43 34.574 0.147 7.1 3.92 13.44
1/12/2021 12:15:00 PM 1.46 34.628 0.147 7.1 4.19 13.43
1/12/2021 12:30:00 PM 1.48 34.664 0.147 7.08 3.99 13.42
1/12/2021 12:45:00 PM 1.51 34.718 0.147 7.11 3.8 13.42
1/12/2021 1:00:00 PM 1.54 34.772 0.147 7.09 4.12 13.41
1/12/2021 1:15:00 PM 1.57 34.826 0.148 7.09 4 13.41
1/12/2021 1:30:00 PM 1.59 34.862 0.147 7.1 3.83 13.4
1/12/2021 1:45:00 PM 1.61 34.898 0.147 7.11 3.79 13.39
1/12/2021 2:00:00 PM 1.62 34.916 0.147 7.11 3.75 13.38
1/12/2021 2:15:00 PM 1.63 34.934 0.147 7.11 3.44 13.36
1/12/2021 2:30:00 PM 1.65 34.97 0.147 7.1 3.46 13.35
1/12/2021 2:45:00 PM 1.67 35.006 0.147 7.11 3.48 13.35
1/12/2021 3:00:00 PM 1.69 35.042 0.147 7.1 3.49 13.33
1/12/2021 3:15:00 PM 1.71 35.078 0.148 7.09 3.43 13.32
1/12/2021 3:30:00 PM 1.73 35.114 0.148 7.12 3.51 13.31
1/12/2021 3:45:00 PM 1.74 35.132 0.147 7.11 3.65 13.3
1/12/2021 4:00:00 PM 1.75 35.15 0.148 7.11 3.61 13.28
1/12/2021 4:15:00 PM 1.75 35.15 0.148 7.11 3.66 13.27
1/12/2021 4:30:00 PM 1.75 35.15 0.148 7.12 3.49 13.25
1/12/2021 4:45:00 PM 1.75 35.15 0.147 7.11 3.55 13.25
1/12/2021 5:00:00 PM 1.75 35.15 0.148 7.12 3.42 13.23
1/12/2021 5:15:00 PM 1.75 35.15 0.148 7.11 3.39 13.22
1/12/2021 5:30:00 PM 1.74 35.132 0.148 7.11 3.54 13.21
1/12/2021 5:45:00 PM 1.74 35.132 0.148 7.1 3.44 13.19
1/12/2021 6:00:00 PM 1.73 35.114 0.148 7.1 3.31 13.19
1/12/2021 6:15:00 PM 1.73 35.114 0.148 7.12 3.73 13.18
1/12/2021 6:30:00 PM 1.72 35.096 0.148 7.09 3.35 13.17
1/12/2021 6:45:00 PM 1.72 35.096 0.148 7.1 3.21 13.16
1/12/2021 7:00:00 PM 1.71 35.078 0.148 7.12 3.36 13.16
1/12/2021 7:15:00 PM 1.7 35.06 0.148 7.1 3.49 13.16
1/12/2021 7:30:00 PM 1.69 35.042 0.148 7.09 3.33 13.15
1/12/2021 7:45:00 PM 1.68 35.024 0.147 7.1 3.36 13.16
1/12/2021 8:00:00 PM 1.67 35.006 0.148 7.11 3.4 13.15
1/12/2021 8:15:00 PM 1.67 35.006 0.148 7.08 3.38 13.15
1/12/2021 8:30:00 PM 1.65 34.97 0.147 7.09 3.25 13.16
1/12/2021 8:45:00 PM 1.64 34.952 0.148 7.07 3.23 13.15
1/12/2021 9:00:00 PM 1.63 34.934 0.147 7.09 3.41 13.15
1/12/2021 9:15:00 PM 1.61 34.898 0.147 7.09 3.46 13.16
1/12/2021 9:30:00 PM 1.6 34.88 0.147 7.08 3.28 13.16
1/12/2021 9:45:00 PM 1.59 34.862 0.147 7.09 3.34 13.16
1/12/2021 10:00:00 PM 1.58 34.844 0.147 7.07 3.77 13.16
1/12/2021 10:15:00 PM 1.56 34.808 0.147 7.08 3.4 13.17
1/12/2021 10:30:00 PM 1.55 34.79 0.147 7.09 3.38 13.17
1/12/2021 10:45:00 PM 1.54 34.772 0.148 7.09 3.49 13.16
1/12/2021 11:00:00 PM 1.53 34.754 0.147 7.08 3.39 13.17
1/12/2021 11:15:00 PM 1.52 34.736 0.147 7.07 3.31 13.18
1/12/2021 11:30:00 PM 1.52 34.736 0.147 7.09 3.3 13.17
1/12/2021 11:45:00 PM 1.51 34.718 0.148 7.07 3.57 13.18
1/13/2021 12:00:00 AM 1.5 34.7 0.148 7.07 3.43 13.18
1/13/2021 12:15:00 AM 1.49 34.682 0.147 7.09 3.48 13.18
1/13/2021 12:30:00 AM 1.48 34.664 0.147 7.08 3.5 13.18
1/13/2021 12:45:00 AM 1.48 34.664 0.148 7.08 3.42 13.18
1/13/2021 1:00:00 AM 1.47 34.646 0.148 7.07 3.38 13.18
1/13/2021 1:15:00 AM 1.47 34.646 0.148 7.08 3.38 13.17
1/13/2021 1:30:00 AM 1.46 34.628 0.148 7.08 3.39 13.18
1/13/2021 1:45:00 AM 1.45 34.61 0.148 7.06 3.55 13.18
1/13/2021 2:00:00 AM 1.45 34.61 0.148 7.07 3.51 13.18
1/13/2021 2:15:00 AM 1.44 34.592 0.148 7.07 3.44 13.19
1/13/2021 2:30:00 AM 1.44 34.592 0.148 7.06 3.61 13.19
1/13/2021 2:45:00 AM 1.43 34.574 0.148 7.08 3.42 13.19
1/13/2021 3:00:00 AM 1.42 34.556 0.148 7.08 3.44 13.19
1/13/2021 3:15:00 AM 1.41 34.538 0.148 7.08 3.51 13.2
1/13/2021 3:30:00 AM 1.41 34.538 0.148 7.07 3.48 13.2
1/13/2021 3:45:00 AM 1.4 34.52 0.148 7.07 3.4 13.2
1/13/2021 4:00:00 AM 1.39 34.502 0.148 7.07 3.52 13.2
1/13/2021 4:15:00 AM 1.39 34.502 0.148 7.06 3.47 13.2
1/13/2021 4:30:00 AM 1.38 34.484 0.148 7.06 3.51 13.2
1/13/2021 4:45:00 AM 1.37 34.466 0.148 7.07 3.27 13.2
1/13/2021 5:00:00 AM 1.37 34.466 0.148 7.05 3.39 13.2
1/13/2021 5:15:00 AM 1.36 34.448 0.148 7.08 3.37 13.2
1/13/2021 5:30:00 AM 1.35 34.43 0.148 7.08 3.49 13.2
1/13/2021 5:45:00 AM 1.35 34.43 0.148 7.06 3.49 13.2
1/13/2021 6:00:00 AM 1.34 34.412 0.148 7.08 3.48 13.21
1/13/2021 6:15:00 AM 1.33 34.394 0.148 7.07 3.43 13.2
1/13/2021 6:30:00 AM 1.33 34.394 0.148 7.06 3.63 13.21
1/13/2021 6:45:00 AM 1.32 34.376 0.148 7.08 3.57 13.21
1/13/2021 7:00:00 AM 1.32 34.376 0.148 7.07 3.43 13.21
1/13/2021 7:15:00 AM 1.31 34.358 0.148 7.06 3.38 13.21
1/13/2021 7:30:00 AM 1.3 34.34 0.148 7.08 3.51 13.21
1/13/2021 7:45:00 AM 1.3 34.34 0.148 7.08 3.36 13.22
1/13/2021 8:00:00 AM 1.3 34.34 0.148 7.08 3.37 13.22
1/13/2021 8:15:00 AM 1.3 34.34 0.148 7.09 3.43 13.23
1/13/2021 8:30:00 AM 1.31 34.358 0.148 7.08 3.51 13.24
1/13/2021 8:45:00 AM 1.32 34.376 0.148 7.08 3.39 13.25
1/13/2021 9:00:00 AM 1.33 34.394 0.148 7.08 3.62 13.25
1/13/2021 9:15:00 AM 1.33 34.394 0.148 7.09 3.33 13.26
1/13/2021 9:30:00 AM 1.34 34.412 0.148 7.1 3.5 13.26
1/13/2021 9:45:00 AM 1.34 34.412 0.148 7.08 3.56 13.26
1/13/2021 10:00:00 AM 1.35 34.43 0.148 7.09 3.43 13.28
1/13/2021 10:15:00 AM 1.36 34.448 0.148 7.07 3.35 13.28
1/13/2021 10:30:00 AM 1.38 34.484 0.148 7.09 3.4 13.28
1/13/2021 10:45:00 AM 1.4 34.52 0.149 7.08 3.49 13.29
1/13/2021 11:00:00 AM 1.43 34.574 0.149 7.09 3.56 13.3
1/13/2021 11:15:00 AM 1.46 34.628 0.149 7.1 3.5 13.29
1/13/2021 11:30:00 AM 1.47 34.646 0.149 7.1 3.38 13.3
1/13/2021 11:45:00 AM 1.5 34.7 0.149 7.1 3.45 13.3
1/13/2021 12:00:00 PM 1.52 34.736 0.149 7.1 3.36 13.3
1/13/2021 12:15:00 PM 1.55 34.79 0.148 7.11 3.34 13.3
1/13/2021 12:30:00 PM 1.57 34.826 0.148 7.11 3.3 13.3
1/13/2021 12:45:00 PM 1.6 34.88 0.148 7.11 3.29 13.3
1/13/2021 1:00:00 PM 1.63 34.934 0.148 7.12 3.31 13.3
1/13/2021 1:15:00 PM 1.66 34.988 0.148 7.12 3.38 13.3
1/13/2021 1:30:00 PM 1.69 35.042 0.148 7.12 3.55 13.29
1/13/2021 1:45:00 PM 1.72 35.096 0.148 7.12 3.38 13.29
1/13/2021 2:00:00 PM 1.75 35.15 0.148 7.11 3.4 13.28
1/13/2021 2:15:00 PM 1.78 35.204 0.148 7.12 3.37 13.27
1/13/2021 2:30:00 PM 1.81 35.258 0.148 7.12 3.33 13.26
1/13/2021 2:45:00 PM 1.84 35.312 0.148 7.14 3.37 13.25
1/13/2021 3:00:00 PM 1.87 35.366 0.148 7.13 3.32 13.25
1/13/2021 3:15:00 PM 1.91 35.438 0.148 7.11 3.32 13.24
1/13/2021 3:30:00 PM 1.93 35.474 0.148 7.13 3.24 13.23
1/13/2021 3:45:00 PM 1.94 35.492 0.148 7.13 3.31 13.22
1/13/2021 4:00:00 PM 1.95 35.51 0.148 7.14 3.19 13.21
1/13/2021 4:15:00 PM 1.96 35.528 0.148 7.13 3.29 13.19
1/13/2021 4:30:00 PM 1.96 35.528 0.148 7.14 3.37 13.18
1/13/2021 4:45:00 PM 1.95 35.51 0.148 7.13 3.24 13.16
1/13/2021 5:00:00 PM 1.93 35.474 0.148 7.12 3.29 13.14
1/13/2021 5:15:00 PM 1.91 35.438 0.148 7.13 3.23 13.12
1/13/2021 5:30:00 PM 1.9 35.42 0.148 7.11 3.13 13.1
1/13/2021 5:45:00 PM 1.89 35.402 0.148 7.12 3.15 13.09
1/13/2021 6:00:00 PM 1.88 35.384 0.148 7.11 3.14 13.07
1/13/2021 6:15:00 PM 1.88 35.384 0.148 7.11 3.23 13.07
1/13/2021 6:30:00 PM 1.87 35.366 0.148 7.11 3.24 13.05
1/13/2021 6:45:00 PM 1.86 35.348 0.148 7.12 3.15 13.03
1/13/2021 7:00:00 PM 1.86 35.348 0.148 7.1 3.24 13.02
1/13/2021 7:15:00 PM 1.85 35.33 0.148 7.11 3.43 13.02
1/13/2021 7:30:00 PM 1.85 35.33 0.148 7.11 3.55 13
1/13/2021 7:45:00 PM 1.83 35.294 0.148 7.11 3.35 13
1/13/2021 8:00:00 PM 1.82 35.276 0.148 7.11 3.25 12.99
1/13/2021 8:15:00 PM 1.8 35.24 0.148 7.11 3.09 12.99
1/13/2021 8:30:00 PM 1.79 35.222 0.148 7.09 3.25 12.99
1/13/2021 8:45:00 PM 1.76 35.168 0.148 7.1 3.18 12.99
1/13/2021 9:00:00 PM 1.74 35.132 0.148 7.11 3.19 12.99
1/13/2021 9:15:00 PM 1.71 35.078 0.148 7.11 3.35 12.99
1/13/2021 9:30:00 PM 1.67 35.006 0.148 7.1 3.24 12.99
1/13/2021 9:45:00 PM 1.64 34.952 0.148 7.1 3.17 13
1/13/2021 10:00:00 PM 1.6 34.88 0.149 7.09 3.32 13.01
1/13/2021 10:15:00 PM 1.56 34.808 0.148 7.09 3.31 13.01
1/13/2021 10:30:00 PM 1.52 34.736 0.148 7.07 3.42 13.02
1/13/2021 10:45:00 PM 1.49 34.682 0.148 7.09 3.43 13.03
1/13/2021 11:00:00 PM 1.45 34.61 0.149 7.08 3.62 13.04
1/13/2021 11:15:00 PM 1.41 34.538 0.149 7.09 3.5 13.05
1/13/2021 11:30:00 PM 1.38 34.484 0.149 7.08 3.53 13.06
1/13/2021 11:45:00 PM 1.34 34.412 0.149 7.09 3.86 13.06
1/14/2021 12:00:00 AM 1.31 34.358 0.149 7.07 4.03 13.07
1/14/2021 12:15:00 AM 1.28 34.304 0.149 7.08 4.56 13.08
1/14/2021 12:30:00 AM 1.26 34.268 0.149 7.09 4.36 13.09
1/14/2021 12:45:00 AM 1.24 34.232 0.149 7.08 4.41 13.09
1/14/2021 1:00:00 AM 1.21 34.178 0.149 7.08 4.62 13.11
1/14/2021 1:15:00 AM 1.19 34.142 0.149 7.09 4.82 13.11
1/14/2021 1:30:00 AM 1.17 34.106 0.149 7.09 4.84 13.12
1/14/2021 1:45:00 AM 1.14 34.052 0.149 7.09 4.92 13.13
1/14/2021 2:00:00 AM 1.11 33.998 0.149 7.08 4.64 13.14
1/14/2021 2:15:00 AM 1.08 33.944 0.149 7.07 4.77 13.15
1/14/2021 2:30:00 AM 1.06 33.908 0.149 7.09 4.6 13.16
1/14/2021 2:45:00 AM 1.04 33.872 0.149 7.08 4.7 13.17
1/14/2021 3:00:00 AM 1.01 33.818 0.149 7.08 5.33 13.17
1/14/2021 3:15:00 AM 0.98 33.764 0.149 7.08 5.23 13.19
1/14/2021 3:30:00 AM 0.95 33.71 0.149 7.08 5.44 13.19
1/14/2021 3:45:00 AM 0.93 33.674 0.149 7.09 5.55 13.2
1/14/2021 4:00:00 AM 0.91 33.638 0.149 7.09 5.85 13.2
1/14/2021 4:15:00 AM 0.88 33.584 0.149 7.09 6.01 13.21
1/14/2021 4:30:00 AM 0.86 33.548 0.149 7.09 6.16 13.22
1/14/2021 4:45:00 AM 0.85 33.53 0.149 7.09 6.33 13.22
1/14/2021 5:00:00 AM 0.84 33.512 0.149 7.1 6.61 13.23
1/14/2021 5:15:00 AM 0.83 33.494 0.149 7.08 6.59 13.23
1/14/2021 5:30:00 AM 0.82 33.476 0.149 7.09 6.24 13.24
1/14/2021 5:45:00 AM 0.81 33.458 0.15 7.1 6.35 13.24
1/14/2021 6:00:00 AM 0.81 33.458 0.15 7.1 6.33 13.25
1/14/2021 6:15:00 AM 0.8 33.44 0.15 7.11 5.95 13.25
1/14/2021 6:30:00 AM 0.79 33.422 0.15 7.11 5.78 13.26
1/14/2021 6:45:00 AM 0.78 33.404 0.15 7.12 5.55 13.27
1/14/2021 7:00:00 AM 0.77 33.386 0.15 7.1 5.44 13.27
1/14/2021 7:15:00 AM 0.76 33.368 0.15 7.09 5.15 13.28
1/14/2021 7:30:00 AM 0.76 33.368 0.15 7.11 5.13 13.28
1/14/2021 7:45:00 AM 0.75 33.35 0.15 7.1 4.92 13.29
1/14/2021 8:00:00 AM 0.76 33.368 0.15 7.09 4.57 13.3
1/14/2021 8:15:00 AM 0.76 33.368 0.15 7.1 4.62 13.3
1/14/2021 8:30:00 AM 0.77 33.386 0.15 7.11 4.27 13.31
1/14/2021 8:45:00 AM 0.78 33.404 0.15 7.09 4.3 13.32
1/14/2021 9:00:00 AM 0.8 33.44 0.15 7.09 4.09 13.33
1/14/2021 9:15:00 AM 0.82 33.476 0.15 7.1 4.29 13.35
1/14/2021 9:30:00 AM 0.85 33.53 0.15 7.12 3.98 13.36
1/14/2021 9:45:00 AM 0.89 33.602 0.15 7.11 3.94 13.37
1/14/2021 10:00:00 AM 0.94 33.692 0.15 7.13 3.97 13.37
1/14/2021 10:15:00 AM 0.98 33.764 0.15 7.12 3.81 13.38
1/14/2021 10:30:00 AM 1.02 33.836 0.15 7.13 3.64 13.38
1/14/2021 10:45:00 AM 1.07 33.926 0.15 7.11 3.65 13.39
1/14/2021 11:00:00 AM 1.12 34.016 0.15 7.11 4.01 13.39
1/14/2021 11:15:00 AM 1.18 34.124 0.15 7.13 3.74 13.39
1/14/2021 11:30:00 AM 1.24 34.232 0.15 7.15 3.59 13.38
1/14/2021 11:45:00 AM 1.28 34.304 0.15 7.14 3.47 13.38
1/14/2021 12:00:00 PM 1.32 34.376 0.15 7.13 3.58 13.38
1/14/2021 12:15:00 PM 1.37 34.466 0.15 7.14 3.6 13.37
1/14/2021 12:30:00 PM 1.41 34.538 0.15 7.14 3.51 13.37
1/14/2021 12:45:00 PM 1.48 34.664 0.15 7.12 3.46 13.37
1/14/2021 1:00:00 PM 1.55 34.79 0.15 7.15 3.42 13.36
1/14/2021 1:15:00 PM 1.61 34.898 0.15 7.16 3.26 13.36
1/14/2021 1:30:00 PM 1.66 34.988 0.15 7.14 3.34 13.34
1/14/2021 1:45:00 PM 1.71 35.078 0.15 7.16 3.35 13.33
1/14/2021 2:00:00 PM 1.76 35.168 0.15 7.14 3.5 13.32
1/14/2021 2:15:00 PM 1.83 35.294 0.149 7.16 3.29 13.31
1/14/2021 2:30:00 PM 1.91 35.438 0.149 7.17 3.39 13.29
1/14/2021 2:45:00 PM 1.97 35.546 0.149 7.16 3.24 13.27
1/14/2021 3:00:00 PM 2.02 35.636 0.149 7.16 3.3 13.25
1/14/2021 3:15:00 PM 2.07 35.726 0.149 7.17 3.29 13.24
1/14/2021 3:30:00 PM 2.11 35.798 0.149 7.17 3.42 13.22
1/14/2021 3:45:00 PM 2.14 35.852 0.149 7.18 3.36 13.2
1/14/2021 4:00:00 PM 2.17 35.906 0.149 7.17 3.39 13.17
1/14/2021 4:15:00 PM 2.19 35.942 0.149 7.16 3.52 13.15
1/14/2021 4:30:00 PM 2.21 35.978 0.149 7.17 3.64 13.12
1/14/2021 4:45:00 PM 2.22 35.996 0.149 7.15 3.26 13.1
1/14/2021 5:00:00 PM 2.22 35.996 0.149 7.15 3.15 13.08
1/14/2021 5:15:00 PM 2.23 36.014 0.149 7.15 3.32 13.04
1/14/2021 5:30:00 PM 2.24 36.032 0.149 7.14 3.4 13.03
1/14/2021 5:45:00 PM 2.24 36.032 0.149 7.16 3.38 13
1/14/2021 6:00:00 PM 2.25 36.05 0.149 7.14 3.3 12.98
1/14/2021 6:15:00 PM 2.25 36.05 0.149 7.13 3.25 12.96
1/14/2021 6:30:00 PM 2.25 36.05 0.149 7.15 3.26 12.95
1/14/2021 6:45:00 PM 2.26 36.068 0.149 7.14 3.88 12.94
1/14/2021 7:00:00 PM 2.27 36.086 0.149 7.13 3.28 12.92
1/14/2021 7:15:00 PM 2.27 36.086 0.149 7.14 3.28 12.91
1/14/2021 7:30:00 PM 2.27 36.086 0.149 7.15 3.19 12.9
1/14/2021 7:45:00 PM 2.28 36.104 0.149 7.13 3.35 12.89
1/14/2021 8:00:00 PM 2.28 36.104 0.149 7.13 3.54 12.88
1/14/2021 8:15:00 PM 2.28 36.104 0.149 7.12 3.42 12.87
1/14/2021 8:30:00 PM 2.28 36.104 0.149 7.14 3.42 12.86
1/14/2021 8:45:00 PM 2.28 36.104 0.149 7.13 3.29 12.85
1/14/2021 9:00:00 PM 2.27 36.086 0.149 7.13 3.28 12.85
1/14/2021 9:15:00 PM 2.27 36.086 0.148 7.12 3.36 12.84
1/14/2021 9:30:00 PM 2.26 36.068 0.148 7.13 3.7 12.85
1/14/2021 9:45:00 PM 2.25 36.05 0.148 7.12 3.61 12.84
1/14/2021 10:00:00 PM 2.24 36.032 0.148 7.14 3.8 12.85
1/14/2021 10:15:00 PM 2.23 36.014 0.148 7.13 3.76 12.84
1/14/2021 10:30:00 PM 2.22 35.996 0.148 7.12 4 12.84
1/14/2021 10:45:00 PM 2.21 35.978 0.148 7.12 3.72 12.84
1/14/2021 11:00:00 PM 2.2 35.96 0.148 7.12 3.68 12.85
1/14/2021 11:15:00 PM 2.2 35.96 0.149 7.1 3.64 12.85
1/14/2021 11:30:00 PM 2.19 35.942 0.149 7.14 3.63 12.85
1/14/2021 11:45:00 PM 2.18 35.924 0.149 7.11 3.54 12.85
1/15/2021 12:00:00 AM 2.17 35.906 0.149 7.12 3.47 12.85
1/15/2021 12:15:00 AM 2.17 35.906 0.149 7.1 3.46 12.86
1/15/2021 12:30:00 AM 2.16 35.888 0.149 7.1 3.27 12.85
1/15/2021 12:45:00 AM 2.16 35.888 0.149 7.09 3.38 12.86
1/15/2021 1:00:00 AM 2.15 35.87 0.149 7.1 3.35 12.86
1/15/2021 1:15:00 AM 2.14 35.852 0.149 7.1 3.44 12.87
1/15/2021 1:30:00 AM 2.13 35.834 0.149 7.1 3.46 12.87
1/15/2021 1:45:00 AM 2.12 35.816 0.149 7.1 3.44 12.87
1/15/2021 2:00:00 AM 2.12 35.816 0.149 7.13 3.44 12.87
1/15/2021 2:15:00 AM 2.11 35.798 0.149 7.12 3.38 12.87
1/15/2021 2:30:00 AM 2.11 35.798 0.149 7.13 3.51 12.87
1/15/2021 2:45:00 AM 2.1 35.78 0.149 7.1 3.38 12.87
1/15/2021 3:00:00 AM 2.1 35.78 0.149 7.12 3.43 12.88
1/15/2021 3:15:00 AM 2.09 35.762 0.149 7.13 3.49 12.88
1/15/2021 3:30:00 AM 2.09 35.762 0.149 7.13 3.53 12.88
1/15/2021 3:45:00 AM 2.09 35.762 0.149 7.13 3.53 12.88
1/15/2021 4:00:00 AM 2.09 35.762 0.149 7.13 3.54 12.88
1/15/2021 4:15:00 AM 2.08 35.744 0.149 7.13 3.68 12.88
1/15/2021 4:30:00 AM 2.06 35.708 0.149 7.14 3.91 12.89
1/15/2021 4:45:00 AM 2.03 35.654 0.149 7.12 3.95 12.88
1/15/2021 5:00:00 AM 2 35.6 0.149 7.13 4.22 12.88
1/15/2021 5:15:00 AM 1.97 35.546 0.149 7.12 4.37 12.89
1/15/2021 5:30:00 AM 1.94 35.492 0.15 7.11 4.86 12.89
1/15/2021 5:45:00 AM 1.91 35.438 0.149 7.13 5.24 12.91
1/15/2021 6:00:00 AM 1.89 35.402 0.149 7.13 5.63 12.91
1/15/2021 6:15:00 AM 1.87 35.366 0.15 7.12 6.53 12.92
1/15/2021 6:30:00 AM 1.84 35.312 0.15 7.1 7.99 12.93
1/15/2021 6:45:00 AM 1.82 35.276 0.15 7.09 8.62 12.92
1/15/2021 7:00:00 AM 1.8 35.24 0.149 7.12 8.89 12.94
1/15/2021 7:15:00 AM 1.77 35.186 0.15 7.12 9.75 12.94
1/15/2021 7:30:00 AM 1.75 35.15 0.15 7.09 11.63 12.95
1/15/2021 7:45:00 AM 1.72 35.096 0.15 7.1 12.38 12.96
1/15/2021 8:00:00 AM 1.7 35.06 0.15 7.1 13.16 12.96
1/15/2021 8:15:00 AM 1.68 35.024 0.15 7.09 12.84 12.98
1/15/2021 8:30:00 AM 1.67 35.006 0.15 7.09 13.31 13
1/15/2021 8:45:00 AM 1.67 35.006 0.15 7.1 12.54 13.02
1/15/2021 9:00:00 AM 1.68 35.024 0.15 7.12 12.6 13.04
1/15/2021 9:15:00 AM 1.69 35.042 0.15 7.11 12.55 13.06
1/15/2021 9:30:00 AM 1.71 35.078 0.15 7.12 11.57 13.07
1/15/2021 9:45:00 AM 1.73 35.114 0.15 7.12 11.58 13.09
1/15/2021 10:00:00 AM 1.76 35.168 0.15 7.13 10.51 13.1
1/15/2021 10:15:00 AM 1.79 35.222 0.15 7.13 9.91 13.11
1/15/2021 10:30:00 AM 1.82 35.276 0.15 7.15 9.67 13.13
1/15/2021 10:45:00 AM 1.87 35.366 0.15 7.13 8.56 13.14
1/15/2021 11:00:00 AM 1.93 35.474 0.15 7.14 8.51 13.14
1/15/2021 11:15:00 AM 1.98 35.564 0.15 7.14 8.1 13.15
1/15/2021 11:30:00 AM 2.05 35.69 0.15 7.15 6.96 13.15
1/15/2021 11:45:00 AM 2.13 35.834 0.15 7.15 6.74 13.15
1/15/2021 12:00:00 PM 2.22 35.996 0.15 7.15 6.84 13.15
1/15/2021 12:15:00 PM 2.29 36.122 0.149 7.17 6.4 13.15
1/15/2021 12:30:00 PM 2.34 36.212 0.149 7.15 5.81 13.14
1/15/2021 12:45:00 PM 2.38 36.284 0.149 7.17 5.32 13.13
1/15/2021 1:00:00 PM 2.42 36.356 0.149 7.17 5.36 13.13
1/15/2021 1:15:00 PM 2.47 36.446 0.149 7.18 5.04 13.13
1/15/2021 1:30:00 PM 2.52 36.536 0.149 7.16 4.84 13.12
1/15/2021 1:45:00 PM 2.56 36.608 0.149 7.18 4.82 13.1
1/15/2021 2:00:00 PM 2.6 36.68 0.149 7.19 4.84 13.1
1/15/2021 2:15:00 PM 2.62 36.716 0.149 7.17 4.65 13.08
1/15/2021 2:30:00 PM 2.62 36.716 0.149 7.18 4.81 13.07
1/15/2021 2:45:00 PM 2.63 36.734 0.149 7.17 4.76 13.04
1/15/2021 3:00:00 PM 2.63 36.734 0.149 7.16 4.84 13.02
1/15/2021 3:15:00 PM 2.64 36.752 0.149 7.17 4.62 13.01
1/15/2021 3:30:00 PM 2.66 36.788 0.149 7.17 4.73 12.98
1/15/2021 3:45:00 PM 2.67 36.806 0.149 7.17 4.6 12.97
1/15/2021 4:00:00 PM 2.69 36.842 0.149 7.17 4.46 12.94
1/15/2021 4:15:00 PM 2.71 36.878 0.149 7.18 4.65 12.91
1/15/2021 4:30:00 PM 2.73 36.914 0.149 7.18 4.67 12.89
1/15/2021 4:45:00 PM 2.75 36.95 0.148 7.16 4.39 12.86
1/15/2021 5:00:00 PM 2.76 36.968 0.148 7.17 4.4 12.84
1/15/2021 5:15:00 PM 2.78 37.004 0.148 7.16 4.35 12.82
1/15/2021 5:30:00 PM 2.8 37.04 0.148 7.15 4.36 12.79
1/15/2021 5:45:00 PM 2.81 37.058 0.148 7.17 4.1 12.77
1/15/2021 6:00:00 PM 2.83 37.094 0.148 7.16 4.29 12.75
1/15/2021 6:15:00 PM 2.84 37.112 0.148 7.14 4.22 12.73
1/15/2021 6:30:00 PM 2.85 37.13 0.148 7.15 4.19 12.72
1/15/2021 6:45:00 PM 2.86 37.148 0.148 7.16 4.3 12.7
1/15/2021 7:00:00 PM 2.86 37.148 0.148 7.15 4.18 12.69
1/15/2021 7:15:00 PM 2.86 37.148 0.147 7.14 3.87 12.68
1/15/2021 7:30:00 PM 2.87 37.166 0.147 7.15 3.88 12.68
1/15/2021 7:45:00 PM 2.87 37.166 0.148 7.14 4.04 12.66
1/15/2021 8:00:00 PM 2.87 37.166 0.148 7.15 4.22 12.66
1/15/2021 8:15:00 PM 2.87 37.166 0.148 7.14 4.07 12.64
1/15/2021 8:30:00 PM 2.87 37.166 0.148 7.14 4.02 12.64
1/15/2021 8:45:00 PM 2.87 37.166 0.148 7.14 3.98 12.64
1/15/2021 9:00:00 PM 2.87 37.166 0.148 7.14 3.87 12.63
1/15/2021 9:15:00 PM 2.87 37.166 0.148 7.14 4.03 12.63
1/15/2021 9:30:00 PM 2.86 37.148 0.149 7.14 3.96 12.62
1/15/2021 9:45:00 PM 2.86 37.148 0.149 7.13 3.84 12.62
1/15/2021 10:00:00 PM 2.85 37.13 0.149 7.13 3.84 12.63
1/15/2021 10:15:00 PM 2.85 37.13 0.149 7.13 3.87 12.62
1/15/2021 10:30:00 PM 2.84 37.112 0.152 7.14 3.89 12.62
1/15/2021 10:45:00 PM 2.83 37.094 0.151 7.12 3.97 12.62
1/15/2021 11:00:00 PM 2.82 37.076 0.15 7.13 4.09 12.62
1/15/2021 11:15:00 PM 2.82 37.076 0.15 7.13 4.08 12.62
1/15/2021 11:30:00 PM 2.81 37.058 0.149 7.14 4.22 12.63
1/15/2021 11:45:00 PM 2.8 37.04 0.149 7.13 4.45 12.63
1/16/2021 12:00:00 AM 2.78 37.004 0.149 7.13 4.63 12.63
1/16/2021 12:15:00 AM 2.77 36.986 0.148 7.14 4.53 12.63
1/16/2021 12:30:00 AM 2.76 36.968 0.148 7.12 5.09 12.64
1/16/2021 12:45:00 AM 2.75 36.95 0.148 7.12 5.29 12.64
1/16/2021 1:00:00 AM 2.74 36.932 0.148 7.12 5.98 12.63
1/16/2021 1:15:00 AM 2.74 36.932 0.148 7.11 6.85 12.64
1/16/2021 1:30:00 AM 2.73 36.914 0.148 7.12 7.51 12.64
1/16/2021 1:45:00 AM 2.72 36.896 0.147 7.11 7.84 12.64
1/16/2021 2:00:00 AM 2.71 36.878 0.147 7.12 8.86 12.65
1/16/2021 2:15:00 AM 2.7 36.86 0.147 7.1 9.39 12.65
1/16/2021 2:30:00 AM 2.68 36.824 0.147 7.11 10.37 12.65
1/16/2021 2:45:00 AM 2.66 36.788 0.147 7.12 10.75 12.65
1/16/2021 3:00:00 AM 2.63 36.734 0.146 7.11 10.56 12.66
1/16/2021 3:15:00 AM 2.59 36.662 0.146 7.1 11.01 12.67
1/16/2021 3:30:00 AM 2.53 36.554 0.146 7.11 11.66 12.67
1/16/2021 3:45:00 AM 2.48 36.464 0.146 7.1 11.97 12.68
1/16/2021 4:00:00 AM 2.42 36.356 0.147 7.1 12.78 12.69
1/16/2021 4:15:00 AM 2.36 36.248 0.147 7.09 13.77 12.71
1/16/2021 4:30:00 AM 2.29 36.122 0.147 7.08 14.41 12.71
1/16/2021 4:45:00 AM 2.22 35.996 0.148 7.09 15.86 12.73
1/16/2021 5:00:00 AM 2.13 35.834 0.149 7.11 16.76 12.75
1/16/2021 5:15:00 AM 2.04 35.672 0.149 7.09 17.41 12.77
1/16/2021 5:30:00 AM 1.97 35.546 0.149 7.09 18.01 12.8
1/16/2021 5:45:00 AM 1.93 35.474 0.149 7.08 16.5 12.82
1/16/2021 6:00:00 AM 1.89 35.402 0.15 7.08 16.58 12.84
1/16/2021 6:15:00 AM 1.85 35.33 0.15 7.07 16.19 12.87
1/16/2021 6:30:00 AM 1.81 35.258 0.151 7.06 15.68 12.9
1/16/2021 6:45:00 AM 1.77 35.186 0.15 7.06 16.57 12.92
1/16/2021 7:00:00 AM 1.73 35.114 0.15 7.07 16.5 12.95
1/16/2021 7:15:00 AM 1.7 35.06 0.149 7.06 16.12 12.97
1/16/2021 7:30:00 AM 1.68 35.024 0.149 7.06 16.73 12.99
1/16/2021 7:45:00 AM 1.65 34.97 0.149 7.06 17.16 13.01
1/16/2021 8:00:00 AM 1.64 34.952 0.149 7.07 17.58 13.03
1/16/2021 8:15:00 AM 1.62 34.916 0.148 7.08 17.54 13.04
1/16/2021 8:30:00 AM 1.61 34.898 0.148 7.06 18.72 13.06
1/16/2021 8:45:00 AM 1.61 34.898 0.147 7.06 18.83 13.07
1/16/2021 9:00:00 AM 1.61 34.898 0.147 7.04 19.91 13.09
1/16/2021 9:15:00 AM 1.62 34.916 0.147 7.06 20.05 13.09
1/16/2021 9:30:00 AM 1.62 34.916 0.147 7.06 19.48 13.1
1/16/2021 9:45:00 AM 1.63 34.934 0.147 7.05 20.13 13.11
1/16/2021 10:00:00 AM 1.64 34.952 0.146 7.05 26.14 13.12
1/16/2021 10:15:00 AM 1.65 34.97 0.146 7.06 22.1 13.13
1/16/2021 10:30:00 AM 1.65 34.97 0.145 7.06 20.18 13.14
1/16/2021 10:45:00 AM 1.65 34.97 0.145 7.04 20.39 13.15
1/16/2021 11:00:00 AM 1.66 34.988 0.144 7.04 19.49 13.14
1/16/2021 11:15:00 AM 1.67 35.006 0.144 7.04 17.4 13.15
1/16/2021 11:30:00 AM 1.67 35.006 0.143 7.03 18.63 13.15
1/16/2021 11:45:00 AM 1.68 35.024 0.143 7.04 18.15 13.15
1/16/2021 12:00:00 PM 1.7 35.06 0.143 7.02 18.16 13.16
1/16/2021 12:15:00 PM 1.71 35.078 0.144 7.04 16.83 13.15
1/16/2021 12:30:00 PM 1.73 35.114 0.144 7.04 16.52 13.15
1/16/2021 12:45:00 PM 1.75 35.15 0.144 7.04 16.82 13.16
1/16/2021 1:00:00 PM 1.77 35.186 0.145 7.04 15.75 13.15
1/16/2021 1:15:00 PM 1.78 35.204 0.145 7.03 16.35 13.15
1/16/2021 1:30:00 PM 1.8 35.24 0.146 7.03 16.07 13.15
1/16/2021 1:45:00 PM 1.84 35.312 0.146 7.04 15.29 13.14
1/16/2021 2:00:00 PM 1.88 35.384 0.146 7.05 15.85 13.15
1/16/2021 2:15:00 PM 1.9 35.42 0.146 7.06 15.64 13.14
1/16/2021 2:30:00 PM 1.91 35.438 0.146 7.04 15.39 13.13
1/16/2021 2:45:00 PM 1.94 35.492 0.146 7.05 15.76 13.13
1/16/2021 3:00:00 PM 1.96 35.528 0.146 7.05 15.23 13.14
1/16/2021 3:15:00 PM 1.97 35.546 0.146 7.05 15.27 13.13
1/16/2021 3:30:00 PM 1.98 35.564 0.146 7.07 15.49 13.12
1/16/2021 3:45:00 PM 1.98 35.564 0.147 7.07 15.28 13.12
1/16/2021 4:00:00 PM 1.99 35.582 0.147 7.08 15.26 13.11
1/16/2021 4:15:00 PM 1.99 35.582 0.147 7.07 14.66 13.1
1/16/2021 4:30:00 PM 1.98 35.564 0.147 7.08 14.9 13.08
1/16/2021 4:45:00 PM 1.98 35.564 0.147 7.06 14.98 13.07
1/16/2021 5:00:00 PM 1.97 35.546 0.147 7.07 13.97 13.06
1/16/2021 5:15:00 PM 1.96 35.528 0.147 7.05 13.78 13.04
1/16/2021 5:30:00 PM 1.94 35.492 0.146 7.06 14.23 13.03
1/16/2021 5:45:00 PM 1.92 35.456 0.146 7.05 14.09 13.02
1/16/2021 6:00:00 PM 1.9 35.42 0.146 7.05 13.37 13.01
1/16/2021 6:15:00 PM 1.88 35.384 0.145 7.04 13.05 13.01
1/16/2021 6:30:00 PM 1.86 35.348 0.145 7.04 12.79 13
1/16/2021 6:45:00 PM 1.83 35.294 0.145 7.05 12.68 13
1/16/2021 7:00:00 PM 1.8 35.24 0.144 7.04 12.85 13
1/16/2021 7:15:00 PM 1.77 35.186 0.144 7.03 12.33 13
1/16/2021 7:30:00 PM 1.74 35.132 0.144 7.02 12.32 13
1/16/2021 7:45:00 PM 1.7 35.06 0.143 7.02 12.18 13
1/16/2021 8:00:00 PM 1.67 35.006 0.143 7.01 11.95 13
1/16/2021 8:15:00 PM 1.64 34.952 0.143 7.02 11.54 13
1/16/2021 8:30:00 PM 1.61 34.898 0.143 7.01 10.82 13
1/16/2021 8:45:00 PM 1.59 34.862 0.143 7 10.48 13.01
1/16/2021 9:00:00 PM 1.57 34.826 0.142 6.99 10.55 13.01
1/16/2021 9:15:00 PM 1.54 34.772 0.142 6.98 10.39 13.01
1/16/2021 9:30:00 PM 1.52 34.736 0.142 6.98 10.19 13.02
1/16/2021 9:45:00 PM 1.5 34.7 0.141 7 11.06 13.02
1/16/2021 10:00:00 PM 1.47 34.646 0.141 7 10.65 13.03
1/16/2021 10:15:00 PM 1.45 34.61 0.141 7 11.12 13.04
1/16/2021 10:30:00 PM 1.42 34.556 0.141 6.99 11 13.04
1/16/2021 10:45:00 PM 1.39 34.502 0.14 6.99 10.9 13.05
1/16/2021 11:00:00 PM 1.38 34.484 0.14 6.99 10.92 13.06
1/16/2021 11:15:00 PM 1.37 34.466 0.14 7 10.5 13.07
1/16/2021 11:30:00 PM 1.36 34.448 0.14 7.01 10.44 13.07
1/16/2021 11:45:00 PM 1.35 34.43 0.139 7 10.18 13.08
1/17/2021 12:00:00 AM 1.34 34.412 0.139 7 10.3 13.08
1/17/2021 12:15:00 AM 1.33 34.394 0.139 7 10.21 13.09
1/17/2021 12:30:00 AM 1.32 34.376 0.139 6.99 9.92 13.09
1/17/2021 12:45:00 AM 1.31 34.358 0.139 7 10.01 13.1
1/17/2021 1:00:00 AM 1.3 34.34 0.139 7.01 9.84 13.11
1/17/2021 1:15:00 AM 1.3 34.34 0.139 7.01 9.8 13.11
1/17/2021 1:30:00 AM 1.3 34.34 0.138 6.99 9.84 13.11
1/17/2021 1:45:00 AM 1.29 34.322 0.138 7.01 9.97 13.11
1/17/2021 2:00:00 AM 1.29 34.322 0.138 6.98 9.02 13.11
1/17/2021 2:15:00 AM 1.28 34.304 0.138 6.99 9.15 13.12
1/17/2021 2:30:00 AM 1.28 34.304 0.138 7.01 9.24 13.12
1/17/2021 2:45:00 AM 1.27 34.286 0.138 7.01 9.08 13.12
1/17/2021 3:00:00 AM 1.26 34.268 0.138 7 9.15 13.13
1/17/2021 3:15:00 AM 1.26 34.268 0.138 7.01 9.17 13.13
1/17/2021 3:30:00 AM 1.25 34.25 0.138 7 9.07 13.13
1/17/2021 3:45:00 AM 1.25 34.25 0.138 7.02 9.27 13.14
1/17/2021 4:00:00 AM 1.24 34.232 0.138 7.02 9.08 13.14
1/17/2021 4:15:00 AM 1.23 34.214 0.138 7.02 8.79 13.14
1/17/2021 4:30:00 AM 1.22 34.196 0.138 7.02 8.9 13.15
1/17/2021 4:45:00 AM 1.22 34.196 0.138 7.02 9.08 13.15
1/17/2021 5:00:00 AM 1.21 34.178 0.138 7.02 8.81 13.16
1/17/2021 5:15:00 AM 1.2 34.16 0.138 7.01 8.66 13.16
1/17/2021 5:30:00 AM 1.18 34.124 0.138 7.02 8.68 13.16
1/17/2021 5:45:00 AM 1.17 34.106 0.138 7.01 8.79 13.16
1/17/2021 6:00:00 AM 1.15 34.07 0.138 7.02 8.82 13.17
1/17/2021 6:15:00 AM 1.14 34.052 0.138 7.01 8.63 13.17
1/17/2021 6:30:00 AM 1.13 34.034 0.138 7.02 8.72 13.18
1/17/2021 6:45:00 AM 1.12 34.016 0.138 7 8.31 13.18
1/17/2021 7:00:00 AM 1.11 33.998 0.138 7.03 8.22 13.18
1/17/2021 7:15:00 AM 1.1 33.98 0.138 7.02 8.19 13.19
1/17/2021 7:30:00 AM 1.1 33.98 0.138 7.02 7.92 13.19
1/17/2021 7:45:00 AM 1.09 33.962 0.138 7.03 7.7 13.19
1/17/2021 8:00:00 AM 1.09 33.962 0.138 7.03 7.72 13.21
1/17/2021 8:15:00 AM 1.09 33.962 0.138 7.03 7.77 13.2
1/17/2021 8:30:00 AM 1.09 33.962 0.138 7.03 7.59 13.21
1/17/2021 8:45:00 AM 1.1 33.98 0.137 7.03 7.28 13.22
1/17/2021 9:00:00 AM 1.1 33.98 0.137 7.02 7.35 13.23
1/17/2021 9:15:00 AM 1.11 33.998 0.137 7.03 7.24 13.23
1/17/2021 9:30:00 AM 1.13 34.034 0.137 7.03 7.09 13.23
1/17/2021 9:45:00 AM 1.15 34.07 0.137 7.04 7.17 13.25
1/17/2021 10:00:00 AM 1.17 34.106 0.137 7.05 7.17 13.25
1/17/2021 10:15:00 AM 1.2 34.16 0.137 7.03 7.01 13.25
1/17/2021 10:30:00 AM 1.22 34.196 0.137 7.03 6.78 13.26
1/17/2021 10:45:00 AM 1.24 34.232 0.137 7.04 7.02 13.26
1/17/2021 11:00:00 AM 1.26 34.268 0.137 7.05 6.91 13.26
1/17/2021 11:15:00 AM 1.29 34.322 0.137 7.05 6.88 13.26
1/17/2021 11:30:00 AM 1.31 34.358 0.137 7.05 6.87 13.26
1/17/2021 11:45:00 AM 1.33 34.394 0.137 7.06 6.83 13.26
1/17/2021 12:00:00 PM 1.36 34.448 0.137 7.04 6.67 13.26
1/17/2021 12:15:00 PM 1.38 34.484 0.137 7.05 6.34 13.25
1/17/2021 12:30:00 PM 1.4 34.52 0.137 7.05 6.45 13.25
1/17/2021 12:45:00 PM 1.43 34.574 0.136 7.04 6.4 13.25
1/17/2021 1:00:00 PM 1.46 34.628 0.136 7.07 6.24 13.24
1/17/2021 1:15:00 PM 1.49 34.682 0.136 7.05 6.1 13.24
1/17/2021 1:30:00 PM 1.54 34.772 0.136 7.07 6.38 13.23
1/17/2021 1:45:00 PM 1.57 34.826 0.136 7.07 6.1 13.23
1/17/2021 2:00:00 PM 1.61 34.898 0.136 7.08 6.11 13.22
1/17/2021 2:15:00 PM 1.64 34.952 0.136 7.06 6.04 13.22
1/17/2021 2:30:00 PM 1.67 35.006 0.136 7.06 6.02 13.21
1/17/2021 2:45:00 PM 1.7 35.06 0.136 7.07 5.93 13.2
1/17/2021 3:00:00 PM 1.73 35.114 0.136 7.07 5.83 13.19
1/17/2021 3:15:00 PM 1.75 35.15 0.136 7.06 5.85 13.18
1/17/2021 3:30:00 PM 1.76 35.168 0.136 7.07 5.93 13.17
1/17/2021 3:45:00 PM 1.78 35.204 0.136 7.06 5.81 13.16
1/17/2021 4:00:00 PM 1.79 35.222 0.136 7.07 5.81 13.14
1/17/2021 4:15:00 PM 1.8 35.24 0.136 7.07 5.89 13.12
1/17/2021 4:30:00 PM 1.81 35.258 0.136 7.06 5.81 13.11
1/17/2021 4:45:00 PM 1.82 35.276 0.136 7.05 5.75 13.09
1/17/2021 5:00:00 PM 1.83 35.294 0.136 7.06 5.89 13.08
1/17/2021 5:15:00 PM 1.83 35.294 0.136 7.05 5.58 13.06
1/17/2021 5:30:00 PM 1.83 35.294 0.136 7.06 5.8 13.05
1/17/2021 5:45:00 PM 1.84 35.312 0.136 7.04 5.69 13.04
1/17/2021 6:00:00 PM 1.83 35.294 0.136 7.04 5.57 13.03
1/17/2021 6:15:00 PM 1.83 35.294 0.136 7.05 6.02 13.02
1/17/2021 6:30:00 PM 1.83 35.294 0.136 7.05 5.58 13.01
1/17/2021 6:45:00 PM 1.83 35.294 0.136 7.05 5.43 13
1/17/2021 7:00:00 PM 1.83 35.294 0.136 7.03 5.41 12.99
1/17/2021 7:15:00 PM 1.83 35.294 0.136 7.03 5.72 12.99
1/17/2021 7:30:00 PM 1.82 35.276 0.136 7.04 5.59 12.98
1/17/2021 7:45:00 PM 1.82 35.276 0.136 7.03 5.41 12.98
1/17/2021 8:00:00 PM 1.82 35.276 0.136 7.05 5.51 12.97
1/17/2021 8:15:00 PM 1.81 35.258 0.136 7.04 5.49 12.97
1/17/2021 8:30:00 PM 1.81 35.258 0.136 7.03 5.58 12.96
1/17/2021 8:45:00 PM 1.81 35.258 0.136 7.06 5.71 12.96
1/17/2021 9:00:00 PM 1.81 35.258 0.136 7.04 5.68 12.96
1/17/2021 9:15:00 PM 1.81 35.258 0.136 7.04 6.1 12.96
1/17/2021 9:30:00 PM 1.8 35.24 0.136 7.04 6.57 12.95
1/17/2021 9:45:00 PM 1.8 35.24 0.136 7.04 6.81 12.95
1/17/2021 10:00:00 PM 1.8 35.24 0.136 7.04 7.1 12.94
1/17/2021 10:15:00 PM 1.8 35.24 0.136 7.04 7.61 12.95
1/17/2021 10:30:00 PM 1.8 35.24 0.136 7.04 7.5 12.94
1/17/2021 10:45:00 PM 1.8 35.24 0.136 7.05 8.02 12.94
1/17/2021 11:00:00 PM 1.8 35.24 0.136 7.03 7.82 12.94
1/17/2021 11:15:00 PM 1.81 35.258 0.136 7.02 7.55 12.93
1/17/2021 11:30:00 PM 1.81 35.258 0.136 7.02 7.47 12.94
1/17/2021 11:45:00 PM 1.8 35.24 0.136 7.03 7.32 12.93
1/18/2021 12:00:00 AM 1.8 35.24 0.136 7.04 7.06 12.93
1/18/2021 12:15:00 AM 1.8 35.24 0.136 7.04 6.85 12.93
1/18/2021 12:30:00 AM 1.79 35.222 0.136 7.03 6.74 12.93
1/18/2021 12:45:00 AM 1.79 35.222 0.136 7.03 6.51 12.93
1/18/2021 1:00:00 AM 1.79 35.222 0.136 7.04 6.42 12.92
1/18/2021 1:15:00 AM 1.78 35.204 0.136 7.04 6.32 12.92
1/18/2021 1:30:00 AM 1.77 35.186 0.135 7.05 6.14 12.93
1/18/2021 1:45:00 AM 1.76 35.168 0.136 7.02 6.07 12.93
1/18/2021 2:00:00 AM 1.75 35.15 0.136 7.04 6.13 12.93
1/18/2021 2:15:00 AM 1.73 35.114 0.136 7.03 5.94 12.93
1/18/2021 2:30:00 AM 1.71 35.078 0.135 7.04 5.67 12.93
1/18/2021 2:45:00 AM 1.7 35.06 0.136 7.03 5.59 12.93
1/18/2021 3:00:00 AM 1.68 35.024 0.136 7.05 5.63 12.94
1/18/2021 3:15:00 AM 1.66 34.988 0.136 7.02 5.67 12.94
1/18/2021 3:30:00 AM 1.66 34.988 0.136 7.03 5.69 12.94
1/18/2021 3:45:00 AM 1.65 34.97 0.136 7.03 5.68 12.95
1/18/2021 4:00:00 AM 1.64 34.952 0.136 7.02 5.59 12.95
1/18/2021 4:15:00 AM 1.62 34.916 0.136 7.04 5.62 12.95
1/18/2021 4:30:00 AM 1.6 34.88 0.136 7.03 5.44 12.96
1/18/2021 4:45:00 AM 1.6 34.88 0.136 7.03 5.59 12.96
1/18/2021 5:00:00 AM 1.59 34.862 0.135 7.03 5.78 12.96
1/18/2021 5:15:00 AM 1.59 34.862 0.136 7.02 5.83 12.97
1/18/2021 5:30:00 AM 1.59 34.862 0.136 7.04 5.5 12.97
1/18/2021 5:45:00 AM 1.59 34.862 0.135 7.01 5.47 12.98
1/18/2021 6:00:00 AM 1.58 34.844 0.135 7.02 5.45 12.98
1/18/2021 6:15:00 AM 1.58 34.844 0.136 7.03 5.28 12.98
1/18/2021 6:30:00 AM 1.58 34.844 0.136 7.03 5.4 12.98
1/18/2021 6:45:00 AM 1.57 34.826 0.136 7.03 5.28 12.99
1/18/2021 7:00:00 AM 1.56 34.808 0.136 7.04 5.26 12.99
1/18/2021 7:15:00 AM 1.55 34.79 0.136 7.03 5.16 13
1/18/2021 7:30:00 AM 1.54 34.772 0.136 7.04 5.31 13
1/18/2021 7:45:00 AM 1.54 34.772 0.136 7.03 5.24 13.01
1/18/2021 8:00:00 AM 1.54 34.772 0.136 7.04 5.2 13.02
1/18/2021 8:15:00 AM 1.54 34.772 0.136 7.04 5.22 13.02
1/18/2021 8:30:00 AM 1.54 34.772 0.136 7.04 5.1 13.03
1/18/2021 8:45:00 AM 1.55 34.79 0.136 7.02 5.21 13.04
1/18/2021 9:00:00 AM 1.56 34.808 0.137 7.03 5.13 13.06
1/18/2021 9:15:00 AM 1.58 34.844 0.137 7.04 5.16 13.07
1/18/2021 9:30:00 AM 1.61 34.898 0.138 7.05 5.36 13.09
1/18/2021 9:45:00 AM 1.65 34.97 0.137 7.06 5.28 13.1
1/18/2021 10:00:00 AM 1.68 35.024 0.137 7.06 5.12 13.11
1/18/2021 10:15:00 AM 1.68 35.024 0.137 7.06 5.19 13.11
1/18/2021 10:30:00 AM 1.69 35.042 0.137 7.06 5.17 13.12
1/18/2021 10:45:00 AM 1.75 35.15 0.137 7.06 5.12 13.13
1/18/2021 11:00:00 AM 1.81 35.258 0.136 7.06 5.08 13.13
1/18/2021 11:15:00 AM 1.89 35.402 0.136 7.07 5.07 13.13
1/18/2021 11:30:00 AM 1.96 35.528 0.136 7.06 5.03 13.14
1/18/2021 11:45:00 AM 2 35.6 0.135 7.08 4.92 13.14
1/18/2021 12:00:00 PM 2.05 35.69 0.135 7.06 4.97 13.14
1/18/2021 12:15:00 PM 2.11 35.798 0.136 7.08 4.8 13.14
1/18/2021 12:30:00 PM 2.16 35.888 0.135 7.09 4.85 13.14
1/18/2021 12:45:00 PM 2.21 35.978 0.135 7.09 4.9 13.13
1/18/2021 1:00:00 PM 2.26 36.068 0.135 7.08 4.77 13.12
1/18/2021 1:15:00 PM 2.31 36.158 0.135 7.09 4.74 13.12
1/18/2021 1:30:00 PM 2.34 36.212 0.135 7.09 4.78 13.11
1/18/2021 1:45:00 PM 2.4 36.32 0.135 7.09 4.78 13.1
1/18/2021 2:00:00 PM 2.46 36.428 0.135 7.1 4.81 13.09
1/18/2021 2:15:00 PM 2.49 36.482 0.135 7.11 4.82 13.06
1/18/2021 2:30:00 PM 2.52 36.536 0.135 7.09 4.65 13.05
1/18/2021 2:45:00 PM 2.58 36.644 0.135 7.09 4.75 13.04
1/18/2021 3:00:00 PM 2.64 36.752 0.135 7.1 4.79 13.03
1/18/2021 3:15:00 PM 2.67 36.806 0.135 7.11 4.94 13.01
1/18/2021 3:30:00 PM 2.68 36.824 0.135 7.1 4.78 12.99
1/18/2021 3:45:00 PM 2.71 36.878 0.135 7.09 4.64 12.99
1/18/2021 4:00:00 PM 2.72 36.896 0.135 7.1 4.77 12.96
1/18/2021 4:15:00 PM 2.72 36.896 0.135 7.1 4.79 12.95
1/18/2021 4:30:00 PM 2.71 36.878 0.135 7.1 4.85 12.93
1/18/2021 4:45:00 PM 2.69 36.842 0.135 7.09 4.75 12.9
1/18/2021 5:00:00 PM 2.66 36.788 0.135 7.09 4.86 12.89
1/18/2021 5:15:00 PM 2.63 36.734 0.135 7.09 4.87 12.87
1/18/2021 5:30:00 PM 2.6 36.68 0.135 7.08 5.03 12.85
1/18/2021 5:45:00 PM 2.58 36.644 0.136 7.07 4.86 12.84
1/18/2021 6:00:00 PM 2.55 36.59 0.135 7.08 4.85 12.84
1/18/2021 6:15:00 PM 2.53 36.554 0.135 7.08 4.89 12.83
1/18/2021 6:30:00 PM 2.5 36.5 0.135 7.05 4.85 12.82
1/18/2021 6:45:00 PM 2.47 36.446 0.136 7.08 4.85 12.81
1/18/2021 7:00:00 PM 2.44 36.392 0.136 7.06 4.87 12.81
1/18/2021 7:15:00 PM 2.41 36.338 0.136 7.08 4.7 12.81
1/18/2021 7:30:00 PM 2.38 36.284 0.136 7.07 4.67 12.82
1/18/2021 7:45:00 PM 2.35 36.23 0.136 7.05 4.86 12.82
1/18/2021 8:00:00 PM 2.32 36.176 0.136 7.04 4.77 12.83
1/18/2021 8:15:00 PM 2.28 36.104 0.136 7.05 4.76 12.83
1/18/2021 8:30:00 PM 2.25 36.05 0.136 7.05 4.69 12.84
1/18/2021 8:45:00 PM 2.22 35.996 0.136 7.05 4.75 12.84
1/18/2021 9:00:00 PM 2.19 35.942 0.136 7.03 4.65 12.85
1/18/2021 9:15:00 PM 2.16 35.888 0.136 7.03 4.68 12.87
1/18/2021 9:30:00 PM 2.13 35.834 0.136 7.03 4.56 12.87
1/18/2021 9:45:00 PM 2.09 35.762 0.136 7.04 4.87 12.88
1/18/2021 10:00:00 PM 2.04 35.672 0.136 7.04 4.64 12.89
1/18/2021 10:15:00 PM 2 35.6 0.136 7.03 4.64 12.9
1/18/2021 10:30:00 PM 1.97 35.546 0.136 7.04 4.78 12.91
1/18/2021 10:45:00 PM 1.93 35.474 0.136 7.03 4.63 12.92
1/18/2021 11:00:00 PM 1.91 35.438 0.136 7.02 4.87 12.93
1/18/2021 11:15:00 PM 1.89 35.402 0.137 7.03 4.5 12.94
1/18/2021 11:30:00 PM 1.88 35.384 0.137 7.03 4.42 12.95
1/18/2021 11:45:00 PM 1.86 35.348 0.137 7.04 4.69 12.96
1/19/2021 12:00:00 AM 1.85 35.33 0.137 7.03 4.54 12.96
1/19/2021 12:15:00 AM 1.83 35.294 0.137 7.04 4.55 12.97
1/19/2021 12:30:00 AM 1.81 35.258 0.137 7.03 4.58 12.97
1/19/2021 12:45:00 AM 1.79 35.222 0.137 7.04 4.61 12.98
1/19/2021 1:00:00 AM 1.78 35.204 0.137 7.04 4.43 12.99
1/19/2021 1:15:00 AM 1.76 35.168 0.137 7.03 4.76 13
1/19/2021 1:30:00 AM 1.74 35.132 0.137 7.03 4.73 13.01
1/19/2021 1:45:00 AM 1.72 35.096 0.137 7.03 4.68 13.01
1/19/2021 2:00:00 AM 1.71 35.078 0.137 7.03 4.56 13.02
1/19/2021 2:15:00 AM 1.7 35.06 0.138 7.04 4.62 13.03
1/19/2021 2:30:00 AM 1.69 35.042 0.137 7.04 4.6 13.04
1/19/2021 2:45:00 AM 1.67 35.006 0.137 7.03 4.5 13.04
1/19/2021 3:00:00 AM 1.66 34.988 0.137 7.02 4.57 13.05
1/19/2021 3:15:00 AM 1.65 34.97 0.137 7.04 4.55 13.06
1/19/2021 3:30:00 AM 1.64 34.952 0.137 7.04 4.59 13.06
1/19/2021 3:45:00 AM 1.63 34.934 0.137 7.03 4.53 13.07
1/19/2021 4:00:00 AM 1.61 34.898 0.137 7.03 4.33 13.08
1/19/2021 4:15:00 AM 1.6 34.88 0.138 7.04 4.73 13.08
1/19/2021 4:30:00 AM 1.59 34.862 0.138 7.03 4.66 13.08
1/19/2021 4:45:00 AM 1.58 34.844 0.138 7.03 4.64 13.09
1/19/2021 5:00:00 AM 1.57 34.826 0.138 7.02 4.74 13.09
1/19/2021 5:15:00 AM 1.56 34.808 0.138 7.04 4.71 13.1
1/19/2021 5:30:00 AM 1.56 34.808 0.137 7.03 4.7 13.11
1/19/2021 5:45:00 AM 1.55 34.79 0.137 7.04 4.64 13.11
1/19/2021 6:00:00 AM 1.54 34.772 0.137 7.02 4.55 13.11
1/19/2021 6:15:00 AM 1.53 34.754 0.137 7.04 4.66 13.12
1/19/2021 6:30:00 AM 1.52 34.736 0.137 7.04 4.52 13.13
1/19/2021 6:45:00 AM 1.5 34.7 0.137 7.05 4.67 13.14
1/19/2021 7:00:00 AM 1.49 34.682 0.137 7.04 4.52 13.14
1/19/2021 7:15:00 AM 1.47 34.646 0.137 7.04 4.68 13.14
1/19/2021 7:30:00 AM 1.45 34.61 0.137 7.03 5.03 13.15
1/19/2021 7:45:00 AM 1.44 34.592 0.137 7.03 4.76 13.16
1/19/2021 8:00:00 AM 1.43 34.574 0.137 7.03 4.57 13.18
1/19/2021 8:15:00 AM 1.42 34.556 0.137 7.03 4.73 13.18
1/19/2021 8:30:00 AM 1.42 34.556 0.137 7.04 4.7 13.2
1/19/2021 8:45:00 AM 1.41 34.538 0.137 7.05 4.55 13.21
1/19/2021 9:00:00 AM 1.41 34.538 0.137 7.05 4.54 13.24
1/19/2021 9:15:00 AM 1.42 34.556 0.137 7.05 4.5 13.26
1/19/2021 9:30:00 AM 1.43 34.574 0.137 7.05 4.53 13.28
1/19/2021 9:45:00 AM 1.44 34.592 0.137 7.06 4.47 13.3
1/19/2021 10:00:00 AM 1.46 34.628 0.137 7.06 4.35 13.32
1/19/2021 10:15:00 AM 1.48 34.664 0.137 7.07 4.32 13.33
1/19/2021 10:30:00 AM 1.5 34.7 0.137 7.07 4.47 13.35
1/19/2021 10:45:00 AM 1.54 34.772 0.137 7.08 4.26 13.35
1/19/2021 11:00:00 AM 1.57 34.826 0.137 7.08 4.35 13.36
1/19/2021 11:15:00 AM 1.6 34.88 0.137 7.09 4.32 13.37
1/19/2021 11:30:00 AM 1.64 34.952 0.137 7.09 4.23 13.38
1/19/2021 11:45:00 AM 1.69 35.042 0.137 7.08 4.19 13.39
1/19/2021 12:00:00 PM 1.74 35.132 0.137 7.09 4.26 13.39
1/19/2021 12:15:00 PM 1.79 35.222 0.137 7.11 4.32 13.39
1/19/2021 12:30:00 PM 1.85 35.33 0.137 7.09 4.19 13.38
1/19/2021 12:45:00 PM 1.89 35.402 0.137 7.1 4.17 13.39
1/19/2021 1:00:00 PM 1.93 35.474 0.137 7.1 4.22 13.38
1/19/2021 1:15:00 PM 1.97 35.546 0.137 7.1 4.26 13.38
1/19/2021 1:30:00 PM 2.02 35.636 0.137 7.1 4.29 13.37
1/19/2021 1:45:00 PM 2.06 35.708 0.137 7.12 4.26 13.36
1/19/2021 2:00:00 PM 2.1 35.78 0.137 7.12 4.22 13.35
1/19/2021 2:15:00 PM 2.17 35.906 0.137 7.12 4.09 13.34
1/19/2021 2:30:00 PM 2.24 36.032 0.137 7.11 4.14 13.33
1/19/2021 2:45:00 PM 2.3 36.14 0.137 7.13 4.05 13.33
1/19/2021 3:00:00 PM 2.34 36.212 0.137 7.11 4.04 13.31
1/19/2021 3:15:00 PM 2.38 36.284 0.137 7.14 4.09 13.29
1/19/2021 3:30:00 PM 2.36 36.248 0.137 7.13 4.02 13.27
1/19/2021 3:45:00 PM 2.38 36.284 0.137 7.13 4.08 13.25
1/19/2021 4:00:00 PM 2.38 36.284 0.137 7.11 4.03 13.24
1/19/2021 4:15:00 PM 2.36 36.248 0.137 7.11 4.03 13.21
1/19/2021 4:30:00 PM 2.34 36.212 0.137 7.12 4.03 13.2
1/19/2021 4:45:00 PM 2.33 36.194 0.137 7.1 3.96 13.17
1/19/2021 5:00:00 PM 2.31 36.158 0.137 7.1 4.01 13.16
1/19/2021 5:15:00 PM 2.3 36.14 0.137 7.11 4 13.13
1/19/2021 5:30:00 PM 2.28 36.104 0.137 7.1 4.05 13.11
1/19/2021 5:45:00 PM 2.27 36.086 0.137 7.1 3.99 13.09
1/19/2021 6:00:00 PM 2.26 36.068 0.137 7.09 4.12 13.08
1/19/2021 6:15:00 PM 2.24 36.032 0.138 7.09 4.1 13.06
1/19/2021 6:30:00 PM 2.21 35.978 0.137 7.07 4.07 13.05
1/19/2021 6:45:00 PM 2.17 35.906 0.137 7.09 4 13.04
1/19/2021 7:00:00 PM 2.14 35.852 0.138 7.07 4.07 13.04
1/19/2021 7:15:00 PM 2.11 35.798 0.137 7.09 4.24 13.03
1/19/2021 7:30:00 PM 2.08 35.744 0.138 7.08 4.09 13.03
1/19/2021 7:45:00 PM 2.05 35.69 0.138 7.06 3.94 13.03
1/19/2021 8:00:00 PM 2.02 35.636 0.138 7.07 4.05 13.03
1/19/2021 8:15:00 PM 1.98 35.564 0.138 7.07 4.02 13.04
1/19/2021 8:30:00 PM 1.95 35.51 0.138 7.06 3.88 13.03
1/19/2021 8:45:00 PM 1.93 35.474 0.138 7.06 3.95 13.03
1/19/2021 9:00:00 PM 1.89 35.402 0.138 7.06 3.94 13.04
1/19/2021 9:15:00 PM 1.86 35.348 0.138 7.04 4 13.04
1/19/2021 9:30:00 PM 1.82 35.276 0.138 7.06 3.85 13.05
1/19/2021 9:45:00 PM 1.79 35.222 0.138 7.06 3.91 13.05
1/19/2021 10:00:00 PM 1.77 35.186 0.138 7.04 3.93 13.06
1/19/2021 10:15:00 PM 1.74 35.132 0.138 7.05 4.01 13.07
1/19/2021 10:30:00 PM 1.72 35.096 0.138 7.05 3.95 13.07
1/19/2021 10:45:00 PM 1.7 35.06 0.138 7.06 3.91 13.07
1/19/2021 11:00:00 PM 1.68 35.024 0.138 7.06 3.85 13.07
1/19/2021 11:15:00 PM 1.67 35.006 0.138 7.05 3.95 13.08
1/19/2021 11:30:00 PM 1.66 34.988 0.138 7.05 3.91 13.09
1/19/2021 11:45:00 PM 1.65 34.97 0.139 7.06 3.89 13.08
1/20/2021 12:00:00 AM 1.64 34.952 0.138 7.07 3.96 13.08
1/20/2021 12:15:00 AM 1.62 34.916 0.138 7.06 4.08 13.09
1/20/2021 12:30:00 AM 1.59 34.862 0.138 7.06 3.92 13.09
1/20/2021 12:45:00 AM 1.57 34.826 0.139 7.04 3.86 13.1
1/20/2021 1:00:00 AM 1.57 34.826 0.139 7.06 3.93 13.1
1/20/2021 1:15:00 AM 1.56 34.808 0.139 7.06 3.93 13.1
1/20/2021 1:30:00 AM 1.54 34.772 0.139 7.06 3.87 13.1
1/20/2021 1:45:00 AM 1.54 34.772 0.139 7.04 3.97 13.1
1/20/2021 2:00:00 AM 1.53 34.754 0.139 7.05 3.93 13.1
1/20/2021 2:15:00 AM 1.52 34.736 0.139 7.05 3.82 13.11
1/20/2021 2:30:00 AM 1.51 34.718 0.139 7.05 3.82 13.11
1/20/2021 2:45:00 AM 1.5 34.7 0.139 7.07 3.9 13.11
1/20/2021 3:00:00 AM 1.5 34.7 0.139 7.05 3.83 13.11
1/20/2021 3:15:00 AM 1.48 34.664 0.139 7.07 3.77 13.11
1/20/2021 3:30:00 AM 1.47 34.646 0.139 7.06 3.78 13.12
1/20/2021 3:45:00 AM 1.45 34.61 0.139 7.06 3.92 13.11
1/20/2021 4:00:00 AM 1.43 34.574 0.139 7.06 3.79 13.12
1/20/2021 4:15:00 AM 1.41 34.538 0.14 7.05 3.79 13.12
1/20/2021 4:30:00 AM 1.39 34.502 0.141 7.05 3.9 13.12
1/20/2021 4:45:00 AM 1.38 34.484 0.141 7.07 3.87 13.13
1/20/2021 5:00:00 AM 1.37 34.466 0.141 7.06 3.84 13.13
1/20/2021 5:15:00 AM 1.35 34.43 0.141 7.06 3.87 13.13
1/20/2021 5:30:00 AM 1.32 34.376 0.141 7.06 3.89 13.13
1/20/2021 5:45:00 AM 1.28 34.304 0.141 7.05 3.85 13.13
1/20/2021 6:00:00 AM 1.26 34.268 0.14 7.05 3.73 13.14
1/20/2021 6:15:00 AM 1.22 34.196 0.139 7.04 3.9 13.14
1/20/2021 6:30:00 AM 1.2 34.16 0.139 7.05 3.77 13.16
1/20/2021 6:45:00 AM 1.19 34.142 0.14 7.05 3.83 13.16
1/20/2021 7:00:00 AM 1.18 34.124 0.141 7.06 3.9 13.17
1/20/2021 7:15:00 AM 1.17 34.106 0.143 7.05 4.06 13.18
1/20/2021 7:30:00 AM 1.16 34.088 0.142 7.06 4.21 13.18
1/20/2021 7:45:00 AM 1.15 34.07 0.141 7.05 4.12 13.19
1/20/2021 8:00:00 AM 1.14 34.052 0.141 7.05 4.03 13.21
1/20/2021 8:15:00 AM 1.13 34.034 0.14 7.06 4.18 13.22
1/20/2021 8:30:00 AM 1.12 34.016 0.141 7.07 3.94 13.24
1/20/2021 8:45:00 AM 1.12 34.016 0.14 7.07 3.93 13.27
1/20/2021 9:00:00 AM 1.1 33.98 0.14 7.08 3.85 13.29
1/20/2021 9:15:00 AM 1.08 33.944 0.139 7.07 3.88 13.31
1/20/2021 9:30:00 AM 1.08 33.944 0.139 7.08 3.94 13.34
1/20/2021 9:45:00 AM 1.08 33.944 0.14 7.07 3.97 13.36
1/20/2021 10:00:00 AM 1.1 33.98 0.139 7.07 3.95 13.38
1/20/2021 10:15:00 AM 1.14 34.052 0.139 7.09 3.83 13.4
1/20/2021 10:30:00 AM 1.15 34.07 0.139 7.08 3.83 13.42
1/20/2021 10:45:00 AM 1.17 34.106 0.139 7.09 3.83 13.43
1/20/2021 11:00:00 AM 1.2 34.16 0.139 7.08 3.92 13.45
1/20/2021 11:15:00 AM 1.25 34.25 0.139 7.09 3.86 13.46
1/20/2021 11:30:00 AM 1.28 34.304 0.139 7.09 3.76 13.48
1/20/2021 11:45:00 AM 1.28 34.304 0.139 7.08 3.79 13.49
1/20/2021 12:00:00 PM 1.3 34.34 0.139 7.09 3.65 13.49
1/20/2021 12:15:00 PM 1.36 34.448 0.139 7.1 3.57 13.5
1/20/2021 12:30:00 PM 1.44 34.592 0.139 7.11 3.86 13.51
1/20/2021 12:45:00 PM 1.5 34.7 0.139 7.11 3.81 13.51
1/20/2021 1:00:00 PM 1.51 34.718 0.139 7.11 3.74 13.51
1/20/2021 1:15:00 PM 1.5 34.7 0.14 7.12 3.65 13.51
1/20/2021 1:30:00 PM 1.54 34.772 0.14 7.12 3.58 13.52
1/20/2021 1:45:00 PM 1.59 34.862 0.14 7.12 3.72 13.52
1/20/2021 2:00:00 PM 1.64 34.952 0.139 7.13 3.84 13.51
1/20/2021 2:15:00 PM 1.73 35.114 0.139 7.12 3.97 13.5
1/20/2021 2:30:00 PM 1.8 35.24 0.139 7.14 3.85 13.49
1/20/2021 2:45:00 PM 1.84 35.312 0.139 7.14 3.76 13.48
1/20/2021 3:00:00 PM 1.86 35.348 0.139 7.12 3.77 13.47
1/20/2021 3:15:00 PM 1.89 35.402 0.139 7.13 3.84 13.46
1/20/2021 3:30:00 PM 1.93 35.474 0.139 7.13 3.76 13.45
1/20/2021 3:45:00 PM 1.92 35.456 0.139 7.14 3.82 13.44
1/20/2021 4:00:00 PM 1.89 35.402 0.139 7.13 3.85 13.43
1/20/2021 4:15:00 PM 1.87 35.366 0.139 7.12 3.84 13.41
1/20/2021 4:30:00 PM 1.84 35.312 0.14 7.11 3.74 13.4
1/20/2021 4:45:00 PM 1.8 35.24 0.139 7.11 3.77 13.38
1/20/2021 5:00:00 PM 1.75 35.15 0.139 7.12 3.69 13.36
1/20/2021 5:15:00 PM 1.71 35.078 0.139 7.12 3.67 13.34
1/20/2021 5:30:00 PM 1.68 35.024 0.139 7.1 3.81 13.32
1/20/2021 5:45:00 PM 1.65 34.97 0.139 7.11 3.66 13.31
1/20/2021 6:00:00 PM 1.61 34.898 0.139 7.11 3.61 13.29
1/20/2021 6:15:00 PM 1.58 34.844 0.139 7.1 3.68 13.28
1/20/2021 6:30:00 PM 1.55 34.79 0.139 7.1 3.61 13.28
1/20/2021 6:45:00 PM 1.5 34.7 0.139 7.09 3.73 13.27
1/20/2021 7:00:00 PM 1.45 34.61 0.139 7.09 3.74 13.27
1/20/2021 7:15:00 PM 1.38 34.484 0.139 7.09 3.77 13.28
1/20/2021 7:30:00 PM 1.31 34.358 0.14 7.07 3.67 13.29
1/20/2021 7:45:00 PM 1.24 34.232 0.14 7.07 3.59 13.3
1/20/2021 8:00:00 PM 1.17 34.106 0.14 7.08 3.65 13.3
1/20/2021 8:15:00 PM 1.1 33.98 0.14 7.07 3.72 13.31
1/20/2021 8:30:00 PM 1.02 33.836 0.14 7.07 3.71 13.33
1/20/2021 8:45:00 PM 0.97 33.746 0.14 7.07 3.62 13.34
1/20/2021 9:00:00 PM 0.92 33.656 0.14 7.06 3.61 13.36
1/20/2021 9:15:00 PM 0.87 33.566 0.14 7.06 3.66 13.37
1/20/2021 9:30:00 PM 0.81 33.458 0.14 7.05 3.73 13.39
1/20/2021 9:45:00 PM 0.77 33.386 0.141 7.07 3.7 13.4
1/20/2021 10:00:00 PM 0.73 33.314 0.141 7.05 3.67 13.4
1/20/2021 10:15:00 PM 0.68 33.224 0.141 7.05 3.65 13.42
1/20/2021 10:30:00 PM 0.64 33.152 0.141 7.06 3.65 13.44
1/20/2021 10:45:00 PM 0.59 33.062 0.141 7.05 3.66 13.45
1/20/2021 11:00:00 PM 0.56 33.008 0.141 7.06 3.56 13.46
1/20/2021 11:15:00 PM 0.52 32.936 0.141 7.05 3.59 13.48
1/20/2021 11:30:00 PM 0.48 32.864 0.141 7.05 3.73 13.49
1/20/2021 11:45:00 PM 0.45 32.81 0.141 7.06 3.52 13.5
1/21/2021 12:00:00 AM 0.41 32.738 0.141 7.06 3.56 13.51
1/21/2021 12:15:00 AM 0.37 32.666 0.141 7.06 3.55 13.52
1/21/2021 12:30:00 AM 0.33 32.594 0.141 7.04 3.53 13.53
1/21/2021 12:45:00 AM 0.3 32.54 0.141 7.05 3.54 13.54
1/21/2021 1:00:00 AM 0.25 32.45 0.141 7.05 3.55 13.55
1/21/2021 1:15:00 AM 0.21 32.378 0.142 7.05 3.5 13.55
1/21/2021 1:30:00 AM 0.16 32.288 0.142 7.05 3.57 13.56
1/21/2021 1:45:00 AM 0.11 32.198 0.142 7.04 3.55 13.58
1/21/2021 2:00:00 AM 0.06 32.108 0.142 7.05 3.49 13.58
1/21/2021 2:15:00 AM 0.03 32.054 0.142 7.04 3.6 13.58
1/21/2021 2:30:00 AM -0.01 31.982 0.143 7.05 3.59 13.6
1/21/2021 2:45:00 AM -0.05 31.91 0.143 7.05 3.66 13.6
1/21/2021 3:00:00 AM -0.07 31.874 0.143 7.05 3.63 13.6
1/21/2021 3:15:00 AM -0.1 31.82 0.144 7.04 3.68 13.61
1/21/2021 3:30:00 AM -0.1 31.82 0.144 7.04 3.55 13.61
1/21/2021 3:45:00 AM -0.1 31.82 0.145 7.05 3.42 13.61
1/21/2021 4:00:00 AM -0.09 31.838 0.146 7.05 3.61 13.61
1/21/2021 4:15:00 AM -0.09 31.838 0.146 7.09 3.53 13.61
1/21/2021 4:30:00 AM -0.08 31.856 0.147 7.09 3.47 13.6
1/21/2021 4:45:00 AM -0.07 31.874 0.148 7.09 3.62 13.59
1/21/2021 5:00:00 AM -0.06 31.892 0.148 7.1 3.48 13.59
1/21/2021 5:15:00 AM -0.06 31.892 0.149 7.09 3.66 13.58
1/21/2021 5:30:00 AM -0.06 31.892 0.15 7.09 3.53 13.57
1/21/2021 5:45:00 AM -0.05 31.91 0.151 7.09 3.5 13.56
1/21/2021 6:00:00 AM -0.04 31.928 0.151 7.1 3.43 13.55
1/21/2021 6:15:00 AM -0.04 31.928 0.152 7.05 3.69 13.54
1/21/2021 6:30:00 AM -0.03 31.946 0.152 7.04 3.81 13.53
1/21/2021 6:45:00 AM -0.03 31.946 0.153 7.06 3.75 13.53
1/21/2021 7:00:00 AM -0.03 31.946 0.153 7.06 3.94 13.51
1/21/2021 7:15:00 AM -0.02 31.964 0.153 7.06 3.76 13.51
1/21/2021 7:30:00 AM -0.02 31.964 0.153 7.05 3.93 13.5
1/21/2021 7:45:00 AM -0.01 31.982 0.154 7.05 3.96 13.49
1/21/2021 8:00:00 AM 0 32 0.154 7.06 3.94 13.48
1/21/2021 8:15:00 AM 0 32 0.154 7.06 3.79 13.49
1/21/2021 8:30:00 AM 0.01 32.018 0.154 7.06 3.74 13.49
1/21/2021 8:45:00 AM 0.02 32.036 0.154 7.06 3.62 13.5
1/21/2021 9:00:00 AM 0.03 32.054 0.154 7.05 3.66 13.5
1/21/2021 9:15:00 AM 0.03 32.054 0.153 7.06 3.73 13.51
1/21/2021 9:30:00 AM 0.05 32.09 0.152 7.06 3.68 13.52
1/21/2021 9:45:00 AM 0.05 32.09 0.151 7.05 3.65 13.53
1/21/2021 10:00:00 AM 0.06 32.108 0.15 7.07 3.7 13.55
1/21/2021 10:15:00 AM 0.09 32.162 0.15 7.08 3.64 13.56
1/21/2021 10:30:00 AM 0.12 32.216 0.149 7.07 3.61 13.58
1/21/2021 10:45:00 AM 0.17 32.306 0.148 7.06 3.58 13.6
1/21/2021 11:00:00 AM 0.22 32.396 0.148 7.09 3.67 13.6
1/21/2021 11:15:00 AM 0.25 32.45 0.148 7.08 3.72 13.61
1/21/2021 11:30:00 AM 0.29 32.522 0.147 7.1 3.59 13.62
1/21/2021 11:45:00 AM 0.34 32.612 0.147 7.07 3.6 13.63
1/21/2021 12:00:00 PM 0.38 32.684 0.147 7.1 3.56 13.64
1/21/2021 12:15:00 PM 0.42 32.756 0.147 7.09 3.67 13.65
1/21/2021 12:30:00 PM 0.46 32.828 0.147 7.1 3.67 13.66
1/21/2021 12:45:00 PM 0.5 32.9 0.146 7.11 3.7 13.67
1/21/2021 1:00:00 PM 0.53 32.954 0.146 7.12 3.78 13.68
1/21/2021 1:15:00 PM 0.56 33.008 0.146 7.12 3.76 13.69
1/21/2021 1:30:00 PM 0.61 33.098 0.145 7.12 3.87 13.69
1/21/2021 1:45:00 PM 0.65 33.17 0.145 7.13 3.91 13.69
1/21/2021 2:00:00 PM 0.67 33.206 0.144 7.12 3.81 13.7
1/21/2021 2:15:00 PM 0.66 33.188 0.143 7.13 3.87 13.7
1/21/2021 2:30:00 PM 0.66 33.188 0.142 7.13 3.91 13.7
1/21/2021 2:45:00 PM 0.66 33.188 0.142 7.11 3.96 13.7
1/21/2021 3:00:00 PM 0.66 33.188 0.141 7.12 3.9 13.71
1/21/2021 3:15:00 PM 0.66 33.188 0.141 7.11 4.19 13.71
1/21/2021 3:30:00 PM 0.66 33.188 0.142 7.1 4.27 13.7
1/21/2021 3:45:00 PM 0.67 33.206 0.142 7.13 4.04 13.7
1/21/2021 4:00:00 PM 0.67 33.206 0.143 7.13 4.2 13.68
1/21/2021 4:15:00 PM 0.68 33.224 0.143 7.12 4.17 13.66
1/21/2021 4:30:00 PM 0.68 33.224 0.143 7.13 4.11 13.64
1/21/2021 4:45:00 PM 0.68 33.224 0.143 7.14 4.22 13.62
1/21/2021 5:00:00 PM 0.69 33.242 0.143 7.13 4.22 13.61
1/21/2021 5:15:00 PM 0.69 33.242 0.143 7.12 4.09 13.58
1/21/2021 5:30:00 PM 0.7 33.26 0.143 7.11 4.08 13.56
1/21/2021 5:45:00 PM 0.7 33.26 0.143 7.12 4.05 13.54
1/21/2021 6:00:00 PM 0.71 33.278 0.143 7.12 3.99 13.51
1/21/2021 6:15:00 PM 0.72 33.296 0.143 7.12 3.97 13.49
1/21/2021 6:30:00 PM 0.73 33.314 0.143 7.11 4.08 13.48
1/21/2021 6:45:00 PM 0.74 33.332 0.143 7.13 3.99 13.46
1/21/2021 7:00:00 PM 0.74 33.332 0.144 7.11 3.95 13.44
1/21/2021 7:15:00 PM 0.75 33.35 0.144 7.1 3.86 13.43
1/21/2021 7:30:00 PM 0.75 33.35 0.144 7.11 3.86 13.41
1/21/2021 7:45:00 PM 0.76 33.368 0.144 7.11 4.02 13.4
1/21/2021 8:00:00 PM 0.76 33.368 0.144 7.11 4.01 13.39
1/21/2021 8:15:00 PM 0.75 33.35 0.144 7.1 4.06 13.38
1/21/2021 8:30:00 PM 0.75 33.35 0.144 7.1 3.99 13.37
1/21/2021 8:45:00 PM 0.75 33.35 0.144 7.11 4.08 13.37
1/21/2021 9:00:00 PM 0.75 33.35 0.144 7.1 4.01 13.35
1/21/2021 9:15:00 PM 0.75 33.35 0.145 7.11 4.06 13.35
1/21/2021 9:30:00 PM 0.74 33.332 0.145 7.09 4.06 13.34
1/21/2021 9:45:00 PM 0.74 33.332 0.145 7.09 3.9 13.34
1/21/2021 10:00:00 PM 0.74 33.332 0.145 7.1 3.89 13.33
1/21/2021 10:15:00 PM 0.74 33.332 0.145 7.08 3.97 13.32
1/21/2021 10:30:00 PM 0.73 33.314 0.145 7.08 4.12 13.32
1/21/2021 10:45:00 PM 0.7 33.26 0.145 7.09 3.83 13.32
1/21/2021 11:00:00 PM 0.69 33.242 0.146 7.08 3.77 13.32
1/21/2021 11:15:00 PM 0.69 33.242 0.146 7.07 3.75 13.32
1/21/2021 11:30:00 PM 0.7 33.26 0.147 7.07 3.81 13.31
1/21/2021 11:45:00 PM 0.69 33.242 0.147 7.08 3.94 13.31
1/22/2021 12:00:00 AM 0.68 33.224 0.146 7.07 3.86 13.31
1/22/2021 12:15:00 AM 0.68 33.224 0.146 7.07 3.8 13.31
1/22/2021 12:30:00 AM 0.67 33.206 0.146 7.08 3.73 13.31
1/22/2021 12:45:00 AM 0.66 33.188 0.146 7.07 3.62 13.3
1/22/2021 1:00:00 AM 0.66 33.188 0.145 7.08 3.63 13.31
1/22/2021 1:15:00 AM 0.66 33.188 0.145 7.08 3.76 13.3
1/22/2021 1:30:00 AM 0.65 33.17 0.145 7.07 3.68 13.31
1/22/2021 1:45:00 AM 0.65 33.17 0.145 7.08 3.62 13.31
1/22/2021 2:00:00 AM 0.64 33.152 0.144 7.07 3.58 13.31
1/22/2021 2:15:00 AM 0.64 33.152 0.144 7.07 3.64 13.31
1/22/2021 2:30:00 AM 0.65 33.17 0.144 7.07 3.67 13.31
1/22/2021 2:45:00 AM 0.65 33.17 0.144 7.07 3.6 13.31
1/22/2021 3:00:00 AM 0.66 33.188 0.144 7.06 3.59 13.31
1/22/2021 3:15:00 AM 0.66 33.188 0.144 7.07 3.61 13.31
1/22/2021 3:30:00 AM 0.66 33.188 0.144 7.07 3.72 13.31
1/22/2021 3:45:00 AM 0.66 33.188 0.144 7.07 3.61 13.31
1/22/2021 4:00:00 AM 0.66 33.188 0.144 7.08 3.66 13.31
1/22/2021 4:15:00 AM 0.66 33.188 0.143 7.08 3.63 13.31
1/22/2021 4:30:00 AM 0.66 33.188 0.143 7.07 3.71 13.31
1/22/2021 4:45:00 AM 0.66 33.188 0.143 7.07 3.72 13.32
1/22/2021 5:00:00 AM 0.66 33.188 0.143 7.07 3.8 13.32
1/22/2021 5:15:00 AM 0.66 33.188 0.143 7.07 3.71 13.31
1/22/2021 5:30:00 AM 0.64 33.152 0.143 7.06 3.67 13.32
1/22/2021 5:45:00 AM 0.63 33.134 0.143 7.06 3.9 13.32
1/22/2021 6:00:00 AM 0.61 33.098 0.143 7.05 3.79 13.33
1/22/2021 6:15:00 AM 0.59 33.062 0.143 7.06 3.67 13.32
1/22/2021 6:30:00 AM 0.58 33.044 0.144 7.07 3.76 13.33
1/22/2021 6:45:00 AM 0.56 33.008 0.144 7.07 3.83 13.33
1/22/2021 7:00:00 AM 0.53 32.954 0.144 7.07 3.74 13.34
1/22/2021 7:15:00 AM 0.52 32.936 0.143 7.06 3.59 13.34
1/22/2021 7:30:00 AM 0.52 32.936 0.144 7.07 3.53 13.35
1/22/2021 7:45:00 AM 0.52 32.936 0.144 7.06 3.63 13.34
1/22/2021 8:00:00 AM 0.53 32.954 0.144 7.07 3.49 13.36
1/22/2021 8:15:00 AM 0.53 32.954 0.144 7.07 3.66 13.37
1/22/2021 8:30:00 AM 0.55 32.99 0.144 7.08 3.49 13.38
1/22/2021 8:45:00 AM 0.57 33.026 0.144 7.08 3.68 13.4
1/22/2021 9:00:00 AM 0.59 33.062 0.144 7.07 3.49 13.42
1/22/2021 9:15:00 AM 0.62 33.116 0.144 7.08 3.49 13.44
1/22/2021 9:30:00 AM 0.65 33.17 0.144 7.09 3.52 13.45
1/22/2021 9:45:00 AM 0.69 33.242 0.144 7.1 3.58 13.47
1/22/2021 10:00:00 AM 0.73 33.314 0.144 7.1 3.64 13.48
1/22/2021 10:15:00 AM 0.77 33.386 0.144 7.11 3.51 13.49
1/22/2021 10:30:00 AM 0.82 33.476 0.144 7.11 3.54 13.51
1/22/2021 10:45:00 AM 0.89 33.602 0.144 7.13 3.39 13.52
1/22/2021 11:00:00 AM 0.95 33.71 0.144 7.11 3.45 13.52
1/22/2021 11:15:00 AM 1 33.8 0.144 7.13 3.36 13.52
1/22/2021 11:30:00 AM 1.05 33.89 0.144 7.13 3.51 13.53
1/22/2021 11:45:00 AM 1.1 33.98 0.144 7.13 3.32 13.52
1/22/2021 12:00:00 PM 1.16 34.088 0.144 7.14 3.35 13.53
1/22/2021 12:15:00 PM 1.23 34.214 0.144 7.13 3.3 13.53
1/22/2021 12:30:00 PM 1.27 34.286 0.144 7.14 3.37 13.52
1/22/2021 12:45:00 PM 1.31 34.358 0.144 7.15 3.4 13.52
1/22/2021 1:00:00 PM 1.38 34.484 0.144 7.15 3.44 13.52
1/22/2021 1:15:00 PM 1.46 34.628 0.144 7.14 3.47 13.51
1/22/2021 1:30:00 PM 1.5 34.7 0.144 7.15 3.64 13.5
1/22/2021 1:45:00 PM 1.52 34.736 0.144 7.14 3.54 13.49
1/22/2021 2:00:00 PM 1.57 34.826 0.144 7.15 3.61 13.47
1/22/2021 2:15:00 PM 1.69 35.042 0.144 7.15 3.42 13.47
1/22/2021 2:30:00 PM 1.78 35.204 0.144 7.17 3.47 13.46
1/22/2021 2:45:00 PM 1.78 35.204 0.144 7.17 3.42 13.45
1/22/2021 3:00:00 PM 1.81 35.258 0.144 7.15 3.36 13.43
1/22/2021 3:15:00 PM 1.82 35.276 0.144 7.16 3.37 13.42
1/22/2021 3:30:00 PM 1.83 35.294 0.144 7.16 3.47 13.41
1/22/2021 3:45:00 PM 1.85 35.33 0.144 7.16 3.4 13.38
1/22/2021 4:00:00 PM 1.85 35.33 0.144 7.16 3.33 13.38
1/22/2021 4:15:00 PM 1.85 35.33 0.144 7.17 3.36 13.36
1/22/2021 4:30:00 PM 1.86 35.348 0.144 7.16 3.35 13.35
1/22/2021 4:45:00 PM 1.86 35.348 0.144 7.15 3.29 13.33
1/22/2021 5:00:00 PM 1.85 35.33 0.143 7.15 3.37 13.3
1/22/2021 5:15:00 PM 1.85 35.33 0.143 7.16 3.28 13.27
1/22/2021 5:30:00 PM 1.85 35.33 0.143 7.15 3.38 13.25
1/22/2021 5:45:00 PM 1.84 35.312 0.143 7.15 3.46 13.22
1/22/2021 6:00:00 PM 1.82 35.276 0.143 7.14 3.46 13.2
1/22/2021 6:15:00 PM 1.81 35.258 0.144 7.14 3.44 13.18
1/22/2021 6:30:00 PM 1.81 35.258 0.144 7.13 3.42 13.16
1/22/2021 6:45:00 PM 1.8 35.24 0.144 7.13 3.48 13.15
1/22/2021 7:00:00 PM 1.78 35.204 0.144 7.13 3.6 13.13
1/22/2021 7:15:00 PM 1.77 35.186 0.144 7.13 3.77 13.12
1/22/2021 7:30:00 PM 1.76 35.168 0.144 7.13 3.75 13.11
1/22/2021 7:45:00 PM 1.74 35.132 0.144 7.13 3.76 13.11
1/22/2021 8:00:00 PM 1.7 35.06 0.143 7.11 3.64 13.11
1/22/2021 8:15:00 PM 1.67 35.006 0.145 7.12 3.68 13.1
1/22/2021 8:30:00 PM 1.65 34.97 0.145 7.11 3.84 13.11
1/22/2021 8:45:00 PM 1.63 34.934 0.145 7.12 3.73 13.11
1/22/2021 9:00:00 PM 1.59 34.862 0.145 7.12 3.68 13.11
1/22/2021 9:15:00 PM 1.55 34.79 0.144 7.1 3.6 13.11
1/22/2021 9:30:00 PM 1.51 34.718 0.144 7.11 3.48 13.12
1/22/2021 9:45:00 PM 1.47 34.646 0.144 7.09 3.52 13.12
1/22/2021 10:00:00 PM 1.42 34.556 0.144 7.1 3.6 13.13
1/22/2021 10:15:00 PM 1.38 34.484 0.144 7.1 3.62 13.14
1/22/2021 10:30:00 PM 1.34 34.412 0.144 7.1 3.53 13.15
1/22/2021 10:45:00 PM 1.3 34.34 0.144 7.1 3.52 13.15
1/22/2021 11:00:00 PM 1.25 34.25 0.144 7.09 3.62 13.16
1/22/2021 11:15:00 PM 1.2 34.16 0.144 7.09 3.62 13.18
1/22/2021 11:30:00 PM 1.14 34.052 0.144 7.09 3.64 13.19
1/22/2021 11:45:00 PM 1.07 33.926 0.144 7.08 3.71 13.21
1/23/2021 12:00:00 AM 1.01 33.818 0.145 7.08 3.76 13.22
1/23/2021 12:15:00 AM 0.95 33.71 0.145 7.08 3.7 13.24
1/23/2021 12:30:00 AM 0.9 33.62 0.145 7.09 3.68 13.26
1/23/2021 12:45:00 AM 0.84 33.512 0.145 7.08 3.59 13.28
1/23/2021 1:00:00 AM 0.79 33.422 0.145 7.09 3.68 13.29
1/23/2021 1:15:00 AM 0.75 33.35 0.144 7.08 3.56 13.32
1/23/2021 1:30:00 AM 0.71 33.278 0.145 7.09 3.62 13.33
1/23/2021 1:45:00 AM 0.68 33.224 0.145 7.09 3.67 13.35
1/23/2021 2:00:00 AM 0.64 33.152 0.145 7.08 3.54 13.36
1/23/2021 2:15:00 AM 0.62 33.116 0.145 7.09 3.6 13.38
1/23/2021 2:30:00 AM 0.58 33.044 0.145 7.08 3.62 13.4
1/23/2021 2:45:00 AM 0.55 32.99 0.145 7.08 3.5 13.41
1/23/2021 3:00:00 AM 0.52 32.936 0.145 7.09 3.6 13.42
1/23/2021 3:15:00 AM 0.48 32.864 0.145 7.08 3.52 13.44
1/23/2021 3:30:00 AM 0.44 32.792 0.145 7.09 3.51 13.46
1/23/2021 3:45:00 AM 0.41 32.738 0.145 7.09 3.61 13.46
1/23/2021 4:00:00 AM 0.39 32.702 0.145 7.09 3.46 13.47
1/23/2021 4:15:00 AM 0.36 32.648 0.145 7.09 3.41 13.48
1/23/2021 4:30:00 AM 0.31 32.558 0.145 7.08 3.47 13.49
1/23/2021 4:45:00 AM 0.28 32.504 0.145 7.09 3.46 13.5
1/23/2021 5:00:00 AM 0.24 32.432 0.145 7.1 3.52 13.52
1/23/2021 5:15:00 AM 0.21 32.378 0.145 7.09 3.67 13.54
1/23/2021 5:30:00 AM 0.17 32.306 0.145 7.08 3.66 13.55
1/23/2021 5:45:00 AM 0.15 32.27 0.145 7.09 3.54 13.55
1/23/2021 6:00:00 AM 0.11 32.198 0.145 7.1 3.72 13.57
1/23/2021 6:15:00 AM 0.09 32.162 0.146 7.1 3.64 13.57
1/23/2021 6:30:00 AM 0.06 32.108 0.146 7.09 3.75 13.59
1/23/2021 6:45:00 AM 0.05 32.09 0.146 7.09 3.68 13.59
1/23/2021 7:00:00 AM 0.02 32.036 0.146 7.1 3.95 13.61
1/23/2021 7:15:00 AM 0.01 32.018 0.146 7.09 3.89 13.61
1/23/2021 7:30:00 AM 0 32 0.146 7.1 4.04 13.61
1/23/2021 7:45:00 AM -0.01 31.982 0.147 7.09 3.83 13.63
1/23/2021 8:00:00 AM -0.01 31.982 0.147 7.09 3.87 13.64
1/23/2021 8:15:00 AM -0.03 31.946 0.147 7.1 3.78 13.65
1/23/2021 8:30:00 AM -0.03 31.946 0.147 7.11 3.69 13.68
1/23/2021 8:45:00 AM -0.03 31.946 0.147 7.1 3.7 13.71
1/23/2021 9:00:00 AM -0.03 31.946 0.147 7.1 3.66 13.74
1/23/2021 9:15:00 AM -0.01 31.982 0.147 7.1 3.59 13.75
1/23/2021 9:30:00 AM 0.02 32.036 0.148 7.1 3.58 13.77
1/23/2021 9:45:00 AM 0.04 32.072 0.149 7.12 3.69 13.8
1/23/2021 10:00:00 AM 0.06 32.108 0.149 7.12 3.73 13.82
1/23/2021 10:15:00 AM 0.09 32.162 0.15 7.11 3.74 13.83
1/23/2021 10:30:00 AM 0.11 32.198 0.149 7.13 3.65 13.84
1/23/2021 10:45:00 AM 0.13 32.234 0.15 7.13 3.7 13.86
1/23/2021 11:00:00 AM 0.17 32.306 0.151 7.12 3.63 13.87
1/23/2021 11:15:00 AM 0.23 32.414 0.151 7.13 3.68 13.88
1/23/2021 11:30:00 AM 0.32 32.576 0.151 7.13 3.81 13.89
1/23/2021 11:45:00 AM 0.39 32.702 0.151 7.14 3.76 13.9
1/23/2021 12:00:00 PM 0.44 32.792 0.15 7.14 3.85 13.91
1/23/2021 12:15:00 PM 0.51 32.918 0.15 7.14 3.67 13.91
1/23/2021 12:30:00 PM 0.57 33.026 0.149 7.14 3.77 13.92
1/23/2021 12:45:00 PM 0.61 33.098 0.149 7.15 3.67 13.93
1/23/2021 1:00:00 PM 0.6 33.08 0.149 7.15 3.75 13.93
1/23/2021 1:15:00 PM 0.61 33.098 0.149 7.13 3.64 13.95
1/23/2021 1:30:00 PM 0.63 33.134 0.148 7.14 3.69 13.94
1/23/2021 1:45:00 PM 0.66 33.188 0.148 7.14 3.75 13.95
1/23/2021 2:00:00 PM 0.66 33.188 0.147 7.14 3.61 13.95
1/23/2021 2:15:00 PM 0.64 33.152 0.147 7.14 3.76 13.95
1/23/2021 2:30:00 PM 0.65 33.17 0.147 7.15 3.56 13.96
1/23/2021 2:45:00 PM 0.69 33.242 0.146 7.15 3.57 13.95
1/23/2021 3:00:00 PM 0.69 33.242 0.146 7.15 3.54 13.96
1/23/2021 3:15:00 PM 0.67 33.206 0.146 7.14 3.76 13.96
1/23/2021 3:30:00 PM 0.68 33.224 0.146 7.15 3.69 13.96
1/23/2021 3:45:00 PM 0.65 33.17 0.146 7.15 3.74 13.96
1/23/2021 4:00:00 PM 0.61 33.098 0.146 7.16 3.54 13.96
1/23/2021 4:15:00 PM 0.56 33.008 0.145 7.15 3.56 13.95
1/23/2021 4:30:00 PM 0.53 32.954 0.145 7.14 3.52 13.94
1/23/2021 4:45:00 PM 0.5 32.9 0.145 7.14 3.55 13.92
1/23/2021 5:00:00 PM 0.47 32.846 0.144 7.13 3.54 13.9
1/23/2021 5:15:00 PM 0.43 32.774 0.144 7.13 3.51 13.88
1/23/2021 5:30:00 PM 0.4 32.72 0.144 7.13 3.59 13.87
1/23/2021 5:45:00 PM 0.38 32.684 0.144 7.13 3.54 13.85
1/23/2021 6:00:00 PM 0.37 32.666 0.144 7.12 3.57 13.83
1/23/2021 6:15:00 PM 0.35 32.63 0.144 7.12 3.54 13.81
1/23/2021 6:30:00 PM 0.34 32.612 0.144 7.09 3.67 13.8
1/23/2021 6:45:00 PM 0.33 32.594 0.145 7.12 3.59 13.78
1/23/2021 7:00:00 PM 0.33 32.594 0.145 7.12 3.51 13.77
1/23/2021 7:15:00 PM 0.31 32.558 0.145 7.12 3.62 13.76
1/23/2021 7:30:00 PM 0.31 32.558 0.145 7.12 3.62 13.76
1/23/2021 7:45:00 PM 0.3 32.54 0.146 7.12 3.62 13.74
1/23/2021 8:00:00 PM 0.28 32.504 0.146 7.12 3.65 13.74
1/23/2021 8:15:00 PM 0.25 32.45 0.146 7.12 3.61 13.74
1/23/2021 8:30:00 PM 0.21 32.378 0.147 7.12 3.51 13.74
1/23/2021 8:45:00 PM 0.18 32.324 0.147 7.12 3.65 13.74
1/23/2021 9:00:00 PM 0.15 32.27 0.147 7.1 3.61 13.74
1/23/2021 9:15:00 PM 0.12 32.216 0.148 7.11 3.61 13.74
1/23/2021 9:30:00 PM 0.08 32.144 0.148 7.12 3.61 13.75
1/23/2021 9:45:00 PM 0.06 32.108 0.149 7.1 3.68 13.76
1/23/2021 10:00:00 PM 0.04 32.072 0.15 7.11 3.61 13.76
1/23/2021 10:15:00 PM 0.01 32.018 0.15 7.1 3.67 13.77
1/23/2021 10:30:00 PM -0.01 31.982 0.151 7.11 3.63 13.77
1/23/2021 10:45:00 PM -0.03 31.946 0.151 7.1 3.86 13.78
1/23/2021 11:00:00 PM -0.04 31.928 0.151 7.14 3.65 13.78
1/23/2021 11:15:00 PM -0.04 31.928 0.152 7.11 3.78 13.78
1/23/2021 11:30:00 PM -0.04 31.928 0.152 7.1 3.72 13.79
1/23/2021 11:45:00 PM -0.04 31.928 0.152 7.11 3.85 13.79
1/24/2021 12:00:00 AM -0.05 31.91 0.153 7.11 3.74 13.79
1/24/2021 12:15:00 AM -0.04 31.928 0.154 7.11 3.66 13.78
1/24/2021 12:30:00 AM -0.05 31.91 0.154 7.11 3.68 13.78
1/24/2021 12:45:00 AM -0.05 31.91 0.155 7.11 3.81 13.79
1/24/2021 1:00:00 AM -0.06 31.892 0.154 7.1 3.65 13.8
1/24/2021 1:15:00 AM -0.06 31.892 0.156 7.11 3.64 13.79
1/24/2021 1:30:00 AM -0.07 31.874 0.157 7.12 3.79 13.79
1/24/2021 1:45:00 AM -0.08 31.856 0.157 7.1 3.73 13.81
1/24/2021 2:00:00 AM -0.08 31.856 0.157 7.1 3.47 13.8
1/24/2021 2:15:00 AM -0.08 31.856 0.156 7.15 3.39 13.81
1/24/2021 2:30:00 AM -0.08 31.856 0.157 7.14 3.3 13.79
1/24/2021 2:45:00 AM -0.07 31.874 0.157 7.14 3.48 13.8
1/24/2021 3:00:00 AM -0.07 31.874 0.156 7.15 3.4 13.8
1/24/2021 3:15:00 AM -0.08 31.856 0.157 7.16 3.3 13.81
1/24/2021 3:30:00 AM -0.08 31.856 0.157 7.14 3.45 13.81
1/24/2021 3:45:00 AM -0.07 31.874 0.159 7.15 3.48 13.79
1/24/2021 4:00:00 AM -0.07 31.874 0.158 7.15 3.46 13.79
1/24/2021 4:15:00 AM -0.07 31.874 0.158 7.14 3.52 13.79
1/24/2021 4:30:00 AM -0.07 31.874 0.159 7.16 3.5 13.78
1/24/2021 4:45:00 AM -0.07 31.874 0.158 7.17 3.47 13.8
1/24/2021 5:00:00 AM -0.07 31.874 0.158 7.17 3.37 13.8
1/24/2021 5:15:00 AM -0.07 31.874 0.158 7.16 3.75 13.79
1/24/2021 5:30:00 AM -0.07 31.874 0.159 7.17 3.36 13.8
1/24/2021 5:45:00 AM -0.07 31.874 0.159 7.16 3.53 13.78
1/24/2021 6:00:00 AM -0.06 31.892 0.159 7.17 3.66 13.79
1/24/2021 6:15:00 AM -0.07 31.874 0.159 7.17 3.69 13.78
1/24/2021 6:30:00 AM -0.06 31.892 0.16 7.18 3.44 13.78
1/24/2021 6:45:00 AM -0.07 31.874 0.159 7.17 3.67 13.78
1/24/2021 7:00:00 AM -0.06 31.892 0.16 7.16 3.47 13.78
1/24/2021 7:15:00 AM -0.06 31.892 0.16 7.17 3.38 13.78
1/24/2021 7:30:00 AM -0.06 31.892 0.16 7.17 3.58 13.78
1/24/2021 7:45:00 AM -0.06 31.892 0.16 7.16 3.47 13.78
1/24/2021 8:00:00 AM -0.06 31.892 0.16 7.17 3.53 13.79
1/24/2021 8:15:00 AM -0.05 31.91 0.16 7.15 3.34 13.82
1/24/2021 8:30:00 AM -0.04 31.928 0.161 7.16 3.34 13.82
1/24/2021 8:45:00 AM -0.05 31.91 0.16 7.17 3.3 13.85
1/24/2021 9:00:00 AM -0.04 31.928 0.161 7.17 3.27 13.86
1/24/2021 9:15:00 AM -0.04 31.928 0.161 7.16 3.34 13.88
1/24/2021 9:30:00 AM -0.01 31.982 0.16 7.11 3.63 13.89
1/24/2021 9:45:00 AM 0.02 32.036 0.16 7.1 3.63 13.9
1/24/2021 10:00:00 AM 0.05 32.09 0.16 7.1 3.64 13.91
1/24/2021 10:15:00 AM 0.06 32.108 0.16 7.12 3.81 13.94
1/24/2021 10:30:00 AM 0.08 32.144 0.159 7.11 3.63 13.94
1/24/2021 10:45:00 AM 0.07 32.126 0.158 7.11 3.78 13.95
1/24/2021 11:00:00 AM 0.06 32.108 0.158 7.1 3.66 13.97
1/24/2021 11:15:00 AM 0.06 32.108 0.157 7.1 3.67 13.97
1/24/2021 11:30:00 AM 0.04 32.072 0.156 7.1 3.6 13.98
1/24/2021 11:45:00 AM 0.05 32.09 0.156 7.11 3.62 13.99
1/24/2021 12:00:00 PM 0.08 32.144 0.155 7.11 3.62 13.99
1/24/2021 12:15:00 PM 0.1 32.18 0.155 7.12 3.62 14.01
1/24/2021 12:30:00 PM 0.13 32.234 0.155 7.12 3.67 14.01
1/24/2021 12:45:00 PM 0.16 32.288 0.155 7.13 3.71 14.02
1/24/2021 1:00:00 PM 0.2 32.36 0.155 7.13 3.69 14.02
1/24/2021 1:15:00 PM 0.23 32.414 0.155 7.15 3.61 14.03
1/24/2021 1:30:00 PM 0.25 32.45 0.156 7.14 3.67 14.03
1/24/2021 1:45:00 PM 0.27 32.486 0.156 7.16 3.71 14.02
1/24/2021 2:00:00 PM 0.29 32.522 0.156 7.14 3.75 14.02
1/24/2021 2:15:00 PM 0.29 32.522 0.155 7.16 3.9 14.02
1/24/2021 2:30:00 PM 0.29 32.522 0.155 7.14 3.93 14.03
1/24/2021 2:45:00 PM 0.29 32.522 0.154 7.13 3.81 14.04
1/24/2021 3:00:00 PM 0.28 32.504 0.154 7.14 3.79 14.04
1/24/2021 3:15:00 PM 0.28 32.504 0.153 7.13 3.95 14.04
1/24/2021 3:30:00 PM 0.26 32.468 0.152 7.15 3.95 14.05
1/24/2021 3:45:00 PM 0.24 32.432 0.152 7.14 3.96 14.05
1/24/2021 4:00:00 PM 0.23 32.414 0.152 7.13 3.92 14.06
1/24/2021 4:15:00 PM 0.2 32.36 0.151 7.13 3.78 14.05
1/24/2021 4:30:00 PM 0.16 32.288 0.151 7.13 3.93 14.05
1/24/2021 4:45:00 PM 0.13 32.234 0.151 7.13 3.83 14.05
1/24/2021 5:00:00 PM 0.11 32.198 0.15 7.13 3.81 14.03
1/24/2021 5:15:00 PM 0.09 32.162 0.15 7.12 3.86 14.02
1/24/2021 5:30:00 PM 0.05 32.09 0.149 7.12 3.9 14
1/24/2021 5:45:00 PM 0.03 32.054 0.149 7.12 3.93 13.99
1/24/2021 6:00:00 PM 0.01 32.018 0.149 7.12 3.75 13.97
1/24/2021 6:15:00 PM -0.02 31.964 0.149 7.1 3.77 13.98
1/24/2021 6:30:00 PM -0.04 31.928 0.148 7.11 3.82 13.96
1/24/2021 6:45:00 PM -0.06 31.892 0.148 7.12 3.87 13.95
1/24/2021 7:00:00 PM -0.07 31.874 0.149 7.11 3.78 13.96
1/24/2021 7:15:00 PM -0.08 31.856 0.149 7.11 3.86 13.95
1/24/2021 7:30:00 PM -0.08 31.856 0.149 7.12 4 13.94
1/24/2021 7:45:00 PM -0.08 31.856 0.149 7.11 3.83 13.93
1/24/2021 8:00:00 PM -0.08 31.856 0.15 7.12 3.88 13.93
1/24/2021 8:15:00 PM -0.07 31.874 0.15 7.11 3.81 13.91
1/24/2021 8:30:00 PM -0.08 31.856 0.151 7.12 3.69 13.91
1/24/2021 8:45:00 PM -0.08 31.856 0.151 7.1 3.85 13.91
1/24/2021 9:00:00 PM -0.09 31.838 0.152 7.11 3.69 13.89
1/24/2021 9:15:00 PM -0.09 31.838 0.152 7.1 3.84 13.89
1/24/2021 9:30:00 PM -0.08 31.856 0.154 7.11 3.71 13.88
1/24/2021 9:45:00 PM -0.08 31.856 0.153 7.13 5.42 13.87
1/24/2021 10:00:00 PM -0.07 31.874 0.154 7.11 3.89 13.87
1/24/2021 10:15:00 PM -0.07 31.874 0.154 7.11 3.78 13.87
1/24/2021 10:30:00 PM -0.07 31.874 0.155 7.1 3.8 13.86
1/24/2021 10:45:00 PM -0.07 31.874 0.156 7.11 3.74 13.86
1/24/2021 11:00:00 PM -0.08 31.856 0.156 7.1 3.79 13.85
1/24/2021 11:15:00 PM -0.07 31.874 0.157 7.11 3.7 13.84
1/24/2021 11:30:00 PM -0.08 31.856 0.157 7.13 3.59 13.83
1/24/2021 11:45:00 PM -0.08 31.856 0.158 7.1 3.67 13.83
1/25/2021 12:00:00 AM -0.08 31.856 0.158 7.11 3.67 13.84
1/25/2021 12:15:00 AM -0.08 31.856 0.159 7.11 3.72 13.83
1/25/2021 12:30:00 AM -0.09 31.838 0.159 7.11 3.68 13.84
1/25/2021 12:45:00 AM -0.09 31.838 0.159 7.1 3.58 13.84
1/25/2021 1:00:00 AM -0.09 31.838 0.16 7.11 3.67 13.83
1/25/2021 1:15:00 AM -0.09 31.838 0.16 7.11 3.6 13.82
1/25/2021 1:30:00 AM -0.09 31.838 0.16 7.11 3.65 13.82
1/25/2021 1:45:00 AM -0.09 31.838 0.161 7.1 4.47 13.82
1/25/2021 2:00:00 AM -0.08 31.856 0.161 7.11 3.56 13.8
1/25/2021 2:15:00 AM -0.08 31.856 0.161 7.1 3.59 13.8
1/25/2021 2:30:00 AM -0.08 31.856 0.162 7.1 3.41 13.81
1/25/2021 2:45:00 AM -0.08 31.856 0.163 7.1 3.62 13.8
1/25/2021 3:00:00 AM -0.08 31.856 0.164 7.11 3.54 13.8
1/25/2021 3:15:00 AM -0.08 31.856 0.163 7.11 3.47 13.8
1/25/2021 3:30:00 AM -0.08 31.856 0.164 7.1 3.47 13.79
1/25/2021 3:45:00 AM -0.08 31.856 0.164 7.08 3.57 13.78
1/25/2021 4:00:00 AM -0.07 31.874 0.164 7.11 3.53 13.78
1/25/2021 4:15:00 AM -0.07 31.874 0.165 7.15 3.47 13.77
1/25/2021 4:30:00 AM -0.07 31.874 0.165 7.16 3.52 13.77
1/25/2021 4:45:00 AM -0.07 31.874 0.164 7.18 3.43 13.76
1/25/2021 5:00:00 AM -0.07 31.874 0.166 7.17 3.46 13.76
1/25/2021 5:15:00 AM -0.06 31.892 0.166 7.18 3.64 13.74
1/25/2021 5:30:00 AM -0.07 31.874 0.166 7.19 3.46 13.76
1/25/2021 5:45:00 AM -0.06 31.892 0.166 7.18 3.46 13.74
1/25/2021 6:00:00 AM -0.06 31.892 0.167 7.15 3.67 13.73
1/25/2021 6:15:00 AM -0.06 31.892 0.167 7.13 3.56 13.74
1/25/2021 6:30:00 AM -0.06 31.892 0.167 7.13 3.62 13.74
1/25/2021 6:45:00 AM -0.05 31.91 0.167 7.13 3.41 13.73
1/25/2021 7:00:00 AM -0.05 31.91 0.169 7.15 3.51 13.72
1/25/2021 7:15:00 AM -0.05 31.91 0.169 7.16 3.52 13.73
1/25/2021 7:30:00 AM -0.04 31.928 0.169 7.15 3.55 13.7
1/25/2021 7:45:00 AM -0.04 31.928 0.169 7.15 3.48 13.71
1/25/2021 8:00:00 AM -0.03 31.946 0.168 7.14 3.4 13.72
1/25/2021 8:15:00 AM -0.03 31.946 0.17 7.17 3.38 13.73
1/25/2021 8:30:00 AM -0.02 31.964 0.17 7.15 3.36 13.76
1/25/2021 8:45:00 AM -0.02 31.964 0.169 7.16 3.25 13.77
1/25/2021 9:00:00 AM -0.02 31.964 0.169 7.16 3.45 13.8
1/25/2021 9:15:00 AM 0 32 0.17 7.16 3.4 13.79
1/25/2021 9:30:00 AM 0 32 0.169 7.15 3.42 13.83
1/25/2021 9:45:00 AM 0.02 32.036 0.169 7.13 3.49 13.84
1/25/2021 10:00:00 AM 0.04 32.072 0.169 7.15 3.49 13.84
1/25/2021 10:15:00 AM 0.05 32.09 0.168 7.15 3.55 13.84
1/25/2021 10:30:00 AM 0.06 32.108 0.167 7.12 3.72 13.86
1/25/2021 10:45:00 AM 0.08 32.144 0.167 7.11 4.03 13.85
1/25/2021 11:00:00 AM 0.09 32.162 0.167 7.11 3.97 13.87
1/25/2021 11:15:00 AM 0.1 32.18 0.167 7.1 4.05 13.88
1/25/2021 11:30:00 AM 0.11 32.198 0.166 7.11 4.2 13.89
1/25/2021 11:45:00 AM 0.12 32.216 0.165 7.09 4.65 13.9
1/25/2021 12:00:00 PM 0.14 32.252 0.165 7.08 4.96 13.9
1/25/2021 12:15:00 PM 0.14 32.252 0.165 7.1 4.23 13.9
1/25/2021 12:30:00 PM 0.13 32.234 0.164 7.09 4.17 13.9
1/25/2021 12:45:00 PM 0.13 32.234 0.164 7.09 4.34 13.9
1/25/2021 1:00:00 PM 0.15 32.27 0.164 7.09 4.3 13.91
1/25/2021 1:15:00 PM 0.12 32.216 0.164 7.09 4.48 13.91
1/25/2021 1:30:00 PM 0.12 32.216 0.163 7.12 4.45 13.92
1/25/2021 1:45:00 PM 0.11 32.198 0.163 7.1 4.58 13.93
1/25/2021 2:00:00 PM 0.11 32.198 0.162 7.11 4.71 13.95
1/25/2021 2:15:00 PM 0.14 32.252 0.161 7.12 4.9 13.95
1/25/2021 2:30:00 PM 0.18 32.324 0.161 7.12 4.87 13.96
1/25/2021 2:45:00 PM 0.19 32.342 0.161 7.14 4.63 13.96
1/25/2021 3:00:00 PM 0.19 32.342 0.16 7.14 4.43 13.96
1/25/2021 3:15:00 PM 0.2 32.36 0.159 7.15 4.38 13.96
1/25/2021 3:30:00 PM 0.2 32.36 0.159 7.14 4.29 13.96
1/25/2021 3:45:00 PM 0.18 32.324 0.158 7.14 4.36 13.95
1/25/2021 4:00:00 PM 0.17 32.306 0.156 7.14 4.54 13.96
1/25/2021 4:15:00 PM 0.16 32.288 0.155 7.14 4.44 13.95
1/25/2021 4:30:00 PM 0.15 32.27 0.154 7.14 4.41 13.95
1/25/2021 4:45:00 PM 0.13 32.234 0.154 7.15 4.22 13.94
1/25/2021 5:00:00 PM 0.11 32.198 0.153 7.13 4.31 13.93
1/25/2021 5:15:00 PM 0.09 32.162 0.152 7.12 4.23 13.92
1/25/2021 5:30:00 PM 0.07 32.126 0.152 7.12 4.32 13.89
1/25/2021 5:45:00 PM 0.06 32.108 0.152 7.11 4.19 13.88
1/25/2021 6:00:00 PM 0.05 32.09 0.152 7.12 4.24 13.87
1/25/2021 6:15:00 PM 0.04 32.072 0.151 7.12 4.22 13.86
1/25/2021 6:30:00 PM 0.03 32.054 0.151 7.11 4.05 13.84
1/25/2021 6:45:00 PM 0.02 32.036 0.151 7.11 4.12 13.83
1/25/2021 7:00:00 PM 0.02 32.036 0.151 7.13 4.03 13.82
1/25/2021 7:15:00 PM 0.01 32.018 0.151 7.11 4 13.82
1/25/2021 7:30:00 PM 0.01 32.018 0.151 7.11 3.96 13.8
1/25/2021 7:45:00 PM 0.01 32.018 0.151 7.11 3.93 13.8
1/25/2021 8:00:00 PM 0.01 32.018 0.151 7.11 3.87 13.8
1/25/2021 8:15:00 PM 0 32 0.151 7.11 3.91 13.8
1/25/2021 8:30:00 PM 0 32 0.151 7.11 3.91 13.79
1/25/2021 8:45:00 PM -0.01 31.982 0.151 7.11 3.87 13.78
1/25/2021 9:00:00 PM -0.01 31.982 0.152 7.1 3.99 13.77
1/25/2021 9:15:00 PM -0.01 31.982 0.152 7.11 3.86 13.76
1/25/2021 9:30:00 PM -0.01 31.982 0.152 7.11 4 13.76
1/25/2021 9:45:00 PM -0.01 31.982 0.153 7.11 3.82 13.75
1/25/2021 10:00:00 PM 0 32 0.153 7.11 3.93 13.73
1/25/2021 10:15:00 PM -0.01 31.982 0.154 7.11 3.96 13.74
1/25/2021 10:30:00 PM -0.01 31.982 0.154 7.11 3.92 13.73
1/25/2021 10:45:00 PM -0.01 31.982 0.155 7.12 3.91 13.72
1/25/2021 11:00:00 PM -0.01 31.982 0.155 7.12 3.99 13.72
1/25/2021 11:15:00 PM -0.01 31.982 0.155 7.11 3.88 13.72
1/25/2021 11:30:00 PM -0.02 31.964 0.156 7.11 3.94 13.71
1/25/2021 11:45:00 PM -0.02 31.964 0.156 7.11 3.87 13.7
1/26/2021 12:00:00 AM -0.02 31.964 0.157 7.12 3.96 13.7
1/26/2021 12:15:00 AM -0.01 31.982 0.157 7.11 3.9 13.7
1/26/2021 12:30:00 AM -0.01 31.982 0.157 7.11 3.91 13.69
1/26/2021 12:45:00 AM -0.01 31.982 0.157 7.11 3.78 13.69
1/26/2021 1:00:00 AM 0 32 0.158 7.12 3.83 13.69
1/26/2021 1:15:00 AM 0 32 0.158 7.12 3.79 13.68
1/26/2021 1:30:00 AM 0 32 0.158 7.12 3.86 13.68
1/26/2021 1:45:00 AM 0 32 0.158 7.11 3.83 13.67
1/26/2021 2:00:00 AM 0 32 0.159 7.1 3.67 13.67
1/26/2021 2:15:00 AM 0 32 0.158 7.11 3.86 13.66
1/26/2021 2:30:00 AM 0.01 32.018 0.159 7.11 3.71 13.65
1/26/2021 2:45:00 AM 0.01 32.018 0.159 7.11 3.81 13.66
1/26/2021 3:00:00 AM 0.01 32.018 0.159 7.11 3.87 13.65
1/26/2021 3:15:00 AM 0.01 32.018 0.159 7.11 3.92 13.66
1/26/2021 3:30:00 AM 0.01 32.018 0.159 7.11 4.05 13.65
1/26/2021 3:45:00 AM 0.02 32.036 0.158 7.12 4.44 13.65
1/26/2021 4:00:00 AM 0.02 32.036 0.158 7.1 4.11 13.65
1/26/2021 4:15:00 AM 0.02 32.036 0.159 7.11 4 13.64
1/26/2021 4:30:00 AM 0.02 32.036 0.159 7.11 3.98 13.64
1/26/2021 4:45:00 AM 0.03 32.054 0.159 7.1 4.01 13.63
1/26/2021 5:00:00 AM 0.03 32.054 0.159 7.12 4.04 13.63
1/26/2021 5:15:00 AM 0.02 32.036 0.159 7.11 3.88 13.63
1/26/2021 5:30:00 AM 0.02 32.036 0.159 7.11 3.94 13.63
1/26/2021 5:45:00 AM 0 32 0.159 7.11 3.79 13.63
1/26/2021 6:00:00 AM -0.01 31.982 0.159 7.1 3.82 13.63
1/26/2021 6:15:00 AM -0.02 31.964 0.159 7.09 3.81 13.63
1/26/2021 6:30:00 AM -0.03 31.946 0.159 7.12 3.75 13.63
1/26/2021 6:45:00 AM -0.05 31.91 0.159 7.13 3.82 13.64
1/26/2021 7:00:00 AM -0.04 31.928 0.159 7.1 3.65 13.63
1/26/2021 7:15:00 AM -0.05 31.91 0.159 7.09 3.82 13.63
1/26/2021 7:30:00 AM -0.04 31.928 0.159 7.11 3.74 13.64
1/26/2021 7:45:00 AM -0.03 31.946 0.159 7.1 3.83 13.64
1/26/2021 8:00:00 AM -0.01 31.982 0.159 7.1 3.79 13.65
1/26/2021 8:15:00 AM 0 32 0.159 7.11 3.77 13.65
1/26/2021 8:30:00 AM 0.01 32.018 0.159 7.12 3.82 13.66
1/26/2021 8:45:00 AM 0.03 32.054 0.159 7.11 3.8 13.67
1/26/2021 9:00:00 AM 0.05 32.09 0.159 7.13 3.85 13.69
1/26/2021 9:15:00 AM 0.07 32.126 0.159 7.12 3.89 13.7
1/26/2021 9:30:00 AM 0.09 32.162 0.159 7.12 3.74 13.7
1/26/2021 9:45:00 AM 0.1 32.18 0.159 7.13 3.56 13.72
1/26/2021 10:00:00 AM 0.12 32.216 0.159 7.13 3.73 13.73
1/26/2021 10:15:00 AM 0.13 32.234 0.159 7.14 3.63 13.75
1/26/2021 10:30:00 AM 0.12 32.216 0.159 7.13 3.69 13.76
1/26/2021 10:45:00 AM 0.09 32.162 0.159 7.14 3.56 13.76
1/26/2021 11:00:00 AM 0.07 32.126 0.16 7.14 3.58 13.76
1/26/2021 11:15:00 AM 0.03 32.054 0.159 7.13 3.64 13.75
1/26/2021 11:30:00 AM -0.01 31.982 0.158 7.14 3.61 13.77
1/26/2021 11:45:00 AM -0.01 31.982 0.161 7.12 3.67 13.75
1/26/2021 12:00:00 PM -0.01 31.982 0.158 7.14 3.6 13.78
1/26/2021 12:15:00 PM 0 32 0.158 7.15 4.2 13.81
1/26/2021 12:30:00 PM -0.01 31.982 0.158 7.15 3.45 13.83
1/26/2021 12:45:00 PM 0 32 0.158 7.16 3.47 13.82
1/26/2021 1:00:00 PM 0.01 32.018 0.158 7.15 3.35 13.83
1/26/2021 1:15:00 PM 0.02 32.036 0.157 7.15 3.39 13.84
1/26/2021 1:30:00 PM 0.02 32.036 0.157 7.15 3.4 13.84
1/26/2021 1:45:00 PM 0.02 32.036 0.157 7.15 3.36 13.84
1/26/2021 2:00:00 PM 0 32 0.158 7.15 3.32 13.85
1/26/2021 2:15:00 PM 0 32 0.157 7.15 3.3 13.84
1/26/2021 2:30:00 PM 0.01 32.018 0.157 7.16 3.31 13.85
1/26/2021 2:45:00 PM 0.01 32.018 0.156 7.15 3.34 13.85
1/26/2021 3:00:00 PM 0 32 0.156 7.16 3.32 13.85
1/26/2021 3:15:00 PM 0 32 0.157 7.17 3.39 13.85
1/26/2021 3:30:00 PM 0.01 32.018 0.156 7.16 3.34 13.84
1/26/2021 3:45:00 PM 0.02 32.036 0.156 7.16 3.36 13.84
1/26/2021 4:00:00 PM 0.03 32.054 0.156 7.16 3.36 13.84
1/26/2021 4:15:00 PM 0.04 32.072 0.156 7.16 3.39 13.83
1/26/2021 4:30:00 PM 0.04 32.072 0.156 7.16 3.39 13.82
1/26/2021 4:45:00 PM 0.04 32.072 0.156 7.16 3.26 13.8
1/26/2021 5:00:00 PM 0.05 32.09 0.156 7.17 3.18 13.78
1/26/2021 5:15:00 PM 0.05 32.09 0.156 7.17 3.16 13.75
1/26/2021 5:30:00 PM 0.06 32.108 0.157 7.15 3.18 13.75
1/26/2021 5:45:00 PM 0.05 32.09 0.156 7.14 3.22 13.73
1/26/2021 6:00:00 PM 0.06 32.108 0.156 7.16 3.19 13.71
1/26/2021 6:15:00 PM 0.06 32.108 0.156 7.15 3.13 13.69
1/26/2021 6:30:00 PM 0.06 32.108 0.156 7.15 3.15 13.68
1/26/2021 6:45:00 PM 0.05 32.09 0.156 7.14 3.18 13.66
1/26/2021 7:00:00 PM 0.05 32.09 0.156 7.15 3.17 13.66
1/26/2021 7:15:00 PM 0.05 32.09 0.156 7.15 3.19 13.64
1/26/2021 7:30:00 PM 0.06 32.108 0.156 7.14 3.02 13.64
1/26/2021 7:45:00 PM 0.07 32.126 0.156 7.14 3.06 13.62
1/26/2021 8:00:00 PM 0.07 32.126 0.156 7.13 3.15 13.63
1/26/2021 8:15:00 PM 0.08 32.144 0.156 7.14 3.12 13.62
1/26/2021 8:30:00 PM 0.08 32.144 0.156 7.14 3.15 13.61
1/26/2021 8:45:00 PM 0.09 32.162 0.156 7.13 3.74 13.6
1/26/2021 9:00:00 PM 0.09 32.162 0.157 7.14 3.13 13.59
1/26/2021 9:15:00 PM 0.1 32.18 0.157 7.14 120.24 13.58
1/26/2021 9:30:00 PM 0.1 32.18 0.157 7.18 3.29 13.57
1/26/2021 9:45:00 PM 0.1 32.18 0.158 7.12 3.28 13.57
1/26/2021 10:00:00 PM 0.1 32.18 0.157 7.12 3.27 13.57
1/26/2021 10:15:00 PM 0.11 32.198 0.158 7.13 3.32 13.55
1/26/2021 10:30:00 PM 0.11 32.198 0.158 7.13 3.28 13.55
1/26/2021 10:45:00 PM 0.12 32.216 0.158 7.13 3.37 13.55
1/26/2021 11:00:00 PM 0.12 32.216 0.157 7.13 3.36 13.54
1/26/2021 11:15:00 PM 0.12 32.216 0.157 7.12 3.34 13.54
1/26/2021 11:30:00 PM 0.13 32.234 0.157 7.12 3.4 13.53
1/26/2021 11:45:00 PM 0.12 32.216 0.157 7.12 3.42 13.53
1/27/2021 12:00:00 AM 0.12 32.216 0.158 7.12 3.39 13.52
1/27/2021 12:15:00 AM 0.12 32.216 0.157 7.11 3.34 13.53
1/27/2021 12:30:00 AM 0.12 32.216 0.158 7.12 3.39 13.53
1/27/2021 12:45:00 AM 0.13 32.234 0.158 7.12 3.34 13.52
1/27/2021 1:00:00 AM 0.13 32.234 0.158 7.11 3.6 13.52
1/27/2021 1:15:00 AM 0.13 32.234 0.159 7.11 3.39 13.51
1/27/2021 1:30:00 AM 0.13 32.234 0.158 7.11 3.35 13.52
1/27/2021 1:45:00 AM 0.13 32.234 0.159 7.12 3.34 13.52
1/27/2021 2:00:00 AM 0.13 32.234 0.159 7.12 3.29 13.51
1/27/2021 2:15:00 AM 0.13 32.234 0.157 7.12 3.46 13.52
1/27/2021 2:30:00 AM 0.13 32.234 0.157 7.12 3.48 13.52
1/27/2021 2:45:00 AM 0.13 32.234 0.157 7.13 3.35 13.52
1/27/2021 3:00:00 AM 0.14 32.252 0.156 7.13 3.42 13.51
1/27/2021 3:15:00 AM 0.13 32.234 0.157 7.13 3.34 13.52
1/27/2021 3:30:00 AM 0.13 32.234 0.157 7.11 3.42 13.52
1/27/2021 3:45:00 AM 0.13 32.234 0.156 7.11 3.33 13.53
1/27/2021 4:00:00 AM 0.12 32.216 0.157 7.11 3.45 13.53
1/27/2021 4:15:00 AM 0.12 32.216 0.156 7.11 3.42 13.53
1/27/2021 4:30:00 AM 0.11 32.198 0.156 7.11 3.37 13.53
1/27/2021 4:45:00 AM 0.11 32.198 0.157 7.11 3.32 13.53
1/27/2021 5:00:00 AM 0.11 32.198 0.156 7.13 3.34 13.53
1/27/2021 5:15:00 AM 0.1 32.18 0.156 7.12 3.35 13.54
1/27/2021 5:30:00 AM 0.09 32.162 0.157 7.12 3.4 13.55
1/27/2021 5:45:00 AM 0.07 32.126 0.157 7.11 3.46 13.55
1/27/2021 6:00:00 AM 0.07 32.126 0.157 7.12 3.37 13.55
1/27/2021 6:15:00 AM 0.07 32.126 0.157 7.12 3.47 13.56
1/27/2021 6:30:00 AM 0.08 32.144 0.157 7.12 3.59 13.55
1/27/2021 6:45:00 AM 0.08 32.144 0.157 7.12 3.55 13.57
1/27/2021 7:00:00 AM 0.08 32.144 0.158 7.11 3.49 13.57
1/27/2021 7:15:00 AM 0.07 32.126 0.157 7.14 3.49 13.58
1/27/2021 7:30:00 AM 0.07 32.126 0.157 7.13 3.5 13.59
1/27/2021 7:45:00 AM 0.07 32.126 0.157 7.13 3.51 13.59
1/27/2021 8:00:00 AM 0.07 32.126 0.157 7.11 3.45 13.6
1/27/2021 8:15:00 AM 0.07 32.126 0.157 7.13 3.49 13.61
1/27/2021 8:30:00 AM 0.08 32.144 0.158 7.13 3.3 13.62
1/27/2021 8:45:00 AM 0.08 32.144 0.157 7.13 3.38 13.64
1/27/2021 9:00:00 AM 0.08 32.144 0.157 7.12 3.46 13.66
1/27/2021 9:15:00 AM 0.09 32.162 0.157 7.13 3.48 13.69
1/27/2021 9:30:00 AM 0.11 32.198 0.158 7.14 3.43 13.71
1/27/2021 9:45:00 AM 0.13 32.234 0.157 7.13 3.48 13.74
1/27/2021 10:00:00 AM 0.13 32.234 0.157 7.16 3.36 13.76
1/27/2021 10:15:00 AM 0.14 32.252 0.157 7.17 3.32 13.78
1/27/2021 10:30:00 AM 0.15 32.27 0.158 7.15 3.24 13.8
1/27/2021 10:45:00 AM 0.15 32.27 0.157 7.16 3.31 13.81
1/27/2021 11:00:00 AM 0.16 32.288 0.157 7.14 3.27 13.83
1/27/2021 11:15:00 AM 0.16 32.288 0.157 7.17 3.28 13.85
1/27/2021 11:30:00 AM 0.17 32.306 0.157 7.17 3.25 13.86
1/27/2021 11:45:00 AM 0.17 32.306 0.157 7.17 3.17 13.88
1/27/2021 12:00:00 PM 0.18 32.324 0.157 7.17 3.24 13.89
1/27/2021 12:15:00 PM 0.19 32.342 0.157 7.19 3.2 13.91
1/27/2021 12:30:00 PM 0.2 32.36 0.157 7.18 3.25 13.92
1/27/2021 12:45:00 PM 0.21 32.378 0.157 7.17 3.16 13.93
1/27/2021 1:00:00 PM 0.22 32.396 0.156 7.18 3.14 13.94
1/27/2021 1:15:00 PM 0.23 32.414 0.157 7.18 3.01 13.95
1/27/2021 1:30:00 PM 0.25 32.45 0.156 7.19 3.13 13.96
1/27/2021 1:45:00 PM 0.27 32.486 0.157 7.21 3.19 13.97
1/27/2021 2:00:00 PM 0.29 32.522 0.156 7.2 3.18 13.98
1/27/2021 2:15:00 PM 0.32 32.576 0.157 7.19 3.07 13.99
1/27/2021 2:30:00 PM 0.34 32.612 0.157 7.2 2.98 13.99
1/27/2021 2:45:00 PM 0.35 32.63 0.156 7.21 3.06 14
1/27/2021 3:00:00 PM 0.35 32.63 0.157 7.21 3.08 13.99
1/27/2021 3:15:00 PM 0.34 32.612 0.156 7.2 3.04 14
1/27/2021 3:30:00 PM 0.33 32.594 0.156 7.2 2.98 14
1/27/2021 3:45:00 PM 0.32 32.576 0.156 7.18 3.07 14
1/27/2021 4:00:00 PM 0.31 32.558 0.156 7.2 3.06 13.99
1/27/2021 4:15:00 PM 0.29 32.522 0.156 7.2 3.01 14
1/27/2021 4:30:00 PM 0.29 32.522 0.156 7.2 3.06 13.99
1/27/2021 4:45:00 PM 0.27 32.486 0.155 7.2 3.09 13.98
1/27/2021 5:00:00 PM 0.26 32.468 0.156 7.2 3.12 13.96
1/27/2021 5:15:00 PM 0.24 32.432 0.155 7.19 3.15 13.94
1/27/2021 5:30:00 PM 0.22 32.396 0.156 7.19 3.07 13.92
1/27/2021 5:45:00 PM 0.21 32.378 0.155 7.18 3.11 13.9
1/27/2021 6:00:00 PM 0.2 32.36 0.156 7.18 3.14 13.89
1/27/2021 6:15:00 PM 0.19 32.342 0.155 7.18 3.14 13.88
1/27/2021 6:30:00 PM 0.18 32.324 0.155 7.15 3.1 13.86
1/27/2021 6:45:00 PM 0.17 32.306 0.155 7.17 3.22 13.85
1/27/2021 7:00:00 PM 0.16 32.288 0.155 7.18 3.03 13.84
1/27/2021 7:15:00 PM 0.15 32.27 0.155 7.17 3.25 13.83
1/27/2021 7:30:00 PM 0.14 32.252 0.155 7.16 3.31 13.82
1/27/2021 7:45:00 PM 0.13 32.234 0.155 7.16 3.18 13.82
1/27/2021 8:00:00 PM 0.13 32.234 0.155 7.15 3.16 13.82
1/27/2021 8:15:00 PM 0.12 32.216 0.155 7.16 3.14 13.81
1/27/2021 8:30:00 PM 0.11 32.198 0.155 7.16 3.22 13.81
1/27/2021 8:45:00 PM 0.11 32.198 0.155 7.16 3.09 13.79
1/27/2021 9:00:00 PM 0.11 32.198 0.155 7.15 3.14 13.79
1/27/2021 9:15:00 PM 0.1 32.18 0.155 7.15 3.13 13.79
1/27/2021 9:30:00 PM 0.09 32.162 0.155 7.15 3.23 13.79
1/27/2021 9:45:00 PM 0.09 32.162 0.156 7.16 3.11 13.77
1/27/2021 10:00:00 PM 0.07 32.126 0.155 7.13 3.27 13.78
1/27/2021 10:15:00 PM 0.06 32.108 0.155 7.16 3.21 13.78
1/27/2021 10:30:00 PM 0.04 32.072 0.156 7.15 3.24 13.77
1/27/2021 10:45:00 PM 0.02 32.036 0.155 7.15 3.23 13.78
1/27/2021 11:00:00 PM 0 32 0.156 7.14 3.19 13.78
1/27/2021 11:15:00 PM -0.03 31.946 0.155 7.15 3.37 13.78
1/27/2021 11:30:00 PM -0.03 31.946 0.156 7.14 3.31 13.78
1/27/2021 11:45:00 PM -0.05 31.91 0.156 7.14 3.35 13.78
1/28/2021 12:00:00 AM -0.07 31.874 0.156 7.13 3.36 13.78
1/28/2021 12:15:00 AM -0.09 31.838 0.156 7.14 3.41 13.79
1/28/2021 12:30:00 AM -0.1 31.82 0.156 7.14 3.39 13.8
1/28/2021 12:45:00 AM -0.09 31.838 0.157 7.14 3.3 13.8
1/28/2021 1:00:00 AM -0.09 31.838 0.158 7.14 3.3 13.8
1/28/2021 1:15:00 AM -0.08 31.856 0.158 7.14 3.36 13.79
1/28/2021 1:30:00 AM -0.07 31.874 0.158 7.17 3.37 13.79
1/28/2021 1:45:00 AM -0.06 31.892 0.158 7.14 3.37 13.78
1/28/2021 2:00:00 AM -0.05 31.91 0.158 7.14 3.39 13.77
1/28/2021 2:15:00 AM -0.05 31.91 0.158 7.15 3.57 13.79
1/28/2021 2:30:00 AM -0.05 31.91 0.158 7.13 3.49 13.78
1/28/2021 2:45:00 AM -0.05 31.91 0.159 7.13 3.5 13.77
1/28/2021 3:00:00 AM -0.05 31.91 0.159 7.13 3.36 13.78
1/28/2021 3:15:00 AM -0.04 31.928 0.16 7.14 3.32 13.76
1/28/2021 3:30:00 AM -0.05 31.91 0.159 7.14 3.46 13.77
1/28/2021 3:45:00 AM -0.04 31.928 0.159 7.14 3.57 13.77
1/28/2021 4:00:00 AM -0.05 31.91 0.159 7.13 3.47 13.78
1/28/2021 4:15:00 AM -0.04 31.928 0.16 7.14 3.59 13.77
1/28/2021 4:30:00 AM -0.04 31.928 0.16 7.15 3.59 13.77
1/28/2021 4:45:00 AM -0.05 31.91 0.16 7.15 3.65 13.77
1/28/2021 5:00:00 AM -0.04 31.928 0.16 7.14 3.58 13.77
1/28/2021 5:15:00 AM -0.06 31.892 0.161 7.13 3.58 13.78
1/28/2021 5:30:00 AM -0.05 31.91 0.161 7.15 3.61 13.76
1/28/2021 5:45:00 AM -0.06 31.892 0.161 7.14 3.66 13.78
1/28/2021 6:00:00 AM -0.05 31.91 0.161 7.15 3.57 13.77
1/28/2021 6:15:00 AM -0.06 31.892 0.161 7.15 3.6 13.78
1/28/2021 6:30:00 AM -0.06 31.892 0.161 7.14 3.47 13.78
1/28/2021 6:45:00 AM -0.05 31.91 0.161 7.15 3.4 13.78
1/28/2021 7:00:00 AM -0.05 31.91 0.161 7.16 3.29 13.78
1/28/2021 7:15:00 AM -0.05 31.91 0.161 7.15 3.36 13.78
1/28/2021 7:30:00 AM -0.05 31.91 0.16 7.14 3.32 13.78
1/28/2021 7:45:00 AM -0.06 31.892 0.161 7.15 3.32 13.8
1/28/2021 8:00:00 AM -0.06 31.892 0.16 7.16 3.34 13.81
1/28/2021 8:15:00 AM -0.06 31.892 0.16 7.17 3.27 13.84
1/28/2021 8:30:00 AM -0.05 31.91 0.161 7.15 3.35 13.87
1/28/2021 8:45:00 AM -0.03 31.946 0.16 7.15 3.5 13.88
1/28/2021 9:00:00 AM -0.02 31.964 0.161 7.17 3.38 13.9
1/28/2021 9:15:00 AM -0.01 31.982 0.161 7.17 3.35 13.93
1/28/2021 9:30:00 AM -0.02 31.964 0.16 7.18 3.48 13.95
1/28/2021 9:45:00 AM 0.01 32.018 0.16 7.19 3.35 13.97
1/28/2021 10:00:00 AM 0.02 32.036 0.16 7.17 3.47 13.99
1/28/2021 10:15:00 AM 0.05 32.09 0.16 7.18 3.55 14
1/28/2021 10:30:00 AM 0.06 32.108 0.16 7.19 3.54 14.02
1/28/2021 10:45:00 AM 0.05 32.09 0.16 7.2 3.67 14.04
1/28/2021 11:00:00 AM 0.08 32.144 0.159 7.2 3.6 14.04
1/28/2021 11:15:00 AM 0.11 32.198 0.16 7.19 3.65 14.05
1/28/2021 11:30:00 AM 0.12 32.216 0.159 7.2 3.62 14.06
1/28/2021 11:45:00 AM 0.16 32.288 0.159 7.19 3.59 14.07
1/28/2021 12:00:00 PM 0.14 32.252 0.159 7.2 3.76 14.07
1/28/2021 12:15:00 PM 0.14 32.252 0.159 7.21 3.7 14.07
1/28/2021 12:30:00 PM 0.17 32.306 0.158 7.22 3.57 14.08
1/28/2021 12:45:00 PM 0.23 32.414 0.158 7.2 3.45 14.09
1/28/2021 1:00:00 PM 0.25 32.45 0.157 7.22 3.52 14.1
1/28/2021 1:15:00 PM 0.31 32.558 0.157 7.21 3.34 14.11
1/28/2021 1:30:00 PM 0.34 32.612 0.158 7.21 3.32 14.11
1/28/2021 1:45:00 PM 0.34 32.612 0.158 7.22 3.27 14.12
1/28/2021 2:00:00 PM 0.36 32.648 0.158 7.23 3.17 14.13
1/28/2021 2:15:00 PM 0.36 32.648 0.157 7.21 3.23 14.13
1/28/2021 2:30:00 PM 0.32 32.576 0.157 7.22 3.17 14.13
1/28/2021 2:45:00 PM 0.26 32.468 0.157 7.23 3.1 14.14
1/28/2021 3:00:00 PM 0.23 32.414 0.156 7.23 3.05 14.15
1/28/2021 3:15:00 PM 0.26 32.468 0.157 7.21 3.15 14.15
1/28/2021 3:30:00 PM 0.29 32.522 0.156 7.22 3.03 14.16
1/28/2021 3:45:00 PM 0.3 32.54 0.156 7.21 3.05 14.17
1/28/2021 4:00:00 PM 0.28 32.504 0.156 7.21 3.06 14.16
1/28/2021 4:15:00 PM 0.22 32.396 0.155 7.23 3.1 14.17
1/28/2021 4:30:00 PM 0.18 32.324 0.156 7.22 2.99 14.18
1/28/2021 4:45:00 PM 0.13 32.234 0.155 7.21 3.01 14.16
1/28/2021 5:00:00 PM 0.09 32.162 0.155 7.22 3.09 14.16
1/28/2021 5:15:00 PM 0.05 32.09 0.156 7.21 3.01 14.13
1/28/2021 5:30:00 PM 0.02 32.036 0.156 7.21 3.06 14.12
1/28/2021 5:45:00 PM 0 32 0.156 7.2 3.09 14.09
1/28/2021 6:00:00 PM -0.03 31.946 0.156 7.19 3 14.08
1/28/2021 6:15:00 PM -0.04 31.928 0.157 7.2 3.16 14.05
1/28/2021 6:30:00 PM -0.04 31.928 0.157 7.18 3.15 14.03
1/28/2021 6:45:00 PM -0.05 31.91 0.158 7.18 3.08 14.04
1/28/2021 7:00:00 PM -0.05 31.91 0.158 7.18 3.05 14.02
1/28/2021 7:15:00 PM -0.06 31.892 0.158 7.18 3.16 14.01
1/28/2021 7:30:00 PM -0.06 31.892 0.158 7.18 3.12 13.99
1/28/2021 7:45:00 PM -0.06 31.892 0.158 7.18 3.17 14
1/28/2021 8:00:00 PM -0.06 31.892 0.159 7.19 3.23 13.99
1/28/2021 8:15:00 PM -0.06 31.892 0.158 7.19 3.17 13.99
1/28/2021 8:30:00 PM -0.06 31.892 0.159 7.18 3.22 13.98
1/28/2021 8:45:00 PM -0.06 31.892 0.159 7.18 3.17 13.97
1/28/2021 9:00:00 PM -0.06 31.892 0.159 7.18 3.26 13.97
1/28/2021 9:15:00 PM -0.06 31.892 0.16 7.17 3.31 13.97
1/28/2021 9:30:00 PM -0.06 31.892 0.16 7.17 3.37 13.95
1/28/2021 9:45:00 PM -0.06 31.892 0.16 7.22 3.1 13.96
1/28/2021 10:00:00 PM -0.06 31.892 0.16 7.17 3.24 13.94
1/28/2021 10:15:00 PM -0.07 31.874 0.16 7.17 3.25 13.94
1/28/2021 10:30:00 PM -0.07 31.874 0.16 7.15 3.21 13.94
1/28/2021 10:45:00 PM -0.06 31.892 0.162 7.17 3.3 13.93
1/28/2021 11:00:00 PM -0.06 31.892 0.161 7.16 3.28 13.93
1/28/2021 11:15:00 PM -0.06 31.892 0.161 7.16 3.34 13.92
1/28/2021 11:30:00 PM -0.06 31.892 0.161 7.16 3.34 13.9
1/28/2021 11:45:00 PM -0.05 31.91 0.162 7.16 3.37 13.89
1/29/2021 12:00:00 AM -0.06 31.892 0.162 7.17 3.41 13.89
1/29/2021 12:15:00 AM -0.05 31.91 0.163 7.17 3.46 13.87
1/29/2021 12:30:00 AM -0.05 31.91 0.162 7.16 3.55 13.87
1/29/2021 12:45:00 AM -0.05 31.91 0.163 7.16 3.61 13.86
1/29/2021 1:00:00 AM -0.06 31.892 0.163 7.18 3.61 13.85
1/29/2021 1:15:00 AM -0.06 31.892 0.164 7.17 3.75 13.83
1/29/2021 1:30:00 AM -0.05 31.91 0.164 7.18 3.69 13.83
1/29/2021 1:45:00 AM -0.06 31.892 0.164 7.17 3.64 13.83
1/29/2021 2:00:00 AM -0.06 31.892 0.164 7.18 3.62 13.82
1/29/2021 2:15:00 AM -0.06 31.892 0.165 7.19 3.24 13.81
1/29/2021 2:30:00 AM -0.05 31.91 0.166 7.18 3.66 13.79
1/29/2021 2:45:00 AM -0.05 31.91 0.165 7.17 3.57 13.79
1/29/2021 3:00:00 AM -0.06 31.892 0.165 7.17 3.55 13.8
1/29/2021 3:15:00 AM -0.06 31.892 0.165 7.18 3.71 13.78
1/29/2021 3:30:00 AM -0.06 31.892 0.165 7.15 3.46 13.78
1/29/2021 3:45:00 AM -0.06 31.892 0.166 7.16 3.56 13.77
1/29/2021 4:00:00 AM -0.06 31.892 0.165 7.16 3.36 13.77
1/29/2021 4:15:00 AM -0.06 31.892 0.166 7.16 3.59 13.76
1/29/2021 4:30:00 AM -0.06 31.892 0.165 7.15 3.51 13.76
1/29/2021 4:45:00 AM -0.06 31.892 0.166 7.17 3.46 13.76
1/29/2021 5:00:00 AM -0.06 31.892 0.165 7.15 3.63 13.76
1/29/2021 5:15:00 AM -0.06 31.892 0.166 7.19 3.45 13.76
1/29/2021 5:30:00 AM -0.06 31.892 0.166 7.2 3.48 13.74
1/29/2021 5:45:00 AM -0.06 31.892 0.166 7.2 3.47 13.74
1/29/2021 6:00:00 AM -0.05 31.91 0.166 7.2 3.51 13.72
1/29/2021 6:15:00 AM -0.05 31.91 0.166 7.21 3.55 13.72
1/29/2021 6:30:00 AM -0.05 31.91 0.166 7.21 3.59 13.73
1/29/2021 6:45:00 AM -0.06 31.892 0.166 7.22 3.63 13.73
1/29/2021 7:00:00 AM -0.06 31.892 0.166 7.2 3.6 13.73
1/29/2021 7:15:00 AM -0.05 31.91 0.167 7.21 3.85 13.71
1/29/2021 7:30:00 AM -0.05 31.91 0.167 7.19 3.6 13.71
1/29/2021 7:45:00 AM -0.05 31.91 0.168 7.2 3.61 13.72
1/29/2021 8:00:00 AM -0.05 31.91 0.168 7.2 3.7 13.73
1/29/2021 8:15:00 AM -0.05 31.91 0.168 7.21 3.79 13.75
1/29/2021 8:30:00 AM -0.04 31.928 0.168 7.2 3.75 13.77
1/29/2021 8:45:00 AM -0.04 31.928 0.169 7.21 3.6 13.8
1/29/2021 9:00:00 AM -0.04 31.928 0.169 7.21 3.63 13.83
1/29/2021 9:15:00 AM -0.03 31.946 0.168 7.22 3.66 13.84
1/29/2021 9:30:00 AM -0.03 31.946 0.168 7.22 3.71 13.86
1/29/2021 9:45:00 AM -0.03 31.946 0.168 7.23 3.63 13.88
1/29/2021 10:00:00 AM -0.02 31.964 0.168 7.23 3.7 13.9
1/29/2021 10:15:00 AM -0.01 31.982 0.169 7.23 3.82 13.92
1/29/2021 10:30:00 AM -0.01 31.982 0.168 7.24 3.75 13.92
1/29/2021 10:45:00 AM -0.01 31.982 0.168 7.23 3.87 13.94
1/29/2021 11:00:00 AM 0 32 0.167 7.23 3.89 13.96
1/29/2021 11:15:00 AM 0.01 32.018 0.168 7.21 3.86 13.97
1/29/2021 11:30:00 AM 0.01 32.018 0.168 7.16 3.84 13.97
1/29/2021 11:45:00 AM 0.02 32.036 0.168 7.15 3.96 13.98
1/29/2021 12:00:00 PM 0.04 32.072 0.169 7.17 3.97 13.98
1/29/2021 12:15:00 PM 0.04 32.072 0.168 7.17 3.89 13.99
1/29/2021 12:30:00 PM 0.06 32.108 0.169 7.15 3.98 14
1/29/2021 12:45:00 PM 0.07 32.126 0.169 7.16 4 14.01
1/29/2021 1:00:00 PM 0.07 32.126 0.169 7.17 4.14 14.01
1/29/2021 1:15:00 PM 0.07 32.126 0.169 7.15 4.31 14.02
1/29/2021 1:30:00 PM 0.07 32.126 0.169 7.16 4.07 14.03
1/29/2021 1:45:00 PM 0.09 32.162 0.169 7.17 3.94 14.04
1/29/2021 2:00:00 PM 0.08 32.144 0.17 7.17 3.96 14.04
1/29/2021 2:15:00 PM 0.06 32.108 0.17 7.17 3.79 14.04
1/29/2021 2:30:00 PM 0.03 32.054 0.17 7.18 3.73 14.06
1/29/2021 2:45:00 PM 0.02 32.036 0.169 7.17 3.56 14.07
1/29/2021 3:00:00 PM 0.01 32.018 0.168 7.18 3.57 14.09
1/29/2021 3:15:00 PM 0.01 32.018 0.167 7.18 3.51 14.11
1/29/2021 3:30:00 PM 0 32 0.166 7.17 3.58 14.11
1/29/2021 3:45:00 PM -0.01 31.982 0.166 7.18 3.6 14.12
1/29/2021 4:00:00 PM -0.01 31.982 0.165 7.18 3.61 14.13
1/29/2021 4:15:00 PM -0.02 31.964 0.165 7.18 3.65 14.13
1/29/2021 4:30:00 PM -0.02 31.964 0.164 7.18 3.6 14.13
1/29/2021 4:45:00 PM -0.03 31.946 0.164 7.17 3.68 14.12
1/29/2021 5:00:00 PM -0.05 31.91 0.164 7.16 3.68 14.12
1/29/2021 5:15:00 PM -0.04 31.928 0.165 7.19 3.89 14.09
1/29/2021 5:30:00 PM -0.05 31.91 0.165 7.18 3.59 14.07
1/29/2021 5:45:00 PM -0.05 31.91 0.165 7.17 3.58 14.05
1/29/2021 6:00:00 PM -0.05 31.91 0.165 7.17 3.42 14.03
1/29/2021 6:15:00 PM -0.05 31.91 0.165 7.18 3.6 14.01
1/29/2021 6:30:00 PM -0.05 31.91 0.165 7.19 3.52 13.99
1/29/2021 6:45:00 PM -0.05 31.91 0.166 7.19 3.59 13.97
1/29/2021 7:00:00 PM -0.05 31.91 0.165 7.19 3.43 13.96
1/29/2021 7:15:00 PM -0.05 31.91 0.165 7.15 3.53 13.94
1/29/2021 7:30:00 PM -0.05 31.91 0.165 7.17 3.54 13.93
1/29/2021 7:45:00 PM -0.05 31.91 0.165 7.18 3.55 13.93
1/29/2021 8:00:00 PM -0.06 31.892 0.165 7.19 3.32 13.93
1/29/2021 8:15:00 PM -0.05 31.91 0.164 7.17 3.5 13.92
1/29/2021 8:30:00 PM -0.05 31.91 0.164 7.16 3.44 13.91
1/29/2021 8:45:00 PM -0.05 31.91 0.164 7.17 3.54 13.9
1/29/2021 9:00:00 PM -0.05 31.91 0.164 7.19 3.55 13.89
1/29/2021 9:15:00 PM -0.04 31.928 0.165 7.19 3.45 13.87
1/29/2021 9:30:00 PM -0.06 31.892 0.164 7.19 3.42 13.88
1/29/2021 9:45:00 PM -0.05 31.91 0.164 7.19 3.42 13.87
1/29/2021 10:00:00 PM -0.05 31.91 0.165 7.19 3.34 13.87
1/29/2021 10:15:00 PM -0.05 31.91 0.165 7.2 3.28 13.86
1/29/2021 10:30:00 PM -0.05 31.91 0.165 7.2 3.39 13.85
1/29/2021 10:45:00 PM -0.05 31.91 0.166 7.2 3.48 13.84
1/29/2021 11:00:00 PM -0.05 31.91 0.166 7.2 3.41 13.83
1/29/2021 11:15:00 PM -0.04 31.928 0.167 7.19 3.36 13.82
1/29/2021 11:30:00 PM -0.05 31.91 0.166 7.19 3.53 13.81
1/29/2021 11:45:00 PM -0.04 31.928 0.166 7.19 3.45 13.8
1/30/2021 12:00:00 AM -0.05 31.91 0.167 7.2 3.4 13.8
1/30/2021 12:15:00 AM -0.04 31.928 0.167 7.19 3.56 13.79
1/30/2021 12:30:00 AM -0.04 31.928 0.167 7.19 3.51 13.78
1/30/2021 12:45:00 AM -0.05 31.91 0.167 7.19 3.47 13.78
1/30/2021 1:00:00 AM -0.05 31.91 0.167 7.19 3.48 13.76
1/30/2021 1:15:00 AM -0.04 31.928 0.168 7.17 3.43 13.75
1/30/2021 1:30:00 AM -0.05 31.91 0.167 7.19 3.6 13.74
1/30/2021 1:45:00 AM -0.04 31.928 0.168 7.19 3.43 13.73
1/30/2021 2:00:00 AM -0.04 31.928 0.168 7.18 3.59 13.72
1/30/2021 2:15:00 AM -0.04 31.928 0.168 7.19 3.53 13.71
1/30/2021 2:30:00 AM -0.04 31.928 0.169 7.19 3.44 13.7
1/30/2021 2:45:00 AM -0.04 31.928 0.168 7.19 3.45 13.7
1/30/2021 3:00:00 AM -0.04 31.928 0.169 7.18 3.51 13.69
1/30/2021 3:15:00 AM -0.04 31.928 0.17 7.19 3.63 13.68
1/30/2021 3:30:00 AM -0.04 31.928 0.171 7.19 3.57 13.69
1/30/2021 3:45:00 AM -0.04 31.928 0.173 7.19 3.54 13.68
1/30/2021 4:00:00 AM -0.04 31.928 0.172 7.17 3.52 13.67
1/30/2021 4:15:00 AM -0.04 31.928 0.171 7.18 3.53 13.66
1/30/2021 4:30:00 AM -0.04 31.928 0.171 7.16 3.49 13.65
1/30/2021 4:45:00 AM -0.04 31.928 0.171 7.17 3.43 13.65
1/30/2021 5:00:00 AM -0.04 31.928 0.17 7.17 3.45 13.64
1/30/2021 5:15:00 AM -0.04 31.928 0.17 7.17 3.5 13.65
1/30/2021 5:30:00 AM -0.04 31.928 0.17 7.17 3.56 13.64
1/30/2021 5:45:00 AM -0.04 31.928 0.169 7.17 3.53 13.64
1/30/2021 6:00:00 AM -0.04 31.928 0.17 7.16 3.53 13.62
1/30/2021 6:15:00 AM -0.04 31.928 0.17 7.17 3.8 13.62
1/30/2021 6:30:00 AM -0.04 31.928 0.169 7.16 3.81 13.62
1/30/2021 6:45:00 AM -0.04 31.928 0.169 7.16 3.92 13.61
1/30/2021 7:00:00 AM -0.03 31.946 0.169 7.17 3.69 13.59
1/30/2021 7:15:00 AM -0.03 31.946 0.17 7.17 3.65 13.61
1/30/2021 7:30:00 AM -0.03 31.946 0.169 7.16 3.68 13.59
1/30/2021 7:45:00 AM -0.03 31.946 0.169 7.17 3.67 13.61
1/30/2021 8:00:00 AM -0.03 31.946 0.17 7.18 3.64 13.62
1/30/2021 8:15:00 AM -0.02 31.964 0.171 7.16 3.47 13.62
1/30/2021 8:30:00 AM -0.02 31.964 0.172 7.17 3.54 13.65
1/30/2021 8:45:00 AM -0.02 31.964 0.173 7.18 3.42 13.67
1/30/2021 9:00:00 AM -0.02 31.964 0.175 7.18 3.48 13.69
1/30/2021 9:15:00 AM -0.01 31.982 0.176 7.18 3.44 13.69
1/30/2021 9:30:00 AM -0.01 31.982 0.177 7.18 3.45 13.71
1/30/2021 9:45:00 AM 0 32 0.175 7.18 3.35 13.74
1/30/2021 10:00:00 AM 0 32 0.174 7.19 3.36 13.75
1/30/2021 10:15:00 AM 0 32 0.174 7.17 3.42 13.78
1/30/2021 10:30:00 AM 0.01 32.018 0.174 7.19 3.36 13.8
1/30/2021 10:45:00 AM 0.02 32.036 0.173 7.16 3.52 13.82
1/30/2021 11:00:00 AM 0.03 32.054 0.174 7.17 3.41 13.83
1/30/2021 11:15:00 AM 0.02 32.036 0.172 7.17 3.46 13.85
1/30/2021 11:30:00 AM 0.02 32.036 0.171 7.17 3.39 13.87
1/30/2021 11:45:00 AM 0.04 32.072 0.171 7.17 3.41 13.88
1/30/2021 12:00:00 PM 0.05 32.09 0.171 7.15 3.35 13.9
1/30/2021 12:15:00 PM 0.05 32.09 0.17 7.18 3.43 13.91
1/30/2021 12:30:00 PM 0.08 32.144 0.169 7.18 3.55 13.93
1/30/2021 12:45:00 PM 0.08 32.144 0.17 7.16 3.73 13.93
1/30/2021 1:00:00 PM 0.1 32.18 0.169 7.16 3.75 13.94
1/30/2021 1:15:00 PM 0.1 32.18 0.169 7.16 3.83 13.95
1/30/2021 1:30:00 PM 0.1 32.18 0.168 7.18 3.83 13.97
1/30/2021 1:45:00 PM 0.11 32.198 0.169 7.19 3.73 13.97
1/30/2021 2:00:00 PM 0.14 32.252 0.167 7.17 3.86 13.98
1/30/2021 2:15:00 PM 0.15 32.27 0.167 7.15 3.71 13.99
1/30/2021 2:30:00 PM 0.14 32.252 0.167 7.17 3.61 13.99
1/30/2021 2:45:00 PM 0.14 32.252 0.167 7.17 3.59 14
1/30/2021 3:00:00 PM 0.13 32.234 0.166 7.19 3.54 14.01
1/30/2021 3:15:00 PM 0.13 32.234 0.166 7.18 3.46 14
1/30/2021 3:30:00 PM 0.12 32.216 0.165 7.19 4.23 14
1/30/2021 3:45:00 PM 0.11 32.198 0.165 7.19 3.42 14.02
1/30/2021 4:00:00 PM 0.1 32.18 0.165 7.2 3.67 14.02
1/30/2021 4:15:00 PM 0.08 32.144 0.165 7.19 3.44 14.03
1/30/2021 4:30:00 PM 0.05 32.09 0.165 7.19 4.07 14.03
1/30/2021 4:45:00 PM 0.02 32.036 0.165 7.21 3.23 14.02
1/30/2021 5:00:00 PM 0 32 0.164 7.18 3.44 14.01
1/30/2021 5:15:00 PM -0.01 31.982 0.164 7.18 3.37 13.99
1/30/2021 5:30:00 PM -0.02 31.964 0.163 7.19 3.26 13.99
1/30/2021 5:45:00 PM -0.03 31.946 0.164 7.19 3.3 13.96
1/30/2021 6:00:00 PM -0.03 31.946 0.164 7.2 3.11 13.94
1/30/2021 6:15:00 PM -0.04 31.928 0.164 7.16 3.24 13.92
1/30/2021 6:30:00 PM -0.05 31.91 0.163 7.19 3.24 13.92
1/30/2021 6:45:00 PM -0.05 31.91 0.164 7.2 3.49 13.89
1/30/2021 7:00:00 PM -0.05 31.91 0.165 7.2 10.09 13.87
1/30/2021 7:15:00 PM -0.05 31.91 0.164 7.2 3.26 13.86
1/30/2021 7:30:00 PM -0.04 31.928 0.165 7.18 3.24 13.85
1/30/2021 7:45:00 PM -0.05 31.91 0.164 7.19 3.18 13.85
1/30/2021 8:00:00 PM -0.05 31.91 0.165 7.18 3.29 13.85
1/30/2021 8:15:00 PM -0.04 31.928 0.166 7.18 3.14 13.83
1/30/2021 8:30:00 PM -0.04 31.928 0.166 7.18 3.27 13.82
1/30/2021 8:45:00 PM -0.05 31.91 0.165 7.18 3.25 13.83
1/30/2021 9:00:00 PM -0.05 31.91 0.166 7.16 3.29 13.82
1/30/2021 9:15:00 PM -0.05 31.91 0.166 7.18 3.31 13.82
1/30/2021 9:30:00 PM -0.04 31.928 0.167 7.18 3.29 13.79
1/30/2021 9:45:00 PM -0.04 31.928 0.166 7.17 3.2 13.79
1/30/2021 10:00:00 PM -0.04 31.928 0.167 7.16 3.82 13.8
1/30/2021 10:15:00 PM -0.04 31.928 0.168 7.15 3.14 13.79
1/30/2021 10:30:00 PM -0.04 31.928 0.167 7.16 4.86 13.8
1/30/2021 10:45:00 PM -0.04 31.928 0.169 7.16 3.42 13.77
1/30/2021 11:00:00 PM -0.04 31.928 0.168 7.16 4.03 13.78
1/30/2021 11:15:00 PM -0.04 31.928 0.169 7.15 3.3 13.76
1/30/2021 11:30:00 PM -0.03 31.946 0.169 7.16 3.36 13.75
1/30/2021 11:45:00 PM -0.03 31.946 0.169 7.16 3.27 13.75
1/31/2021 12:00:00 AM -0.03 31.946 0.17 7.16 3.12 13.76
1/31/2021 12:15:00 AM -0.03 31.946 0.171 7.15 4.71 13.74
1/31/2021 12:30:00 AM -0.03 31.946 0.171 7.15 3.43 13.73
1/31/2021 12:45:00 AM -0.03 31.946 0.17 7.16 3.91 13.75
1/31/2021 1:00:00 AM -0.03 31.946 0.172 7.17 3.49 13.73
1/31/2021 1:15:00 AM -0.03 31.946 0.172 7.16 3.99 13.74
1/31/2021 1:30:00 AM -0.03 31.946 0.172 7.16 3.98 13.72
1/31/2021 1:45:00 AM -0.03 31.946 0.173 7.15 3.55 13.71
1/31/2021 2:00:00 AM -0.02 31.964 0.173 7.16 3.37 13.7
1/31/2021 2:15:00 AM -0.02 31.964 0.174 7.16 2.95 13.69
1/31/2021 2:30:00 AM -0.02 31.964 0.174 7.16 3.12 13.69
1/31/2021 2:45:00 AM -0.02 31.964 0.174 7.14 3.84 13.68
1/31/2021 3:00:00 AM -0.02 31.964 0.175 7.15 3.32 13.67
1/31/2021 3:15:00 AM -0.01 31.982 0.175 7.16 3.11 13.66
1/31/2021 3:30:00 AM -0.02 31.964 0.175 7.15 3.31 13.66
1/31/2021 3:45:00 AM -0.01 31.982 0.176 7.14 3.89 13.65
1/31/2021 4:00:00 AM -0.01 31.982 0.176 7.15 4.16 13.63
1/31/2021 4:15:00 AM -0.02 31.964 0.175 7.15 4.73 13.65
1/31/2021 4:30:00 AM -0.01 31.982 0.176 7.15 4.31 13.62
1/31/2021 4:45:00 AM -0.02 31.964 0.176 7.14 3.92 13.64
1/31/2021 5:00:00 AM -0.01 31.982 0.176 7.14 4.44 13.61
1/31/2021 5:15:00 AM -0.01 31.982 0.176 7.14 3.59 13.61
1/31/2021 5:30:00 AM -0.01 31.982 0.176 7.14 4.73 13.6
1/31/2021 5:45:00 AM -0.01 31.982 0.176 7.13 3.46 13.61
1/31/2021 6:00:00 AM -0.01 31.982 0.176 7.11 4.39 13.59
1/31/2021 6:15:00 AM -0.01 31.982 0.176 7.12 5.01 13.59
1/31/2021 6:30:00 AM -0.01 31.982 0.176 7.12 4.19 13.58
1/31/2021 6:45:00 AM -0.01 31.982 0.176 7.11 6.52 13.58
1/31/2021 7:00:00 AM -0.01 31.982 0.176 7.12 3.59 13.57
1/31/2021 7:15:00 AM -0.01 31.982 0.176 7.13 6.88 13.57
1/31/2021 7:30:00 AM 0 32 0.176 7.12 7.25 13.57
1/31/2021 7:45:00 AM -0.01 31.982 0.176 7.12 4.02 13.58
1/31/2021 8:00:00 AM -0.01 31.982 0.175 7.13 3.66 13.57
1/31/2021 8:15:00 AM 0 32 0.176 7.12 3.92 13.58
1/31/2021 8:30:00 AM 0 32 0.176 7.12 9.03 13.6
1/31/2021 8:45:00 AM 0 32 0.175 7.13 3.78 13.64
1/31/2021 9:00:00 AM 0.01 32.018 0.174 7.14 4.72 13.64
1/31/2021 9:15:00 AM 0.01 32.018 0.175 7.14 4.14 13.68
1/31/2021 9:30:00 AM 0.02 32.036 0.175 7.13 4.05 13.71
1/31/2021 9:45:00 AM 0.02 32.036 0.175 7.13 3.48 13.72
1/31/2021 10:00:00 AM 0.03 32.054 0.175 7.12 4.4 13.73
1/31/2021 10:15:00 AM 0.02 32.036 0.174 7.14 6.3 13.77
1/31/2021 10:30:00 AM 0.02 32.036 0.174 7.14 5.98 13.78
1/31/2021 10:45:00 AM 0.02 32.036 0.174 7.14 4.51 13.81
1/31/2021 11:00:00 AM 0.04 32.072 0.174 7.12 3.71 13.8
1/31/2021 11:15:00 AM 0.04 32.072 0.174 7.15 11.4 13.83
1/31/2021 11:30:00 AM 0.04 32.072 0.174 7.12 6.64 13.85
1/31/2021 11:45:00 AM 0.06 32.108 0.174 7.15 5.89 13.86
1/31/2021 12:00:00 PM 0.05 32.09 0.172 7.21 3.16 13.87
1/31/2021 12:15:00 PM 0.08 32.144 0.173 7.2 3.44 13.86
1/31/2021 12:30:00 PM 0.09 32.162 0.173 7.21 2.72 13.85
1/31/2021 12:45:00 PM 0.11 32.198 0.175 7.21 3.04 13.84
1/31/2021 1:00:00 PM 0.1 32.18 0.174 7.21 3.06 13.85
1/31/2021 1:15:00 PM 0.06 32.108 0.173 7.21 3.29 13.94
1/31/2021 1:30:00 PM 0.07 32.126 0.172 7.24 3.07 13.95
1/31/2021 1:45:00 PM 0.08 32.144 0.172 7.24 3.44 13.97
1/31/2021 2:00:00 PM 0.09 32.162 0.172 7.23 3.31 13.97
1/31/2021 2:15:00 PM 0.09 32.162 0.171 7.24 3.02 13.98
1/31/2021 2:30:00 PM 0.08 32.144 0.171 7.24 3.31 14
1/31/2021 2:45:00 PM 0.08 32.144 0.17 7.25 3.14 14.01
1/31/2021 3:00:00 PM 0.08 32.144 0.17 7.25 3.32 14.02
1/31/2021 3:15:00 PM 0.07 32.126 0.169 7.25 3.03 14.02
1/31/2021 3:30:00 PM 0.08 32.144 0.17 7.24 3.57 14.01
1/31/2021 3:45:00 PM 0.07 32.126 0.169 7.25 3.19 14.01
1/31/2021 4:00:00 PM 0.07 32.126 0.169 7.25 3.03 14.01
1/31/2021 4:15:00 PM 0.05 32.09 0.169 7.25 3.11 14.02
1/31/2021 4:30:00 PM 0.04 32.072 0.168 7.26 3.87 14.01
1/31/2021 4:45:00 PM 0.04 32.072 0.168 7.25 3.95 13.99
1/31/2021 5:00:00 PM 0.03 32.054 0.168 7.25 3.09 13.97
1/31/2021 5:15:00 PM 0.03 32.054 0.168 7.25 3.64 13.95
1/31/2021 5:30:00 PM 0.03 32.054 0.168 7.25 3.38 13.92
1/31/2021 5:45:00 PM 0.02 32.036 0.168 7.25 3.35 13.89
1/31/2021 6:00:00 PM 0.02 32.036 0.168 7.23 3.08 13.85
1/31/2021 6:15:00 PM 0.02 32.036 0.168 7.24 3.51 13.82
1/31/2021 6:30:00 PM 0.02 32.036 0.168 7.22 3.15 13.79
1/31/2021 6:45:00 PM 0.02 32.036 0.168 7.23 3.4 13.77
1/31/2021 7:00:00 PM 0.01 32.018 0.167 7.24 3.8 13.78
1/31/2021 7:15:00 PM 0.02 32.036 0.168 7.23 3.15 13.75
1/31/2021 7:30:00 PM 0.01 32.018 0.167 7.24 3.16 13.74
1/31/2021 7:45:00 PM 0.01 32.018 0.167 7.21 3.55 13.72
1/31/2021 8:00:00 PM 0 32 0.168 7.23 3.48 13.71
1/31/2021 8:15:00 PM 0.01 32.018 0.167 7.23 3.41 13.69
1/31/2021 8:30:00 PM 0.01 32.018 0.168 7.22 3.15 13.68
1/31/2021 8:45:00 PM 0.01 32.018 0.168 7.23 3.49 13.67
1/31/2021 9:00:00 PM 0.01 32.018 0.169 7.23 3.51 13.65
1/31/2021 9:15:00 PM 0.01 32.018 0.171 7.22 3.58 13.64
1/31/2021 9:30:00 PM 0.01 32.018 0.171 7.22 3.22 13.62
1/31/2021 9:45:00 PM 0.01 32.018 0.171 7.22 3.09 13.62
1/31/2021 10:00:00 PM 0.01 32.018 0.171 7.22 3.02 13.6
1/31/2021 10:15:00 PM 0.01 32.018 0.17 7.21 3.53 13.59
1/31/2021 10:30:00 PM 0.01 32.018 0.169 7.22 4.06 13.58
1/31/2021 10:45:00 PM 0 32 0.169 7.22 3.14 13.57
1/31/2021 11:00:00 PM 0 32 0.169 7.22 3.22 13.57
1/31/2021 11:15:00 PM 0.01 32.018 0.169 7.21 3.25 13.53
1/31/2021 11:30:00 PM 0 32 0.169 7.21 3.2 13.53
1/31/2021 11:45:00 PM 0 32 0.169 7.21 3.29 13.53
2/1/2021 12:00:00 AM 0.01 32.018 0.169 7.21 3.02 13.52
2/1/2021 12:15:00 AM 0 32 0.168 7.22 2.97 13.53
2/1/2021 12:30:00 AM 0 32 0.168 7.21 3 13.51
2/1/2021 12:45:00 AM 0 32 0.169 7.21 3.16 13.51
2/1/2021 1:00:00 AM 0 32 0.169 7.21 3.45 13.51
2/1/2021 1:15:00 AM 0 32 0.169 7.2 3.43 13.49
2/1/2021 1:30:00 AM 0 32 0.17 7.21 3.11 13.48
2/1/2021 1:45:00 AM 0 32 0.17 7.21 3.35 13.47
2/1/2021 2:00:00 AM -0.01 31.982 0.17 7.21 2.98 13.48
2/1/2021 2:15:00 AM -0.01 31.982 0.17 7.21 3.44 13.46
2/1/2021 2:30:00 AM 0.01 32.018 0.171 7.2 3.47 13.44
2/1/2021 2:45:00 AM 0.02 32.036 0.171 7.2 3.44 13.42
2/1/2021 3:00:00 AM 0.03 32.054 0.17 7.2 3.03 13.4
2/1/2021 3:15:00 AM 0.01 32.018 0.171 7.2 3.57 13.42
2/1/2021 3:30:00 AM 0.05 32.09 0.171 7.2 3.05 13.37
2/1/2021 3:45:00 AM 0.02 32.036 0.171 7.2 3.08 13.39
2/1/2021 4:00:00 AM 0.04 32.072 0.17 7.19 2.91 13.37
2/1/2021 4:15:00 AM 0.04 32.072 0.17 7.18 3.04 13.37
2/1/2021 4:30:00 AM 0.01 32.018 0.17 7.19 2.97 13.37
2/1/2021 4:45:00 AM -0.01 31.982 0.17 7.2 3.26 13.41
2/1/2021 5:00:00 AM 0.02 32.036 0.169 7.2 3.01 13.4
2/1/2021 5:15:00 AM 0.04 32.072 0.17 7.19 3.11 13.36
2/1/2021 5:30:00 AM 0.01 32.018 0.17 7.2 3.35 13.39
2/1/2021 5:45:00 AM 0.02 32.036 0.17 7.2 3.48 13.38
2/1/2021 6:00:00 AM 0.04 32.072 0.171 7.19 3.08 13.35
2/1/2021 6:15:00 AM 0.04 32.072 0.17 7.19 3.56 13.35
2/1/2021 6:30:00 AM 0.03 32.054 0.17 7.19 3.78 13.35
2/1/2021 6:45:00 AM 0.02 32.036 0.17 7.19 3.31 13.39
2/1/2021 7:00:00 AM 0.02 32.036 0.169 7.19 2.97 13.36
2/1/2021 7:15:00 AM 0.05 32.09 0.169 7.19 2.99 13.34
2/1/2021 7:30:00 AM 0.06 32.108 0.169 7.18 3.32 13.31
2/1/2021 7:45:00 AM 0.03 32.054 0.169 7.19 2.92 13.37
2/1/2021 8:00:00 AM 0.03 32.054 0.17 7.19 3.1 13.37
2/1/2021 8:15:00 AM 0.03 32.054 0.169 7.19 2.92 13.39
2/1/2021 8:30:00 AM 0.03 32.054 0.169 7.2 3.51 13.42
2/1/2021 8:45:00 AM 0.03 32.054 0.169 7.2 2.89 13.47
2/1/2021 9:00:00 AM 0.05 32.09 0.169 7.19 3.16 13.4
2/1/2021 9:15:00 AM 0.09 32.162 0.168 7.18 3.02 13.33
2/1/2021 9:30:00 AM 0.08 32.144 0.168 7.19 3.24 13.38
2/1/2021 9:45:00 AM 0.09 32.162 0.168 7.19 3.42 13.41
2/1/2021 10:00:00 AM 0.09 32.162 0.168 7.2 3 13.47
2/1/2021 10:15:00 AM 0.08 32.144 0.168 7.22 3.05 13.62
2/1/2021 10:30:00 AM 0.1 32.18 0.168 7.24 2.96 13.65
2/1/2021 10:45:00 AM 0.13 32.234 0.168 7.24 3.18 13.66
2/1/2021 11:00:00 AM 0.14 32.252 0.168 7.24 3.43 13.69
2/1/2021 11:15:00 AM 0.16 32.288 0.168 7.23 3.08 13.7
2/1/2021 11:30:00 AM 0.17 32.306 0.168 7.25 3.26 13.72
2/1/2021 11:45:00 AM 0.17 32.306 0.168 7.25 3.05 13.72
2/1/2021 12:00:00 PM 0.16 32.288 0.168 7.24 3.07 13.73
2/1/2021 12:15:00 PM 0.15 32.27 0.167 7.23 3.18 13.74
2/1/2021 12:30:00 PM 0.16 32.288 0.167 7.22 3.05 13.74
2/1/2021 12:45:00 PM 0.14 32.252 0.167 7.22 3.47 13.77
2/1/2021 1:00:00 PM 0.14 32.252 0.167 7.21 6.3 13.78
2/1/2021 1:15:00 PM 0.13 32.234 0.167 7.22 13.46 13.79
2/1/2021 1:30:00 PM 0.12 32.216 0.166 7.23 3.83 13.81
2/1/2021 1:45:00 PM 0.13 32.234 0.167 7.24 3.13 13.8
2/1/2021 2:00:00 PM 0.12 32.216 0.167 7.24 3.17 13.8
2/1/2021 2:15:00 PM 0.11 32.198 0.166 7.25 3.52 13.82
2/1/2021 2:30:00 PM 0.09 32.162 0.167 7.26 3.03 13.83
2/1/2021 2:45:00 PM 0.09 32.162 0.167 7.27 3.19 13.83
2/1/2021 3:00:00 PM 0.08 32.144 0.166 7.28 3.02 13.85
2/1/2021 3:15:00 PM 0.08 32.144 0.166 7.29 3.56 13.85
2/1/2021 3:30:00 PM 0.07 32.126 0.166 7.27 3.83 13.84
2/1/2021 3:45:00 PM 0.08 32.144 0.166 7.26 3.57 13.83
2/1/2021 4:00:00 PM 0.07 32.126 0.167 7.26 3.38 13.81
2/1/2021 4:15:00 PM 0.05 32.09 0.166 7.25 3.77 13.81
2/1/2021 4:30:00 PM 0.04 32.072 0.166 7.25 3.17 13.8
2/1/2021 4:45:00 PM 0.02 32.036 0.166 7.25 2.98 13.79
2/1/2021 5:00:00 PM 0.02 32.036 0.165 7.24 2.94 13.76
2/1/2021 5:15:00 PM 0.01 32.018 0.164 7.24 3.08 13.76
2/1/2021 5:30:00 PM 0.01 32.018 0.165 7.24 2.88 13.72
2/1/2021 5:45:00 PM 0.01 32.018 0.165 7.23 3.42 13.72
2/1/2021 6:00:00 PM 0.01 32.018 0.165 7.22 7.96 13.69
2/1/2021 6:15:00 PM 0 32 0.164 7.21 3.05 13.7
2/1/2021 6:30:00 PM 0 32 0.164 7.22 3.01 13.67
2/1/2021 6:45:00 PM -0.01 31.982 0.164 7.22 3.48 13.66
2/1/2021 7:00:00 PM -0.01 31.982 0.164 7.22 3.02 13.65
2/1/2021 7:15:00 PM -0.01 31.982 0.165 7.21 3.01 13.61
2/1/2021 7:30:00 PM -0.02 31.964 0.164 7.22 3 13.64
2/1/2021 7:45:00 PM -0.02 31.964 0.164 7.2 3.01 13.62
2/1/2021 8:00:00 PM -0.02 31.964 0.165 7.2 2.97 13.61
2/1/2021 8:15:00 PM -0.02 31.964 0.165 7.2 3.08 13.6
2/1/2021 8:30:00 PM -0.02 31.964 0.165 7.2 3.14 13.59
2/1/2021 8:45:00 PM -0.01 31.982 0.166 7.2 3.06 13.57
2/1/2021 9:00:00 PM -0.02 31.964 0.165 7.2 2.99 13.57
2/1/2021 9:15:00 PM -0.02 31.964 0.165 7.21 3.1 13.56
2/1/2021 9:30:00 PM -0.02 31.964 0.165 7.21 3.06 13.56
2/1/2021 9:45:00 PM -0.02 31.964 0.165 7.21 3.15 13.55
2/1/2021 10:00:00 PM -0.02 31.964 0.165 7.21 3.71 13.52
2/1/2021 10:15:00 PM -0.02 31.964 0.165 7.21 3.11 13.54
2/1/2021 10:30:00 PM -0.03 31.946 0.165 7.22 3.15 13.54
2/1/2021 10:45:00 PM -0.02 31.964 0.166 7.22 3.29 13.52
2/1/2021 11:00:00 PM -0.03 31.946 0.165 7.2 3.2 13.53
2/1/2021 11:15:00 PM -0.03 31.946 0.166 7.2 3.21 13.52
2/1/2021 11:30:00 PM -0.02 31.964 0.166 7.19 3.26 13.51
2/1/2021 11:45:00 PM -0.03 31.946 0.165 7.19 3.26 13.51
2/2/2021 12:00:00 AM -0.03 31.946 0.165 7.2 3.23 13.52
2/2/2021 12:15:00 AM -0.03 31.946 0.166 7.2 3.21 13.51
2/2/2021 12:30:00 AM -0.03 31.946 0.166 7.2 3.29 13.49
2/2/2021 12:45:00 AM -0.03 31.946 0.166 7.2 3.97 13.48
2/2/2021 1:00:00 AM -0.03 31.946 0.166 7.19 3.22 13.48
2/2/2021 1:15:00 AM -0.02 31.964 0.167 7.18 3.26 13.47
2/2/2021 1:30:00 AM -0.03 31.946 0.167 7.17 3.23 13.47
2/2/2021 1:45:00 AM -0.03 31.946 0.167 7.17 3.21 13.46
2/2/2021 2:00:00 AM -0.03 31.946 0.168 7.17 3.44 13.46
2/2/2021 2:15:00 AM -0.03 31.946 0.168 7.18 3.18 13.45
2/2/2021 2:30:00 AM -0.03 31.946 0.169 7.17 3.22 13.44
2/2/2021 2:45:00 AM -0.03 31.946 0.168 7.17 3.14 13.43
2/2/2021 3:00:00 AM -0.03 31.946 0.169 7.19 3.24 13.43
2/2/2021 3:15:00 AM -0.02 31.964 0.169 7.18 3.12 13.43
2/2/2021 3:30:00 AM -0.02 31.964 0.169 7.16 3.13 13.43
2/2/2021 3:45:00 AM -0.02 31.964 0.169 7.16 3.21 13.43
2/2/2021 4:00:00 AM -0.01 31.982 0.168 7.17 3.23 13.41
2/2/2021 4:15:00 AM -0.01 31.982 0.168 7.17 3.34 13.41
2/2/2021 4:30:00 AM -0.01 31.982 0.168 7.15 3.16 13.41
2/2/2021 4:45:00 AM -0.02 31.964 0.168 7.17 3.17 13.42
2/2/2021 5:00:00 AM -0.01 31.982 0.169 7.17 3.19 13.39
2/2/2021 5:15:00 AM -0.01 31.982 0.169 7.18 3.29 13.4
2/2/2021 5:30:00 AM -0.01 31.982 0.17 7.18 3.14 13.4
2/2/2021 5:45:00 AM -0.01 31.982 0.171 7.18 3.03 13.38
2/2/2021 6:00:00 AM -0.01 31.982 0.169 7.18 3.18 13.39
2/2/2021 6:15:00 AM -0.01 31.982 0.17 7.18 3.15 13.39
2/2/2021 6:30:00 AM 0 32 0.169 7.17 3.16 13.37
2/2/2021 6:45:00 AM -0.01 31.982 0.17 7.17 3.11 13.37
2/2/2021 7:00:00 AM -0.02 31.964 0.169 7.18 3.11 13.38
2/2/2021 7:15:00 AM -0.02 31.964 0.168 7.18 3.14 13.39
2/2/2021 7:30:00 AM -0.02 31.964 0.169 7.18 3.18 13.38
2/2/2021 7:45:00 AM -0.02 31.964 0.168 7.18 3.15 13.38
2/2/2021 8:00:00 AM -0.02 31.964 0.169 7.19 3.15 13.37
2/2/2021 8:15:00 AM -0.02 31.964 0.167 7.2 3.02 13.41
2/2/2021 8:30:00 AM -0.02 31.964 0.167 7.19 3.2 13.42
2/2/2021 8:45:00 AM -0.01 31.982 0.167 7.21 3.11 13.44
2/2/2021 9:00:00 AM -0.01 31.982 0.166 7.19 3.02 13.46
2/2/2021 9:15:00 AM -0.01 31.982 0.166 7.21 3.09 13.49
2/2/2021 9:30:00 AM 0 32 0.165 7.21 3.08 13.53
2/2/2021 9:45:00 AM 0 32 0.166 7.21 3.12 13.55
2/2/2021 10:00:00 AM 0.01 32.018 0.165 7.2 3.02 13.57
2/2/2021 10:15:00 AM 0.03 32.054 0.165 7.21 3.19 13.6
2/2/2021 10:30:00 AM 0.05 32.09 0.165 7.22 3.07 13.61
2/2/2021 10:45:00 AM 0.04 32.072 0.165 7.22 3.09 13.65
2/2/2021 11:00:00 AM 0.06 32.108 0.165 7.22 3.15 13.65
2/2/2021 11:15:00 AM 0.07 32.126 0.164 7.23 3.08 13.68
2/2/2021 11:30:00 AM 0.08 32.144 0.165 7.23 3.09 13.68
2/2/2021 11:45:00 AM 0.1 32.18 0.164 7.24 3.14 13.7
2/2/2021 12:00:00 PM 0.11 32.198 0.165 7.23 3.11 13.7
2/2/2021 12:15:00 PM 0.11 32.198 0.165 7.24 2.99 13.71
2/2/2021 12:30:00 PM 0.11 32.198 0.165 7.25 2.92 13.72
2/2/2021 12:45:00 PM 0.1 32.18 0.165 7.26 2.98 13.74
2/2/2021 1:00:00 PM 0.1 32.18 0.165 7.24 2.91 13.74
2/2/2021 1:15:00 PM 0.09 32.162 0.164 7.24 2.93 13.76
2/2/2021 1:30:00 PM 0.1 32.18 0.164 7.25 2.91 13.77
2/2/2021 1:45:00 PM 0.11 32.198 0.165 7.24 2.96 13.78
2/2/2021 2:00:00 PM 0.11 32.198 0.165 7.26 2.86 13.79
2/2/2021 2:15:00 PM 0.12 32.216 0.165 7.26 2.98 13.8
2/2/2021 2:30:00 PM 0.12 32.216 0.165 7.26 3.03 13.8
2/2/2021 2:45:00 PM 0.11 32.198 0.166 7.27 2.89 13.8
2/2/2021 3:00:00 PM 0.1 32.18 0.165 7.27 2.85 13.81
2/2/2021 3:15:00 PM 0.09 32.162 0.166 7.25 2.83 13.81
2/2/2021 3:30:00 PM 0.09 32.162 0.166 7.27 2.88 13.8
2/2/2021 3:45:00 PM 0.07 32.126 0.166 7.25 2.82 13.81
2/2/2021 4:00:00 PM 0.06 32.108 0.166 7.26 2.94 13.8
2/2/2021 4:15:00 PM 0.05 32.09 0.166 7.25 3.06 13.79
2/2/2021 4:30:00 PM 0.04 32.072 0.165 7.25 2.92 13.76
2/2/2021 4:45:00 PM 0.02 32.036 0.166 7.25 2.88 13.75
2/2/2021 5:00:00 PM 0.02 32.036 0.167 7.24 2.85 13.73
2/2/2021 5:15:00 PM 0.01 32.018 0.165 7.25 2.79 13.71
2/2/2021 5:30:00 PM 0.01 32.018 0.165 7.24 2.87 13.69
2/2/2021 5:45:00 PM 0 32 0.165 7.25 2.83 13.67
2/2/2021 6:00:00 PM 0 32 0.166 7.24 2.86 13.65
2/2/2021 6:15:00 PM -0.01 31.982 0.165 7.24 2.85 13.64
2/2/2021 6:30:00 PM -0.01 31.982 0.165 7.23 2.84 13.62
2/2/2021 6:45:00 PM -0.01 31.982 0.165 7.23 2.87 13.61
2/2/2021 7:00:00 PM -0.01 31.982 0.164 7.24 2.85 13.6
2/2/2021 7:15:00 PM -0.01 31.982 0.165 7.23 2.89 13.59
2/2/2021 7:30:00 PM -0.01 31.982 0.165 7.22 2.93 13.58
2/2/2021 7:45:00 PM -0.01 31.982 0.165 7.24 2.99 13.57
2/2/2021 8:00:00 PM -0.01 31.982 0.165 7.23 2.89 13.56
2/2/2021 8:15:00 PM -0.02 31.964 0.165 7.23 2.99 13.55
2/2/2021 8:30:00 PM -0.02 31.964 0.165 7.22 3.17 13.55
2/2/2021 8:45:00 PM -0.02 31.964 0.165 7.21 2.96 13.54
2/2/2021 9:00:00 PM -0.02 31.964 0.165 7.21 3 13.54
2/2/2021 9:15:00 PM -0.02 31.964 0.165 7.21 3.05 13.52
2/2/2021 9:30:00 PM -0.02 31.964 0.165 7.21 3.11 13.52
2/2/2021 9:45:00 PM -0.02 31.964 0.164 7.21 3.07 13.51
2/2/2021 10:00:00 PM -0.02 31.964 0.165 7.2 3.09 13.5
2/2/2021 10:15:00 PM -0.02 31.964 0.165 7.21 3.12 13.49
2/2/2021 10:30:00 PM -0.03 31.946 0.165 7.21 3.08 13.49
2/2/2021 10:45:00 PM -0.03 31.946 0.165 7.2 3.03 13.48
2/2/2021 11:00:00 PM -0.02 31.964 0.165 7.2 3.1 13.47
2/2/2021 11:15:00 PM -0.02 31.964 0.165 7.21 3.08 13.47
2/2/2021 11:30:00 PM -0.03 31.946 0.165 7.19 3.08 13.46
2/2/2021 11:45:00 PM -0.03 31.946 0.166 7.19 3.06 13.45
2/3/2021 12:00:00 AM -0.02 31.964 0.167 7.19 3.15 13.45
2/3/2021 12:15:00 AM -0.03 31.946 0.167 7.19 3.13 13.45
2/3/2021 12:30:00 AM -0.03 31.946 0.166 7.19 3.04 13.44
2/3/2021 12:45:00 AM -0.03 31.946 0.166 7.19 3.11 13.44
2/3/2021 1:00:00 AM -0.03 31.946 0.165 7.18 3.16 13.43
2/3/2021 1:15:00 AM -0.03 31.946 0.165 7.18 3.31 13.43
2/3/2021 1:30:00 AM -0.03 31.946 0.166 7.19 3.11 13.42
2/3/2021 1:45:00 AM -0.03 31.946 0.165 7.18 3.13 13.42
2/3/2021 2:00:00 AM -0.03 31.946 0.166 7.18 3.16 13.42
2/3/2021 2:15:00 AM -0.03 31.946 0.165 7.19 3.14 13.42
2/3/2021 2:30:00 AM -0.02 31.964 0.165 7.19 3.24 13.42
2/3/2021 2:45:00 AM -0.02 31.964 0.165 7.18 3.19 13.42
2/3/2021 3:00:00 AM -0.02 31.964 0.165 7.19 3.21 13.42
2/3/2021 3:15:00 AM -0.02 31.964 0.165 7.19 3.19 13.42
2/3/2021 3:30:00 AM -0.02 31.964 0.165 7.19 3.32 13.41
2/3/2021 3:45:00 AM -0.02 31.964 0.164 7.18 3.33 13.41
2/3/2021 4:00:00 AM -0.01 31.982 0.165 7.19 3.31 13.4
2/3/2021 4:15:00 AM -0.02 31.964 0.165 7.19 3.28 13.41
2/3/2021 4:30:00 AM -0.01 31.982 0.165 7.19 3.3 13.4
2/3/2021 4:45:00 AM -0.01 31.982 0.165 7.19 3.49 13.41
2/3/2021 5:00:00 AM -0.01 31.982 0.165 7.19 3.22 13.4
2/3/2021 5:15:00 AM -0.01 31.982 0.164 7.17 3.42 13.4
2/3/2021 5:30:00 AM -0.01 31.982 0.164 7.18 3.36 13.4
2/3/2021 5:45:00 AM -0.02 31.964 0.164 7.18 3.38 13.4
2/3/2021 6:00:00 AM -0.02 31.964 0.164 7.19 3.43 13.4
2/3/2021 6:15:00 AM -0.02 31.964 0.164 7.18 3.36 13.4
2/3/2021 6:30:00 AM -0.02 31.964 0.164 7.19 3.41 13.41
2/3/2021 6:45:00 AM -0.02 31.964 0.164 7.18 3.28 13.41
2/3/2021 7:00:00 AM -0.02 31.964 0.165 7.18 3.38 13.4
2/3/2021 7:15:00 AM -0.02 31.964 0.165 7.18 3.33 13.4
2/3/2021 7:30:00 AM -0.02 31.964 0.165 7.18 3.32 13.41
2/3/2021 7:45:00 AM -0.01 31.982 0.165 7.18 3.36 13.42
2/3/2021 8:00:00 AM -0.01 31.982 0.165 7.18 3.27 13.45
2/3/2021 8:15:00 AM 0 32 0.165 7.2 3.25 13.47
2/3/2021 8:30:00 AM 0 32 0.165 7.21 3.27 13.5
2/3/2021 8:45:00 AM 0.01 32.018 0.165 7.22 3.21 13.52
2/3/2021 9:00:00 AM 0.02 32.036 0.165 7.22 3.16 13.55
2/3/2021 9:15:00 AM 0.04 32.072 0.166 7.23 3.23 13.57
2/3/2021 9:30:00 AM 0.05 32.09 0.166 7.24 3.19 13.6
2/3/2021 9:45:00 AM 0.06 32.108 0.165 7.24 3.25 13.63
2/3/2021 10:00:00 AM 0.08 32.144 0.165 7.22 3.16 13.65
2/3/2021 10:15:00 AM 0.09 32.162 0.164 7.24 3.17 13.68
2/3/2021 10:30:00 AM 0.1 32.18 0.164 7.25 3.2 13.69
2/3/2021 10:45:00 AM 0.11 32.198 0.165 7.23 3.16 13.7
2/3/2021 11:00:00 AM 0.11 32.198 0.165 7.25 3.18 13.72
2/3/2021 11:15:00 AM 0.11 32.198 0.165 7.26 3.2 13.73
2/3/2021 11:30:00 AM 0.12 32.216 0.164 7.27 3.11 13.75
2/3/2021 11:45:00 AM 0.12 32.216 0.165 7.26 3.08 13.76
2/3/2021 12:00:00 PM 0.13 32.234 0.164 7.26 3.13 13.78
2/3/2021 12:15:00 PM 0.15 32.27 0.164 7.25 3.08 13.79
2/3/2021 12:30:00 PM 0.15 32.27 0.163 7.28 3.09 13.8
2/3/2021 12:45:00 PM 0.15 32.27 0.163 7.28 3.07 13.81
2/3/2021 1:00:00 PM 0.16 32.288 0.163 7.27 3.01 13.83
2/3/2021 1:15:00 PM 0.16 32.288 0.163 7.27 3.03 13.84
2/3/2021 1:30:00 PM 0.15 32.27 0.164 7.27 2.99 13.85
2/3/2021 1:45:00 PM 0.14 32.252 0.164 7.3 3 13.85
2/3/2021 2:00:00 PM 0.13 32.234 0.163 7.28 2.93 13.87
2/3/2021 2:15:00 PM 0.12 32.216 0.163 7.29 2.93 13.87
2/3/2021 2:30:00 PM 0.11 32.198 0.163 7.29 2.94 13.88
2/3/2021 2:45:00 PM 0.09 32.162 0.162 7.3 2.89 13.88
2/3/2021 3:00:00 PM 0.07 32.126 0.163 7.3 2.94 13.88
2/3/2021 3:15:00 PM 0.06 32.108 0.163 7.29 2.91 13.87
2/3/2021 3:30:00 PM 0.05 32.09 0.162 7.27 2.97 13.87
2/3/2021 3:45:00 PM 0.05 32.09 0.163 7.28 2.92 13.87
2/3/2021 4:00:00 PM 0.04 32.072 0.162 7.28 2.87 13.88
2/3/2021 4:15:00 PM 0.03 32.054 0.164 7.28 2.96 13.86
2/3/2021 4:30:00 PM 0.03 32.054 0.162 7.29 2.9 13.86
2/3/2021 4:45:00 PM 0.02 32.036 0.162 7.31 2.92 13.85
2/3/2021 5:00:00 PM 0.02 32.036 0.162 7.29 2.9 13.83
2/3/2021 5:15:00 PM 0.01 32.018 0.163 7.31 2.93 13.81
2/3/2021 5:30:00 PM 0.01 32.018 0.163 7.28 2.98 13.8
2/3/2021 5:45:00 PM 0.01 32.018 0.163 7.27 2.96 13.78
2/3/2021 6:00:00 PM 0.01 32.018 0.162 7.27 2.93 13.76
2/3/2021 6:15:00 PM 0.01 32.018 0.163 7.29 3.03 13.74
2/3/2021 6:30:00 PM 0.01 32.018 0.163 7.3 2.94 13.72
2/3/2021 6:45:00 PM 0.01 32.018 0.163 7.3 2.91 13.7
2/3/2021 7:00:00 PM 0.01 32.018 0.163 7.3 2.94 13.69
2/3/2021 7:15:00 PM 0 32 0.163 7.28 2.94 13.69
2/3/2021 7:30:00 PM 0 32 0.164 7.25 2.92 13.67
2/3/2021 7:45:00 PM 0 32 0.163 7.24 2.89 13.66
2/3/2021 8:00:00 PM 0 32 0.164 7.24 2.95 13.65
2/3/2021 8:15:00 PM 0 32 0.164 7.24 2.9 13.65
2/3/2021 8:30:00 PM 0 32 0.164 7.24 2.9 13.64
2/3/2021 8:45:00 PM -0.01 31.982 0.164 7.24 2.9 13.64
2/3/2021 9:00:00 PM -0.01 31.982 0.164 7.24 2.93 13.63
2/3/2021 9:15:00 PM -0.01 31.982 0.164 7.25 2.98 13.63
2/3/2021 9:30:00 PM -0.01 31.982 0.164 7.24 2.93 13.61
2/3/2021 9:45:00 PM -0.02 31.964 0.165 7.26 3.03 13.61
2/3/2021 10:00:00 PM -0.02 31.964 0.165 7.24 2.92 13.6
2/3/2021 10:15:00 PM -0.03 31.946 0.164 7.24 2.98 13.6
2/3/2021 10:30:00 PM -0.03 31.946 0.165 7.25 3.02 13.6
2/3/2021 10:45:00 PM -0.03 31.946 0.165 7.25 2.97 13.59
2/3/2021 11:00:00 PM -0.02 31.964 0.165 7.24 2.98 13.59
2/3/2021 11:15:00 PM -0.03 31.946 0.165 7.23 3.07 13.58
2/3/2021 11:30:00 PM -0.02 31.964 0.165 7.24 3.05 13.58
2/3/2021 11:45:00 PM -0.03 31.946 0.164 7.24 3.07 13.58
2/4/2021 12:00:00 AM -0.02 31.964 0.164 7.23 3.14 13.57
2/4/2021 12:15:00 AM -0.02 31.964 0.165 7.23 3.13 13.57
2/4/2021 12:30:00 AM -0.02 31.964 0.165 7.22 3.12 13.57
2/4/2021 12:45:00 AM -0.02 31.964 0.164 7.24 3.14 13.57
2/4/2021 1:00:00 AM -0.02 31.964 0.164 7.23 3.15 13.57
2/4/2021 1:15:00 AM -0.02 31.964 0.165 7.22 3.05 13.56
2/4/2021 1:30:00 AM -0.02 31.964 0.165 7.23 3.09 13.56
2/4/2021 1:45:00 AM -0.02 31.964 0.164 7.25 3.19 13.57
2/4/2021 2:00:00 AM -0.02 31.964 0.164 7.24 3.12 13.56
2/4/2021 2:15:00 AM -0.02 31.964 0.164 7.24 3.16 13.56
2/4/2021 2:30:00 AM -0.01 31.982 0.165 7.24 3.1 13.56
2/4/2021 2:45:00 AM -0.02 31.964 0.164 7.24 3.23 13.56
2/4/2021 3:00:00 AM -0.02 31.964 0.164 7.24 3.24 13.57
2/4/2021 3:15:00 AM -0.03 31.946 0.164 7.24 3.21 13.56
2/4/2021 3:30:00 AM -0.03 31.946 0.164 7.24 3.22 13.56
2/4/2021 3:45:00 AM -0.04 31.928 0.163 7.24 3.35 13.56
2/4/2021 4:00:00 AM -0.04 31.928 0.163 7.25 3.3 13.57
2/4/2021 4:15:00 AM -0.04 31.928 0.164 7.24 3.38 13.57
2/4/2021 4:30:00 AM -0.05 31.91 0.163 7.22 3.33 13.57
2/4/2021 4:45:00 AM -0.05 31.91 0.164 7.23 3.32 13.57
2/4/2021 5:00:00 AM -0.05 31.91 0.164 7.24 3.45 13.57
2/4/2021 5:15:00 AM -0.05 31.91 0.165 7.24 3.39 13.56
2/4/2021 5:30:00 AM -0.06 31.892 0.164 7.24 3.27 13.57
2/4/2021 5:45:00 AM -0.06 31.892 0.165 7.25 3.35 13.57
2/4/2021 6:00:00 AM -0.06 31.892 0.165 7.25 3.34 13.57
2/4/2021 6:15:00 AM -0.05 31.91 0.164 7.26 3.2 13.57
2/4/2021 6:30:00 AM -0.05 31.91 0.165 7.24 3.42 13.57
2/4/2021 6:45:00 AM -0.04 31.928 0.164 7.23 3.36 13.58
2/4/2021 7:00:00 AM -0.04 31.928 0.165 7.23 3.32 13.57
2/4/2021 7:15:00 AM -0.03 31.946 0.165 7.23 3.25 13.58
2/4/2021 7:30:00 AM -0.03 31.946 0.164 7.24 3.25 13.58
2/4/2021 7:45:00 AM -0.02 31.964 0.165 7.24 3.31 13.59
2/4/2021 8:00:00 AM -0.02 31.964 0.164 7.23 3.28 13.61
2/4/2021 8:15:00 AM -0.01 31.982 0.164 7.24 3.26 13.64
2/4/2021 8:30:00 AM -0.01 31.982 0.164 7.25 3.77 13.67
2/4/2021 8:45:00 AM 0 32 0.164 7.24 3.27 13.7
2/4/2021 9:00:00 AM 0.01 32.018 0.164 7.25 3.29 13.74
2/4/2021 9:15:00 AM 0.02 32.036 0.165 7.25 3.23 13.76
2/4/2021 9:30:00 AM 0.03 32.054 0.165 7.26 3.17 13.79
2/4/2021 9:45:00 AM 0.05 32.09 0.164 7.27 3.23 13.82
2/4/2021 10:00:00 AM 0.07 32.126 0.164 7.27 3.08 13.85
2/4/2021 10:15:00 AM 0.11 32.198 0.164 7.28 3.22 13.89
2/4/2021 10:30:00 AM 0.15 32.27 0.164 7.28 3.19 13.9
2/4/2021 10:45:00 AM 0.18 32.324 0.164 7.29 3.16 13.91
2/4/2021 11:00:00 AM 0.22 32.396 0.163 7.29 3.2 13.94
2/4/2021 11:15:00 AM 0.26 32.468 0.164 7.29 3.11 13.95
2/4/2021 11:30:00 AM 0.29 32.522 0.164 7.3 3.1 13.95
2/4/2021 11:45:00 AM 0.32 32.576 0.164 7.3 3.13 13.96
2/4/2021 12:00:00 PM 0.35 32.63 0.165 7.3 3.07 13.96
2/4/2021 12:15:00 PM 0.39 32.702 0.165 7.3 3.09 13.96
2/4/2021 12:30:00 PM 0.41 32.738 0.165 7.3 3.09 13.96
2/4/2021 12:45:00 PM 0.44 32.792 0.166 7.31 3 13.96
2/4/2021 1:00:00 PM 0.46 32.828 0.166 7.32 3.04 13.96
2/4/2021 1:15:00 PM 0.48 32.864 0.166 7.31 3 13.96
2/4/2021 1:30:00 PM 0.49 32.882 0.166 7.31 3.02 13.97
2/4/2021 1:45:00 PM 0.5 32.9 0.164 7.32 3.04 13.97
2/4/2021 2:00:00 PM 0.5 32.9 0.166 7.31 3.18 13.97
2/4/2021 2:15:00 PM 0.5 32.9 0.164 7.29 4.26 13.98
2/4/2021 2:30:00 PM 0.5 32.9 0.165 7.28 5.53 13.98
2/4/2021 2:45:00 PM 0.49 32.882 0.162 7.31 3.85 13.99
2/4/2021 3:00:00 PM 0.48 32.864 0.162 7.29 5.03 14
2/4/2021 3:15:00 PM 0.46 32.828 0.162 7.31 3.77 13.99
2/4/2021 3:30:00 PM 0.44 32.792 0.163 7.28 3.45 14
2/4/2021 3:45:00 PM 0.42 32.756 0.162 7.29 3.17 14
2/4/2021 4:00:00 PM 0.38 32.684 0.162 7.27 3.33 14
2/4/2021 4:15:00 PM 0.34 32.612 0.162 7.28 3.55 14
2/4/2021 4:30:00 PM 0.3 32.54 0.163 7.28 3.33 13.99
2/4/2021 4:45:00 PM 0.25 32.45 0.162 7.28 4.98 13.98
2/4/2021 5:00:00 PM 0.21 32.378 0.163 7.28 4.73 13.97
2/4/2021 5:15:00 PM 0.17 32.306 0.162 7.28 3.49 13.95
2/4/2021 5:30:00 PM 0.14 32.252 0.163 7.28 3.49 13.93
2/4/2021 5:45:00 PM 0.12 32.216 0.163 7.28 3.21 13.9
2/4/2021 6:00:00 PM 0.09 32.162 0.163 7.27 3.1 13.87
2/4/2021 6:15:00 PM 0.07 32.126 0.162 7.28 3.21 13.84
2/4/2021 6:30:00 PM 0.06 32.108 0.163 7.26 3.08 13.83
2/4/2021 6:45:00 PM 0.04 32.072 0.161 7.28 3.42 13.81
2/4/2021 7:00:00 PM 0.02 32.036 0.162 7.27 3.08 13.8
2/4/2021 7:15:00 PM 0.01 32.018 0.161 7.26 3.11 13.79
2/4/2021 7:30:00 PM 0 32 0.161 7.27 3.06 13.78
2/4/2021 7:45:00 PM -0.02 31.964 0.161 7.27 3.08 13.77
2/4/2021 8:00:00 PM -0.03 31.946 0.161 7.27 3.35 13.77
2/4/2021 8:15:00 PM -0.04 31.928 0.161 7.26 3.06 13.77
2/4/2021 8:30:00 PM -0.05 31.91 0.161 7.26 3.11 13.76
2/4/2021 8:45:00 PM -0.06 31.892 0.161 7.26 3.2 13.76
2/4/2021 9:00:00 PM -0.06 31.892 0.161 7.25 3.09 13.76
2/4/2021 9:15:00 PM -0.07 31.874 0.161 7.27 3.21 13.76
2/4/2021 9:30:00 PM -0.07 31.874 0.162 7.27 3.18 13.75
2/4/2021 9:45:00 PM -0.07 31.874 0.162 7.27 3.19 13.74
2/4/2021 10:00:00 PM -0.07 31.874 0.162 7.27 3.21 13.74
2/4/2021 10:15:00 PM -0.06 31.892 0.163 7.26 3.14 13.74
2/4/2021 10:30:00 PM -0.06 31.892 0.162 7.29 3.13 13.74
2/4/2021 10:45:00 PM -0.06 31.892 0.163 7.25 3.22 13.73
2/4/2021 11:00:00 PM -0.06 31.892 0.163 7.25 3.13 13.72
2/4/2021 11:15:00 PM -0.05 31.91 0.164 7.24 3.15 13.71
2/4/2021 11:30:00 PM -0.05 31.91 0.164 7.23 3.07 13.7
2/4/2021 11:45:00 PM -0.05 31.91 0.164 7.23 3.18 13.69
2/5/2021 12:00:00 AM -0.05 31.91 0.164 7.22 3.15 13.69
2/5/2021 12:15:00 AM -0.05 31.91 0.164 7.23 3.17 13.68
2/5/2021 12:30:00 AM -0.04 31.928 0.165 7.23 3.02 13.67
2/5/2021 12:45:00 AM -0.04 31.928 0.165 7.25 3.16 13.66
2/5/2021 1:00:00 AM -0.04 31.928 0.166 7.25 3.18 13.65
2/5/2021 1:15:00 AM -0.04 31.928 0.166 7.25 3.18 13.65
2/5/2021 1:30:00 AM -0.03 31.946 0.166 7.24 66.05 13.65
2/5/2021 1:45:00 AM -0.03 31.946 0.167 7.22 7.87 13.63
2/5/2021 2:00:00 AM -0.03 31.946 0.167 7.21 3.96 13.63
2/5/2021 2:15:00 AM -0.03 31.946 0.167 7.22 4.83 13.62
2/5/2021 2:30:00 AM -0.02 31.964 0.167 7.23 4.27 13.61
2/5/2021 2:45:00 AM -0.02 31.964 0.168 7.23 3.43 13.61
2/5/2021 3:00:00 AM -0.02 31.964 0.168 7.21 3.38 13.6
2/5/2021 3:15:00 AM -0.01 31.982 0.169 7.19 93.29 13.59
2/5/2021 3:30:00 AM -0.02 31.964 0.169 7.21 3.32 13.59
2/5/2021 3:45:00 AM -0.02 31.964 0.169 7.19 3.42 13.58
2/5/2021 4:00:00 AM -0.02 31.964 0.17 7.19 3.33 13.57
2/5/2021 4:15:00 AM -0.01 31.982 0.169 7.18 3.36 13.57
2/5/2021 4:30:00 AM -0.01 31.982 0.17 7.19 3.3 13.56
2/5/2021 4:45:00 AM 0 32 0.169 7.19 3.28 13.55
2/5/2021 5:00:00 AM 0 32 0.169 7.19 3.3 13.55
2/5/2021 5:15:00 AM 0.01 32.018 0.17 7.18 3.25 13.54
2/5/2021 5:30:00 AM 0.01 32.018 0.171 7.19 3.25 13.52
2/5/2021 5:45:00 AM 0.01 32.018 0.171 7.18 3.22 13.52
2/5/2021 6:00:00 AM 0.02 32.036 0.172 7.19 3.31 13.52
2/5/2021 6:15:00 AM 0.01 32.018 0.171 7.18 3.35 13.51
2/5/2021 6:30:00 AM 0.01 32.018 0.171 7.19 3.26 13.51
2/5/2021 6:45:00 AM 0.01 32.018 0.17 7.17 3.27 13.5
2/5/2021 7:00:00 AM 0.01 32.018 0.17 7.18 3.26 13.49
2/5/2021 7:15:00 AM 0.01 32.018 0.17 7.17 3.33 13.48
2/5/2021 7:30:00 AM 0.01 32.018 0.169 7.18 3.38 13.48
2/5/2021 7:45:00 AM 0.02 32.036 0.17 7.18 3.42 13.48
2/5/2021 8:00:00 AM 0.03 32.054 0.17 7.18 3.39 13.48
2/5/2021 8:15:00 AM 0.04 32.072 0.169 7.19 3.35 13.5
2/5/2021 8:30:00 AM 0.05 32.09 0.169 7.19 3.3 13.51
2/5/2021 8:45:00 AM 0.07 32.126 0.169 7.19 3.32 13.53
2/5/2021 9:00:00 AM 0.08 32.144 0.168 7.19 3.44 13.56
2/5/2021 9:15:00 AM 0.11 32.198 0.168 7.2 3.33 13.59
2/5/2021 9:30:00 AM 0.14 32.252 0.167 7.21 3.35 13.63
2/5/2021 9:45:00 AM 0.19 32.342 0.166 7.23 3.39 13.67
2/5/2021 10:00:00 AM 0.24 32.432 0.166 7.22 3.4 13.69
2/5/2021 10:15:00 AM 0.28 32.504 0.165 7.24 3.43 13.71
2/5/2021 10:30:00 AM